Provisional Data: Little Clearfield Creek near Dimeling, PA


Please select a monitoring station.
Please select start date.
Please select start date.

Toggle Unit: C/F Toggle Unit: C/F
Sample Time Temperature (C) Temperature (F) Specific Conductivity (mS/cm) pH   Turbidity (NTU+) DO (mg/L)
10/17/2022 12:00:00 AM 9.28 48.704 0.502 7.72 3.57 10.45
10/17/2022 12:15:00 AM 9.27 48.686 0.503 7.71 3.59 10.45
10/17/2022 12:30:00 AM 9.26 48.668 0.503 7.71 3.51 10.45
10/17/2022 12:45:00 AM 9.24 48.632 0.503 7.71 3.55 10.47
10/17/2022 1:00:00 AM 9.22 48.596 0.503 7.7 3.61 10.46
10/17/2022 1:15:00 AM 9.2 48.56 0.503 7.71 3.63 10.43
10/17/2022 1:30:00 AM 9.17 48.506 0.503 7.7 3.58 10.45
10/17/2022 1:45:00 AM 9.15 48.47 0.503 7.7 3.78 10.43
10/17/2022 2:00:00 AM 9.14 48.452 0.503 7.69 3.65 10.41
10/17/2022 2:15:00 AM 9.1 48.38 0.503 7.7 3.66 10.45
10/17/2022 2:30:00 AM 9.09 48.362 0.503 7.7 3.67 10.46
10/17/2022 2:45:00 AM 9.04 48.272 0.503 7.69 3.61 10.45
10/17/2022 3:00:00 AM 9.02 48.236 0.503 7.7 3.78 10.47
10/17/2022 3:15:00 AM 8.98 48.164 0.503 7.69 3.69 10.46
10/17/2022 3:30:00 AM 8.94 48.092 0.504 7.7 3.7 10.5
10/17/2022 3:45:00 AM 8.91 48.038 0.504 7.69 3.66 10.5
10/17/2022 4:00:00 AM 8.87 47.966 0.504 7.69 3.77 10.49
10/17/2022 4:15:00 AM 8.85 47.93 0.504 7.69 3.67 10.52
10/17/2022 4:30:00 AM 8.82 47.876 0.504 7.7 3.68 10.56
10/17/2022 4:45:00 AM 8.79 47.822 0.504 7.69 3.7 10.55
10/17/2022 5:00:00 AM 8.77 47.786 0.504 7.69 3.65 10.55
10/17/2022 5:15:00 AM 8.76 47.768 0.504 7.68 4.2 10.54
10/17/2022 5:30:00 AM 8.74 47.732 0.504 7.69 3.68 10.48
10/17/2022 5:45:00 AM 8.72 47.696 0.504 7.68 3.61 10.54
10/17/2022 6:00:00 AM 8.69 47.642 0.504 7.68 3.7 10.54
10/17/2022 6:15:00 AM 8.68 47.624 0.504 7.68 3.68 10.56
10/17/2022 6:30:00 AM 8.65 47.57 0.504 7.69 3.69 10.61
10/17/2022 6:45:00 AM 8.65 47.57 0.504 7.69 3.66 10.59
10/17/2022 7:00:00 AM 8.63 47.534 0.504 7.69 3.73 10.58
10/17/2022 7:15:00 AM 8.62 47.516 0.504 7.68 3.69 10.56
10/17/2022 7:30:00 AM 8.59 47.462 0.504 7.69 4.05 10.57
10/17/2022 7:45:00 AM 8.55 47.39 0.504 7.68 3.77 10.61
10/17/2022 8:00:00 AM 8.54 47.372 0.504 7.68 3.67 10.63
10/17/2022 8:15:00 AM 8.54 47.372 0.504 7.69 3.71 10.68
10/17/2022 8:30:00 AM 8.53 47.354 0.504 7.69 3.63 10.7
10/17/2022 8:45:00 AM 8.54 47.372 0.504 7.68 3.63 10.72
10/17/2022 9:00:00 AM 8.54 47.372 0.504 7.69 3.68 10.72
10/17/2022 9:15:00 AM 8.58 47.444 0.504 7.69 3.71 10.77
10/17/2022 9:30:00 AM 8.6 47.48 0.504 7.72 3.68 10.91
10/17/2022 9:45:00 AM 8.62 47.516 0.504 7.72 3.72 10.92
10/17/2022 10:00:00 AM 8.67 47.606 0.504 7.73 3.68 11.03
10/17/2022 10:15:00 AM 8.69 47.642 0.504 7.74 3.69 11.01
10/17/2022 10:30:00 AM 8.75 47.75 0.504 7.74 3.7 11.09
10/17/2022 10:45:00 AM 8.87 47.966 0.504 7.76 3.68 11.17
10/17/2022 11:00:00 AM 8.9 48.02 0.503 7.77 3.66 11.22
10/17/2022 11:15:00 AM 8.93 48.074 0.503 7.77 3.7 11.18
10/17/2022 11:30:00 AM 8.98 48.164 0.503 7.78 3.73 11.22
10/17/2022 11:45:00 AM 8.99 48.182 0.503 7.8 3.7 11.21
10/17/2022 12:00:00 PM 9.05 48.29 0.503 7.8 3.72 11.19
10/17/2022 12:15:00 PM 9.15 48.47 0.503 7.78 3.82 11.21
10/17/2022 12:30:00 PM 9.17 48.506 0.503 7.81 3.67 11.25
10/17/2022 12:45:00 PM 9.18 48.524 0.503 7.82 3.66 11.27
10/17/2022 1:00:00 PM 9.2 48.56 0.503 7.81 3.8 11.26
10/17/2022 1:15:00 PM 9.28 48.704 0.503 7.83 3.7 11.32
10/17/2022 1:30:00 PM 9.34 48.812 0.503 7.83 3.68 11.36
10/17/2022 1:45:00 PM 9.4 48.92 0.503 7.85 3.69 11.39
10/17/2022 2:00:00 PM 9.44 48.992 0.503 7.86 3.57 11.39
10/17/2022 2:15:00 PM 9.55 49.19 0.502 7.85 3.69 11.4
10/17/2022 2:30:00 PM 9.62 49.316 0.502 7.87 3.55 11.43
10/17/2022 2:45:00 PM 9.66 49.388 0.502 7.86 3.66 11.41
10/17/2022 3:00:00 PM 9.82 49.676 0.503 7.87 3.68 11.44
10/17/2022 3:15:00 PM 9.91 49.838 0.502 7.87 3.61 11.43
10/17/2022 3:30:00 PM 9.77 49.586 0.502 7.87 3.69 11.38
10/17/2022 3:45:00 PM 9.68 49.424 0.503 7.88 3.6 11.33
10/17/2022 4:00:00 PM 9.73 49.514 0.503 7.88 3.63 11.32
10/17/2022 4:15:00 PM 9.84 49.712 0.503 7.87 3.58 11.33
10/17/2022 4:30:00 PM 9.78 49.604 0.503 7.87 3.54 11.29
10/17/2022 4:45:00 PM 9.72 49.496 0.503 7.88 3.58 11.26
10/17/2022 5:00:00 PM 9.6 49.28 0.503 7.87 3.56 11.23
10/17/2022 5:15:00 PM 9.48 49.064 0.503 7.86 3.62 11.17
10/17/2022 5:30:00 PM 9.38 48.884 0.504 7.87 3.56 11.13
10/17/2022 5:45:00 PM 9.33 48.794 0.504 7.86 3.54 11.08
10/17/2022 6:00:00 PM 9.28 48.704 0.504 7.85 3.49 11.02
10/17/2022 6:15:00 PM 9.27 48.686 0.504 7.84 3.47 10.97
10/17/2022 6:30:00 PM 9.24 48.632 0.504 7.84 3.58 10.91
10/17/2022 6:45:00 PM 9.19 48.542 0.504 7.83 3.52 10.83
10/17/2022 7:00:00 PM 9.15 48.47 0.504 7.81 3.46 10.77
10/17/2022 7:15:00 PM 9.1 48.38 0.504 7.81 3.53 10.76
10/17/2022 7:30:00 PM 9.03 48.254 0.504 7.8 3.54 10.68
10/17/2022 7:45:00 PM 8.98 48.164 0.504 7.78 3.58 10.67
10/17/2022 8:00:00 PM 8.91 48.038 0.504 7.78 3.56 10.62
10/17/2022 8:15:00 PM 8.83 47.894 0.504 7.76 3.58 10.6
10/17/2022 8:30:00 PM 8.72 47.696 0.504 7.75 3.62 10.57
10/17/2022 8:45:00 PM 8.6 47.48 0.504 7.72 3.64 10.47
10/17/2022 9:00:00 PM 8.48 47.264 0.504 7.7 3.85 10.36
10/17/2022 9:15:00 PM 8.36 47.048 0.503 7.69 3.81 10.31
10/17/2022 9:30:00 PM 8.24 46.832 0.504 7.69 3.74 10.35
10/17/2022 9:45:00 PM 8.18 46.724 0.505 7.69 3.67 10.49
10/17/2022 10:00:00 PM 8.15 46.67 0.504 7.71 3.6 10.57
10/17/2022 10:15:00 PM 8.07 46.526 0.504 7.71 3.82 10.49
10/17/2022 10:30:00 PM 7.98 46.364 0.504 7.7 3.58 10.49
10/17/2022 10:45:00 PM 7.87 46.166 0.504 7.7 3.63 10.45
10/17/2022 11:00:00 PM 7.76 45.968 0.504 7.68 3.64 10.47
10/17/2022 11:15:00 PM 7.65 45.77 0.504 7.69 3.64 10.5
10/17/2022 11:30:00 PM 7.56 45.608 0.504 7.68 3.61 10.57
10/17/2022 11:45:00 PM 7.54 45.572 0.504 7.68 3.61 10.51
10/18/2022 12:00:00 AM 7.43 45.374 0.504 7.66 3.59 10.49
10/18/2022 12:15:00 AM 7.31 45.158 0.504 7.66 3.66 10.5
10/18/2022 12:30:00 AM 7.2 44.96 0.504 7.65 3.69 10.53
10/18/2022 12:45:00 AM 7.16 44.888 0.503 7.64 3.64 10.59
10/18/2022 1:00:00 AM 7.22 44.996 0.504 7.65 3.57 10.65
10/18/2022 1:15:00 AM 7.29 45.122 0.504 7.66 3.6 10.65
10/18/2022 1:30:00 AM 7.32 45.176 0.504 7.66 3.73 10.72
10/18/2022 1:45:00 AM 7.39 45.302 0.505 7.68 3.62 10.76
10/18/2022 2:00:00 AM 7.37 45.266 0.504 7.69 3.57 10.77
10/18/2022 2:15:00 AM 7.38 45.284 0.504 7.7 3.54 10.79
10/18/2022 2:30:00 AM 7.38 45.284 0.504 7.7 3.65 10.82
10/18/2022 2:45:00 AM 7.37 45.266 0.505 7.71 3.56 10.88
10/18/2022 3:00:00 AM 7.35 45.23 0.505 7.72 3.56 10.9
10/18/2022 3:15:00 AM 7.34 45.212 0.505 7.72 3.6 10.93
10/18/2022 3:30:00 AM 7.31 45.158 0.505 7.71 3.69 10.9
10/18/2022 3:45:00 AM 7.31 45.158 0.505 7.72 3.61 10.93
10/18/2022 4:00:00 AM 7.29 45.122 0.505 7.73 3.53 10.98
10/18/2022 4:15:00 AM 7.26 45.068 0.505 7.72 3.55 10.96
10/18/2022 4:30:00 AM 7.23 45.014 0.505 7.73 3.58 10.96
10/18/2022 4:45:00 AM 7.21 44.978 0.505 7.72 3.62 10.97
10/18/2022 5:00:00 AM 7.17 44.906 0.505 7.72 3.59 10.98
10/18/2022 5:15:00 AM 7.11 44.798 0.505 7.72 3.66 10.96
10/18/2022 5:30:00 AM 6.96 44.528 0.504 7.71 3.67 10.92
10/18/2022 5:45:00 AM 6.98 44.564 0.505 7.69 3.8 10.84
10/18/2022 6:00:00 AM 6.93 44.474 0.505 7.71 3.59 11.02
10/18/2022 6:15:00 AM 6.92 44.456 0.505 7.72 3.65 11.07
10/18/2022 6:30:00 AM 6.9 44.42 0.505 7.72 3.69 11.07
10/18/2022 6:45:00 AM 6.88 44.384 0.505 7.72 3.61 11.11
10/18/2022 7:00:00 AM 6.86 44.348 0.506 7.72 3.64 11.11
10/18/2022 7:15:00 AM 6.81 44.258 0.506 7.72 3.72 11.17
10/18/2022 7:30:00 AM 6.79 44.222 0.506 7.72 3.66 11.18
10/18/2022 7:45:00 AM 6.76 44.168 0.506 7.73 3.69 11.2
10/18/2022 8:00:00 AM 6.75 44.15 0.506 7.72 3.7 11.18
10/18/2022 8:15:00 AM 6.72 44.096 0.506 7.73 3.85 11.26
10/18/2022 8:30:00 AM 6.7 44.06 0.505 7.73 3.7 11.26
10/18/2022 8:45:00 AM 6.72 44.096 0.506 7.74 3.73 11.32
10/18/2022 9:00:00 AM 6.73 44.114 0.506 7.74 3.75 11.34
10/18/2022 9:15:00 AM 6.74 44.132 0.506 7.74 3.71 11.4
10/18/2022 9:30:00 AM 6.75 44.15 0.506 7.75 4 11.47
10/18/2022 9:45:00 AM 6.75 44.15 0.506 7.76 3.91 11.51
10/18/2022 10:00:00 AM 6.76 44.168 0.506 7.77 3.8 11.51
10/18/2022 10:15:00 AM 6.75 44.15 0.506 7.77 3.84 11.55
10/18/2022 10:30:00 AM 6.75 44.15 0.506 7.77 3.78 11.6
10/18/2022 10:45:00 AM 6.76 44.168 0.506 7.78 3.78 11.62
10/18/2022 11:00:00 AM 6.77 44.186 0.506 7.79 3.79 11.63
10/18/2022 11:15:00 AM 6.8 44.24 0.506 7.79 3.84 11.69
10/18/2022 11:30:00 AM 6.81 44.258 0.505 7.8 3.82 11.69
10/18/2022 11:45:00 AM 6.84 44.312 0.505 7.8 3.81 11.72
10/18/2022 12:00:00 PM 6.88 44.384 0.505 7.81 3.94 11.75
10/18/2022 12:15:00 PM 6.94 44.492 0.505 7.81 3.84 11.76
10/18/2022 12:30:00 PM 6.99 44.582 0.505 7.82 3.79 11.77
10/18/2022 12:45:00 PM 7 44.6 0.505 7.82 3.85 11.8
10/18/2022 1:00:00 PM 7.02 44.636 0.505 7.83 3.86 11.81
10/18/2022 1:15:00 PM 7.06 44.708 0.505 7.83 4.12 11.81
10/18/2022 1:30:00 PM 7.13 44.834 0.505 7.84 3.94 11.84
10/18/2022 1:45:00 PM 7.23 45.014 0.505 7.85 4.05 11.87
10/18/2022 2:00:00 PM 7.34 45.212 0.504 7.84 4.01 11.91
10/18/2022 2:15:00 PM 7.45 45.41 0.504 7.85 4.09 11.92
10/18/2022 2:30:00 PM 7.44 45.392 0.504 7.87 3.85 11.91
10/18/2022 2:45:00 PM 7.38 45.284 0.504 7.86 3.89 11.88
10/18/2022 3:00:00 PM 7.39 45.302 0.504 7.86 3.88 11.84
10/18/2022 3:15:00 PM 7.36 45.248 0.504 7.86 3.87 11.8
10/18/2022 3:30:00 PM 7.33 45.194 0.504 7.86 3.91 11.75
10/18/2022 3:45:00 PM 7.31 45.158 0.504 7.87 4.07 11.7
10/18/2022 4:00:00 PM 7.34 45.212 0.504 7.85 3.87 11.69
10/18/2022 4:15:00 PM 7.39 45.302 0.504 7.86 3.91 11.71
10/18/2022 4:30:00 PM 7.39 45.302 0.504 7.84 4.05 11.69
10/18/2022 4:45:00 PM 7.38 45.284 0.504 7.86 3.91 11.73
10/18/2022 5:00:00 PM 7.39 45.302 0.504 7.86 3.85 11.72
10/18/2022 5:15:00 PM 7.4 45.32 0.504 7.87 3.99 11.71
10/18/2022 5:30:00 PM 7.36 45.248 0.504 7.86 3.88 11.7
10/18/2022 5:45:00 PM 7.33 45.194 0.504 7.85 3.96 11.67
10/18/2022 6:00:00 PM 7.3 45.14 0.504 7.85 3.92 11.6
10/18/2022 6:15:00 PM 7.24 45.032 0.504 7.84 4.05 11.55
10/18/2022 6:30:00 PM 7.21 44.978 0.504 7.83 3.98 11.51
10/18/2022 6:45:00 PM 7.19 44.942 0.504 7.84 3.91 11.47
10/18/2022 7:00:00 PM 7.15 44.87 0.504 7.82 4.06 11.41
10/18/2022 7:15:00 PM 7.11 44.798 0.504 7.81 3.89 11.39
10/18/2022 7:30:00 PM 7.11 44.798 0.504 7.8 3.89 11.35
10/18/2022 7:45:00 PM 7.08 44.744 0.504 7.8 3.85 11.34
10/18/2022 8:00:00 PM 7.05 44.69 0.504 7.79 3.87 11.33
10/18/2022 8:15:00 PM 7.05 44.69 0.504 7.78 3.88 11.29
10/18/2022 8:30:00 PM 7.03 44.654 0.504 7.78 3.92 11.27
10/18/2022 8:45:00 PM 7 44.6 0.504 7.77 3.96 11.25
10/18/2022 9:00:00 PM 6.97 44.546 0.504 7.77 4.02 11.31
10/18/2022 9:15:00 PM 6.96 44.528 0.505 7.77 3.93 11.31
10/18/2022 9:30:00 PM 6.93 44.474 0.504 7.76 3.93 11.27
10/18/2022 9:45:00 PM 6.92 44.456 0.504 7.76 3.93 11.26
10/18/2022 10:00:00 PM 6.9 44.42 0.505 7.75 3.96 11.26
10/18/2022 10:15:00 PM 6.89 44.402 0.505 7.76 3.98 11.28
10/18/2022 10:30:00 PM 6.86 44.348 0.505 7.75 3.93 11.27
10/18/2022 10:45:00 PM 6.86 44.348 0.505 7.75 3.97 11.23
10/18/2022 11:00:00 PM 6.85 44.33 0.505 7.76 3.98 11.29
10/18/2022 11:15:00 PM 6.83 44.294 0.505 7.75 3.89 11.26
10/18/2022 11:30:00 PM 6.83 44.294 0.505 7.75 3.97 11.29
10/18/2022 11:45:00 PM 6.81 44.258 0.505 7.75 3.94 11.29
10/19/2022 12:00:00 AM 6.8 44.24 0.505 7.75 3.89 11.3
10/19/2022 12:15:00 AM 6.78 44.204 0.505 7.76 3.93 11.29
10/19/2022 12:30:00 AM 6.78 44.204 0.505 7.75 3.94 11.29
10/19/2022 12:45:00 AM 6.77 44.186 0.505 7.75 3.94 11.29
10/19/2022 1:00:00 AM 6.75 44.15 0.505 7.75 3.95 11.32
10/19/2022 1:15:00 AM 6.74 44.132 0.505 7.75 4.02 11.33
10/19/2022 1:30:00 AM 6.73 44.114 0.505 7.74 4.09 11.3
10/19/2022 1:45:00 AM 6.71 44.078 0.505 7.75 4.03 11.27
10/19/2022 2:00:00 AM 6.68 44.024 0.505 7.74 4.09 11.27
10/19/2022 2:15:00 AM 6.66 43.988 0.505 7.74 4.01 11.29
10/19/2022 2:30:00 AM 6.65 43.97 0.505 7.74 4.1 11.32
10/19/2022 2:45:00 AM 6.63 43.934 0.505 7.73 4.02 11.3
10/19/2022 3:00:00 AM 6.62 43.916 0.505 7.74 3.99 11.3
10/19/2022 3:15:00 AM 6.59 43.862 0.505 7.74 4.06 11.33
10/19/2022 3:30:00 AM 6.56 43.808 0.505 7.74 4.07 11.37
10/19/2022 3:45:00 AM 6.54 43.772 0.505 7.74 4.07 11.33
10/19/2022 4:00:00 AM 6.5 43.7 0.505 7.75 4.06 11.35
10/19/2022 4:15:00 AM 6.5 43.7 0.505 7.73 4.15 11.3
10/19/2022 4:30:00 AM 6.48 43.664 0.505 7.73 4.14 11.35
10/19/2022 4:45:00 AM 6.46 43.628 0.505 7.73 4.12 11.32
10/19/2022 5:00:00 AM 6.45 43.61 0.505 7.74 4.09 11.35
10/19/2022 5:15:00 AM 6.43 43.574 0.505 7.73 4.23 11.36
10/19/2022 5:30:00 AM 6.41 43.538 0.505 7.74 4.12 11.39
10/19/2022 5:45:00 AM 6.37 43.466 0.505 7.74 4.11 11.42
10/19/2022 6:00:00 AM 6.35 43.43 0.505 7.74 4.21 11.41
10/19/2022 6:15:00 AM 6.34 43.412 0.505 7.74 4.13 11.4
10/19/2022 6:30:00 AM 6.31 43.358 0.505 7.74 4.08 11.43
10/19/2022 6:45:00 AM 6.3 43.34 0.506 7.72 4.12 11.42
10/19/2022 7:00:00 AM 6.26 43.268 0.505 7.74 4.1 11.42
10/19/2022 7:15:00 AM 6.25 43.25 0.505 7.73 4.11 11.42
10/19/2022 7:30:00 AM 6.21 43.178 0.505 7.74 4.08 11.46
10/19/2022 7:45:00 AM 6.17 43.106 0.504 7.73 4.75 11.45
10/19/2022 8:00:00 AM 6.12 43.016 0.504 7.74 4.36 11.48
10/19/2022 8:15:00 AM 6.09 42.962 0.503 7.73 4.13 11.51
10/19/2022 8:30:00 AM 6.08 42.944 0.503 7.73 4.13 11.5
10/19/2022 8:45:00 AM 6.05 42.89 0.503 7.73 4.18 11.49
10/19/2022 9:00:00 AM 6.06 42.908 0.503 7.74 4.11 11.56
10/19/2022 9:15:00 AM 6.07 42.926 0.503 7.74 4.11 11.6
10/19/2022 9:30:00 AM 6.06 42.908 0.503 7.74 4.16 11.64
10/19/2022 9:45:00 AM 6.07 42.926 0.503 7.76 4.23 11.71
10/19/2022 10:00:00 AM 6.07 42.926 0.502 7.76 4.17 11.75
10/19/2022 10:15:00 AM 6.11 42.998 0.502 7.76 4.17 11.79
10/19/2022 10:30:00 AM 6.13 43.034 0.502 7.77 6.25 11.81
10/19/2022 10:45:00 AM 6.15 43.07 0.502 7.78 4.22 11.87
10/19/2022 11:00:00 AM 6.16 43.088 0.502 7.78 4.2 11.89
10/19/2022 11:15:00 AM 6.18 43.124 0.502 7.78 4.24 11.91
10/19/2022 11:30:00 AM 6.2 43.16 0.502 7.79 4.87 11.87
10/19/2022 11:45:00 AM 6.24 43.232 0.502 7.8 4.23 11.93
10/19/2022 12:00:00 PM 6.32 43.376 0.502 7.8 4.32 11.95
10/19/2022 12:15:00 PM 6.39 43.502 0.502 7.8 4.25 11.98
10/19/2022 12:30:00 PM 6.41 43.538 0.503 7.81 4.27 11.99
10/19/2022 12:45:00 PM 6.42 43.556 0.503 7.81 4.26 11.99
10/19/2022 1:00:00 PM 6.44 43.592 0.503 7.82 4.45 11.96
10/19/2022 1:15:00 PM 6.48 43.664 0.503 7.82 4.31 11.97
10/19/2022 1:30:00 PM 6.56 43.808 0.503 7.81 4.46 11.99
10/19/2022 1:45:00 PM 6.62 43.916 0.503 7.83 4.25 12.02
10/19/2022 2:00:00 PM 6.69 44.042 0.503 7.84 4.24 12.04
10/19/2022 2:15:00 PM 6.76 44.168 0.503 7.84 4.27 12.05
10/19/2022 2:30:00 PM 6.82 44.276 0.503 7.85 4.25 12.06
10/19/2022 2:45:00 PM 6.91 44.438 0.503 7.85 4.23 12.05
10/19/2022 3:00:00 PM 7.03 44.654 0.503 7.85 4.32 12.05
10/19/2022 3:15:00 PM 7.07 44.726 0.503 7.86 4.24 12.05
10/19/2022 3:30:00 PM 7.08 44.744 0.502 7.86 4.24 12.03
10/19/2022 3:45:00 PM 7.11 44.798 0.502 7.86 4.23 11.99
10/19/2022 4:00:00 PM 7.19 44.942 0.501 7.86 4.25 11.98
10/19/2022 4:15:00 PM 7.25 45.05 0.501 7.86 4.28 12
10/19/2022 4:30:00 PM 7.27 45.086 0.501 7.86 4.45 11.96
10/19/2022 4:45:00 PM 7.26 45.068 0.501 7.86 4.35 11.94
10/19/2022 5:00:00 PM 7.22 44.996 0.501 7.86 4.3 11.92
10/19/2022 5:15:00 PM 7.17 44.906 0.501 7.86 4.46 11.87
10/19/2022 5:30:00 PM 7.13 44.834 0.5 7.86 4.32 11.82
10/19/2022 5:45:00 PM 7.11 44.798 0.5 7.85 4.36 11.75
10/19/2022 6:00:00 PM 7.05 44.69 0.5 7.84 4.32 11.75
10/19/2022 6:15:00 PM 6.99 44.582 0.5 7.83 4.22 11.68
10/19/2022 6:30:00 PM 6.95 44.51 0.5 7.83 4.18 11.67
10/19/2022 6:45:00 PM 6.92 44.456 0.501 7.82 4.26 11.62
10/19/2022 7:00:00 PM 6.88 44.384 0.501 7.82 4.17 11.57
10/19/2022 7:15:00 PM 6.82 44.276 0.5 7.81 4.34 11.55
10/19/2022 7:30:00 PM 6.78 44.204 0.501 7.8 4.22 11.52
10/19/2022 7:45:00 PM 6.74 44.132 0.501 7.79 4.19 11.48
10/19/2022 8:00:00 PM 6.72 44.096 0.501 7.78 4.19 11.47
10/19/2022 8:15:00 PM 6.68 44.024 0.502 7.78 4.18 11.5
10/19/2022 8:30:00 PM 6.67 44.006 0.502 7.77 4.22 11.45
10/19/2022 8:45:00 PM 6.64 43.952 0.503 7.77 4.16 11.45
10/19/2022 9:00:00 PM 6.64 43.952 0.503 7.77 4.15 11.46
10/19/2022 9:15:00 PM 6.63 43.934 0.504 7.77 4.23 11.44
10/19/2022 9:30:00 PM 6.63 43.934 0.504 7.76 4.16 11.45
10/19/2022 9:45:00 PM 6.63 43.934 0.504 7.76 4.08 11.47
10/19/2022 10:00:00 PM 6.63 43.934 0.504 7.77 4.12 11.46
10/19/2022 10:15:00 PM 6.63 43.934 0.504 7.76 4.22 11.44
10/19/2022 10:30:00 PM 6.64 43.952 0.503 7.76 4.29 11.43
10/19/2022 10:45:00 PM 6.64 43.952 0.503 7.76 4.13 11.44
10/19/2022 11:00:00 PM 6.65 43.97 0.503 7.75 4.12 11.42
10/19/2022 11:15:00 PM 6.66 43.988 0.502 7.75 4.13 11.39
10/19/2022 11:30:00 PM 6.65 43.97 0.502 7.75 4.26 11.4
10/19/2022 11:45:00 PM 6.66 43.988 0.502 7.74 4.11 11.37
10/20/2022 12:00:00 AM 6.64 43.952 0.502 7.75 4.18 11.4
10/20/2022 12:15:00 AM 6.63 43.934 0.502 7.75 4.1 11.39
10/20/2022 12:30:00 AM 6.58 43.844 0.502 7.74 4.14 11.33
10/20/2022 12:45:00 AM 6.5 43.7 0.501 7.73 4.39 11.29
10/20/2022 1:00:00 AM 6.44 43.592 0.501 7.71 4.45 11.17
10/20/2022 1:15:00 AM 6.36 43.448 0.501 7.68 4.34 11.17
10/20/2022 1:30:00 AM 6.36 43.448 0.502 7.69 4.28 11.24
10/20/2022 1:45:00 AM 6.37 43.466 0.502 7.71 4.24 11.3
10/20/2022 2:00:00 AM 6.38 43.484 0.502 7.71 4.23 11.28
10/20/2022 2:15:00 AM 6.31 43.358 0.502 7.71 4.19 11.3
10/20/2022 2:30:00 AM 6.27 43.286 0.502 7.7 4.25 11.25
10/20/2022 2:45:00 AM 6.13 43.034 0.502 7.69 4.38 11.23
10/20/2022 3:00:00 AM 6.1 42.98 0.502 7.66 4.55 11.11
10/20/2022 3:15:00 AM 5.99 42.782 0.502 7.66 4.47 11.12
10/20/2022 3:30:00 AM 5.94 42.692 0.503 7.67 4.29 11.26
10/20/2022 3:45:00 AM 5.96 42.728 0.504 7.7 4.18 11.43
10/20/2022 4:00:00 AM 5.94 42.692 0.504 7.7 4.14 11.45
10/20/2022 4:15:00 AM 5.88 42.584 0.504 7.71 4.2 11.45
10/20/2022 4:30:00 AM 5.84 42.512 0.504 7.7 4.25 11.45
10/20/2022 4:45:00 AM 5.79 42.422 0.504 7.71 4.2 11.48
10/20/2022 5:00:00 AM 5.72 42.296 0.504 7.72 4.14 11.55
10/20/2022 5:15:00 AM 5.62 42.116 0.501 7.7 4.27 11.49
10/20/2022 5:30:00 AM 5.56 42.008 0.501 7.67 4.45 11.29
10/20/2022 5:45:00 AM 5.5 41.9 0.501 7.65 4.37 11.25
10/20/2022 6:00:00 AM 5.42 41.756 0.501 7.66 4.37 11.33
10/20/2022 6:15:00 AM 5.34 41.612 0.501 7.65 4.37 11.34
10/20/2022 6:30:00 AM 5.27 41.486 0.501 7.64 4.46 11.3
10/20/2022 6:45:00 AM 5.23 41.414 0.502 7.64 4.4 11.38
10/20/2022 7:00:00 AM 5.19 41.342 0.502 7.65 4.43 11.34
10/20/2022 7:15:00 AM 5.15 41.27 0.502 7.64 4.49 11.36
10/20/2022 7:30:00 AM 5.07 41.126 0.502 7.64 4.38 11.42
10/20/2022 7:45:00 AM 5.04 41.072 0.502 7.64 4.69 11.42
10/20/2022 8:00:00 AM 5.07 41.126 0.503 7.66 4.35 11.56
10/20/2022 8:15:00 AM 4.98 40.964 0.503 7.66 4.63 11.57
10/20/2022 8:30:00 AM 4.93 40.874 0.503 7.66 4.4 11.6
10/20/2022 8:45:00 AM 4.93 40.874 0.503 7.65 4.33 11.59
10/20/2022 9:00:00 AM 4.98 40.964 0.504 7.68 4.27 11.74
10/20/2022 9:15:00 AM 5 41 0.504 7.68 4.29 11.76
10/20/2022 9:30:00 AM 5.01 41.018 0.505 7.71 4.21 11.9
10/20/2022 9:45:00 AM 5.05 41.09 0.505 7.73 4.25 11.95
10/20/2022 10:00:00 AM 5.06 41.108 0.505 7.74 4.24 12.08
10/20/2022 10:15:00 AM 5.11 41.198 0.505 7.75 4.32 12.11
10/20/2022 10:30:00 AM 5.18 41.324 0.505 7.76 4.29 12.17
10/20/2022 10:45:00 AM 5.23 41.414 0.505 7.76 4.33 12.18
10/20/2022 11:00:00 AM 5.27 41.486 0.505 7.77 4.35 12.24
10/20/2022 11:15:00 AM 5.34 41.612 0.505 7.78 4.37 12.31
10/20/2022 11:30:00 AM 5.32 41.576 0.505 7.79 4.63 12.33
10/20/2022 11:45:00 AM 5.35 41.63 0.505 7.81 4.34 12.35
10/20/2022 12:00:00 PM 5.42 41.756 0.508 7.81 4.39 12.37
10/20/2022 12:15:00 PM 5.47 41.846 0.508 7.81 4.42 12.39
10/20/2022 12:30:00 PM 5.54 41.972 0.508 7.83 4.44 12.38
10/20/2022 12:45:00 PM 5.63 42.134 0.507 7.82 4.42 12.38
10/20/2022 1:00:00 PM 5.69 42.242 0.507 7.83 4.4 12.38
10/20/2022 1:15:00 PM 5.78 42.404 0.507 7.83 4.4 12.38
10/20/2022 1:30:00 PM 5.86 42.548 0.507 7.83 4.5 12.38
10/20/2022 1:45:00 PM 6 42.8 0.507 7.83 4.58 12.35
10/20/2022 2:00:00 PM 6.13 43.034 0.507 7.84 4.46 12.33
10/20/2022 2:15:00 PM 6.25 43.25 0.507 7.85 4.46 12.34
10/20/2022 2:30:00 PM 6.41 43.538 0.507 7.85 4.48 12.34
10/20/2022 2:45:00 PM 6.62 43.916 0.506 7.85 4.49 12.33
10/20/2022 3:00:00 PM 6.69 44.042 0.506 7.85 4.46 12.3
10/20/2022 3:15:00 PM 6.75 44.15 0.506 7.87 4.51 12.29
10/20/2022 3:30:00 PM 6.84 44.312 0.506 7.86 4.43 12.27
10/20/2022 3:45:00 PM 6.99 44.582 0.506 7.87 4.43 12.22
10/20/2022 4:00:00 PM 7.13 44.834 0.506 7.87 4.48 12.21
10/20/2022 4:15:00 PM 7.14 44.852 0.506 7.87 4.58 12.14
10/20/2022 4:30:00 PM 7.12 44.816 0.506 7.87 4.54 12.11
10/20/2022 4:45:00 PM 7.13 44.834 0.506 7.87 4.85 12.08
10/20/2022 5:00:00 PM 7.11 44.798 0.506 7.88 4.81 12.06
10/20/2022 5:15:00 PM 7.07 44.726 0.506 7.87 4.49 12.03
10/20/2022 5:30:00 PM 7 44.6 0.506 7.87 4.48 11.96
10/20/2022 5:45:00 PM 7 44.6 0.507 7.86 4.51 11.91
10/20/2022 6:00:00 PM 7.02 44.636 0.507 7.86 4.49 11.85
10/20/2022 6:15:00 PM 7.03 44.654 0.507 7.85 4.45 11.81
10/20/2022 6:30:00 PM 7.03 44.654 0.506 7.85 4.56 11.75
10/20/2022 6:45:00 PM 7.04 44.672 0.506 7.84 4.55 11.66
10/20/2022 7:00:00 PM 7.01 44.618 0.506 7.83 4.48 11.6
10/20/2022 7:15:00 PM 6.99 44.582 0.507 7.82 4.52 11.57
10/20/2022 7:30:00 PM 6.97 44.546 0.507 7.82 4.46 11.53
10/20/2022 7:45:00 PM 6.95 44.51 0.507 7.8 4.53 11.48
10/20/2022 8:00:00 PM 6.91 44.438 0.507 7.8 4.53 11.47
10/20/2022 8:15:00 PM 6.89 44.402 0.507 7.8 4.5 11.46
10/20/2022 8:30:00 PM 6.87 44.366 0.507 7.79 4.51 11.44
10/20/2022 8:45:00 PM 6.84 44.312 0.507 7.79 4.56 11.45
10/20/2022 9:00:00 PM 6.83 44.294 0.507 7.78 4.46 11.43
10/20/2022 9:15:00 PM 6.8 44.24 0.506 7.79 4.52 11.43
10/20/2022 9:30:00 PM 6.79 44.222 0.506 7.77 4.53 11.45
10/20/2022 9:45:00 PM 6.77 44.186 0.506 7.78 4.53 11.44
10/20/2022 10:00:00 PM 6.77 44.186 0.506 7.77 4.6 11.34
10/20/2022 10:15:00 PM 6.74 44.132 0.506 7.76 4.57 11.38
10/20/2022 10:30:00 PM 6.7 44.06 0.506 7.76 4.55 11.43
10/20/2022 10:45:00 PM 6.69 44.042 0.506 7.77 4.49 11.45
10/20/2022 11:00:00 PM 6.66 43.988 0.506 7.77 4.6 11.48
10/20/2022 11:15:00 PM 6.64 43.952 0.506 7.77 4.56 11.48
10/20/2022 11:30:00 PM 6.63 43.934 0.506 7.76 4.51 11.43
10/20/2022 11:45:00 PM 6.58 43.844 0.506 7.76 4.48 11.46
10/21/2022 12:00:00 AM 6.58 43.844 0.506 7.75 4.56 11.42
10/21/2022 12:15:00 AM 6.55 43.79 0.506 7.76 4.71 11.43
10/21/2022 12:30:00 AM 6.51 43.718 0.506 7.76 4.52 11.48
10/21/2022 12:45:00 AM 6.48 43.664 0.506 7.75 4.53 11.45
10/21/2022 1:00:00 AM 6.43 43.574 0.506 7.74 4.62 11.4
10/21/2022 1:15:00 AM 6.34 43.412 0.506 7.74 4.55 11.42
10/21/2022 1:30:00 AM 6.27 43.286 0.506 7.75 4.5 11.47
10/21/2022 1:45:00 AM 6.2 43.16 0.506 7.75 4.52 11.52
10/21/2022 2:00:00 AM 6.15 43.07 0.506 7.74 4.5 11.48
10/21/2022 2:15:00 AM 6.07 42.926 0.506 7.74 4.51 11.51
10/21/2022 2:30:00 AM 5.99 42.782 0.506 7.74 4.41 11.58
10/21/2022 2:45:00 AM 5.93 42.674 0.506 7.75 4.44 11.58
10/21/2022 3:00:00 AM 5.89 42.602 0.506 7.74 4.47 11.58
10/21/2022 3:15:00 AM 5.8 42.44 0.506 7.74 4.42 11.63
10/21/2022 3:30:00 AM 5.72 42.296 0.506 7.74 4.4 11.66
10/21/2022 3:45:00 AM 5.68 42.224 0.507 7.75 4.47 11.66
10/21/2022 4:00:00 AM 5.63 42.134 0.507 7.74 4.43 11.6
10/21/2022 4:15:00 AM 5.55 41.99 0.506 7.71 4.58 11.46
10/21/2022 4:30:00 AM 5.43 41.774 0.503 7.69 4.65 11.49
10/21/2022 4:45:00 AM 5.39 41.702 0.504 7.72 4.45 11.56
10/21/2022 5:00:00 AM 5.37 41.666 0.504 7.72 4.44 11.67
10/21/2022 5:15:00 AM 5.33 41.594 0.504 7.71 4.42 11.56
10/21/2022 5:30:00 AM 5.23 41.414 0.504 7.7 4.59 11.59
10/21/2022 5:45:00 AM 5.16 41.288 0.504 7.7 4.53 11.72
10/21/2022 6:00:00 AM 5.09 41.162 0.504 7.72 4.45 11.76
10/21/2022 6:15:00 AM 5.05 41.09 0.504 7.71 4.61 11.66
10/21/2022 6:30:00 AM 5.02 41.036 0.504 7.68 4.64 11.54
10/21/2022 6:45:00 AM 4.89 40.802 0.504 7.69 4.64 11.64
10/21/2022 7:00:00 AM 4.89 40.802 0.505 7.71 4.45 11.81
10/21/2022 7:15:00 AM 4.83 40.694 0.504 7.69 4.53 11.66
10/21/2022 7:30:00 AM 4.75 40.55 0.505 7.69 4.42 11.83
10/21/2022 7:45:00 AM 4.73 40.514 0.505 7.72 4.45 11.98
10/21/2022 8:00:00 AM 4.68 40.424 0.505 7.73 4.36 12.01
10/21/2022 8:15:00 AM 4.68 40.424 0.505 7.73 4.34 12.01
10/21/2022 8:30:00 AM 4.66 40.388 0.505 7.73 4.45 12.01
10/21/2022 8:45:00 AM 4.55 40.19 0.505 7.73 4.21 12.14
10/21/2022 9:00:00 AM 4.53 40.154 0.505 7.74 4.25 12.18
10/21/2022 9:15:00 AM 4.49 40.082 0.505 7.74 4.18 12.24
10/21/2022 9:30:00 AM 4.49 40.082 0.505 7.75 4.23 12.32
10/21/2022 9:45:00 AM 4.52 40.136 0.505 7.75 4.24 12.29
10/21/2022 10:00:00 AM 4.55 40.19 0.505 7.75 4.27 12.33
10/21/2022 10:15:00 AM 4.64 40.352 0.505 7.76 4.4 12.36
10/21/2022 10:30:00 AM 4.75 40.55 0.505 7.77 4.22 12.43
10/21/2022 10:45:00 AM 4.84 40.712 0.505 7.78 4.21 12.47
10/21/2022 11:00:00 AM 4.91 40.838 0.505 7.79 4.25 12.49
10/21/2022 11:15:00 AM 5.02 41.036 0.505 7.79 4.42 12.51
10/21/2022 11:30:00 AM 5.09 41.162 0.505 7.8 4.23 12.52
10/21/2022 11:45:00 AM 5.15 41.27 0.505 7.8 4.19 12.49
10/21/2022 12:00:00 PM 5.23 41.414 0.505 7.81 4.24 12.45
10/21/2022 12:15:00 PM 5.33 41.594 0.505 7.81 4.22 12.46
10/21/2022 12:30:00 PM 5.43 41.774 0.508 7.8 4.27 12.46
10/21/2022 12:45:00 PM 5.5 41.9 0.508 7.81 4.28 12.46
10/21/2022 1:00:00 PM 5.57 42.026 0.508 7.82 4.22 12.45
10/21/2022 1:15:00 PM 5.65 42.17 0.508 7.83 4.38 12.45
10/21/2022 1:30:00 PM 5.8 42.44 0.508 7.82 4.18 12.42
10/21/2022 1:45:00 PM 6 42.8 0.507 7.83 4.27 12.41
10/21/2022 2:00:00 PM 6.14 43.052 0.507 7.84 4.18 12.39
10/21/2022 2:15:00 PM 6.32 43.376 0.507 7.84 4.23 12.37
10/21/2022 2:30:00 PM 6.53 43.754 0.507 7.84 4.18 12.34
10/21/2022 2:45:00 PM 6.76 44.168 0.507 7.84 4.27 12.36
10/21/2022 3:00:00 PM 6.91 44.438 0.507 7.85 5.39 12.3
10/21/2022 3:15:00 PM 7.02 44.636 0.507 7.85 4.21 12.27
10/21/2022 3:30:00 PM 7.15 44.87 0.507 7.85 4.18 12.19
10/21/2022 3:45:00 PM 7.29 45.122 0.507 7.85 4.14 12.17
10/21/2022 4:00:00 PM 7.42 45.356 0.507 7.86 4.23 12.14
10/21/2022 4:15:00 PM 7.5 45.5 0.507 7.86 4.2 12.11
10/21/2022 4:30:00 PM 7.57 45.626 0.507 7.86 4.16 12.06
10/21/2022 4:45:00 PM 7.62 45.716 0.507 7.86 4.23 12
10/21/2022 5:00:00 PM 7.65 45.77 0.507 7.86 4.2 11.92
10/21/2022 5:15:00 PM 7.65 45.77 0.507 7.86 4.28 11.85
10/21/2022 5:30:00 PM 7.66 45.788 0.508 7.85 4.23 11.79
10/21/2022 5:45:00 PM 7.69 45.842 0.508 7.85 4.2 11.7
10/21/2022 6:00:00 PM 7.72 45.896 0.508 7.84 4.2 11.63
10/21/2022 6:15:00 PM 7.74 45.932 0.508 7.84 4.18 11.57
10/21/2022 6:30:00 PM 7.75 45.95 0.508 7.83 4.22 11.52
10/21/2022 6:45:00 PM 7.73 45.914 0.508 7.82 4.19 11.46
10/21/2022 7:00:00 PM 7.69 45.842 0.509 7.81 4.33 11.41
10/21/2022 7:15:00 PM 7.66 45.788 0.509 7.81 4.9 11.36
10/21/2022 7:30:00 PM 7.6 45.68 0.509 7.8 4.32 11.34
10/21/2022 7:45:00 PM 7.55 45.59 0.509 7.8 4.25 11.34
10/21/2022 8:00:00 PM 7.49 45.482 0.51 7.79 4.23 11.31
10/21/2022 8:15:00 PM 7.46 45.428 0.509 7.78 4.22 11.3
10/21/2022 8:30:00 PM 7.4 45.32 0.51 7.78 4.34 11.26
10/21/2022 8:45:00 PM 7.35 45.23 0.51 7.78 4.28 11.32
10/21/2022 9:00:00 PM 7.32 45.176 0.51 7.77 4.34 11.29
10/21/2022 9:15:00 PM 7.27 45.086 0.511 7.78 4.48 11.29
10/21/2022 9:30:00 PM 7.23 45.014 0.511 7.77 4.4 11.3
10/21/2022 9:45:00 PM 7.2 44.96 0.511 7.77 4.37 11.29
10/21/2022 10:00:00 PM 7.16 44.888 0.511 7.76 4.3 11.27
10/21/2022 10:15:00 PM 7.1 44.78 0.511 7.77 4.3 11.31
10/21/2022 10:30:00 PM 7.06 44.708 0.511 7.77 4.39 11.34
10/21/2022 10:45:00 PM 7.01 44.618 0.511 7.76 4.39 11.35
10/21/2022 11:00:00 PM 6.98 44.564 0.512 7.76 4.36 11.34
10/21/2022 11:15:00 PM 6.93 44.474 0.512 7.76 4.34 11.33
10/21/2022 11:30:00 PM 6.86 44.348 0.512 7.75 4.28 11.32
10/21/2022 11:45:00 PM 6.82 44.276 0.512 7.76 4.43 11.27
10/22/2022 12:00:00 AM 6.77 44.186 0.512 7.74 4.39 11.33
10/22/2022 12:15:00 AM 6.71 44.078 0.512 7.74 4.46 11.3
10/22/2022 12:30:00 AM 6.67 44.006 0.512 7.74 4.43 11.34
10/22/2022 12:45:00 AM 6.61 43.898 0.513 7.74 4.5 11.35
10/22/2022 1:00:00 AM 6.57 43.826 0.513 7.74 4.38 11.35
10/22/2022 1:15:00 AM 6.5 43.7 0.513 7.74 4.45 11.43
10/22/2022 1:30:00 AM 6.43 43.574 0.513 7.75 4.46 11.48
10/22/2022 1:45:00 AM 6.38 43.484 0.513 7.75 4.47 11.48
10/22/2022 2:00:00 AM 6.31 43.358 0.514 7.74 4.44 11.49
10/22/2022 2:15:00 AM 6.25 43.25 0.514 7.74 4.43 11.53
10/22/2022 2:30:00 AM 6.21 43.178 0.514 7.74 4.39 11.53
10/22/2022 2:45:00 AM 6.14 43.052 0.514 7.74 4.46 11.55
10/22/2022 3:00:00 AM 6.08 42.944 0.514 7.74 4.51 11.57
10/22/2022 3:15:00 AM 6.01 42.818 0.515 7.74 4.41 11.61
10/22/2022 3:30:00 AM 5.93 42.674 0.515 7.74 4.48 11.64
10/22/2022 3:45:00 AM 5.87 42.566 0.515 7.74 4.46 11.64
10/22/2022 4:00:00 AM 5.84 42.512 0.516 7.74 4.5 11.64
10/22/2022 4:15:00 AM 5.76 42.368 0.516 7.73 4.49 11.7
10/22/2022 4:30:00 AM 5.72 42.296 0.516 7.73 4.49 11.71
10/22/2022 4:45:00 AM 5.66 42.188 0.516 7.73 4.48 11.7
10/22/2022 5:00:00 AM 5.63 42.134 0.516 7.73 4.46 11.71
10/22/2022 5:15:00 AM 5.56 42.008 0.517 7.73 4.48 11.77
10/22/2022 5:30:00 AM 5.51 41.918 0.517 7.73 4.57 11.77
10/22/2022 5:45:00 AM 5.45 41.81 0.517 7.74 4.52 11.82
10/22/2022 6:00:00 AM 5.4 41.72 0.517 7.73 4.53 11.83
10/22/2022 6:15:00 AM 5.33 41.594 0.517 7.74 4.48 11.85
10/22/2022 6:30:00 AM 5.31 41.558 0.518 7.74 4.5 11.86
10/22/2022 6:45:00 AM 5.25 41.45 0.518 7.73 4.5 11.87
10/22/2022 7:00:00 AM 5.21 41.378 0.518 7.73 4.51 11.88
10/22/2022 7:15:00 AM 5.16 41.288 0.518 7.73 4.51 11.92
10/22/2022 7:30:00 AM 5.11 41.198 0.518 7.73 4.5 11.94
10/22/2022 7:45:00 AM 5.05 41.09 0.518 7.73 4.53 11.97
10/22/2022 8:00:00 AM 5.01 41.018 0.518 7.74 4.51 12
10/22/2022 8:15:00 AM 4.97 40.946 0.518 7.73 4.5 12.01
10/22/2022 8:30:00 AM 4.94 40.892 0.519 7.74 4.45 12.04
10/22/2022 8:45:00 AM 4.9 40.82 0.519 7.74 4.54 12.08
10/22/2022 9:00:00 AM 4.86 40.748 0.519 7.74 4.54 12.14
10/22/2022 9:15:00 AM 4.82 40.676 0.519 7.75 4.52 12.21
10/22/2022 9:30:00 AM 4.83 40.694 0.519 7.74 4.55 12.22
10/22/2022 9:45:00 AM 4.79 40.622 0.519 7.75 4.59 12.27
10/22/2022 10:00:00 AM 4.85 40.73 0.519 7.75 4.53 12.32
10/22/2022 10:15:00 AM 4.97 40.946 0.519 7.76 4.51 12.36
10/22/2022 10:30:00 AM 5.06 41.108 0.519 7.77 4.56 12.39
10/22/2022 10:45:00 AM 5.2 41.36 0.519 7.78 4.55 12.41
10/22/2022 11:00:00 AM 5.31 41.558 0.519 7.78 4.56 12.45
10/22/2022 11:15:00 AM 5.35 41.63 0.519 7.79 4.59 12.45
10/22/2022 11:30:00 AM 5.46 41.828 0.52 7.79 4.53 12.45
10/22/2022 11:45:00 AM 5.55 41.99 0.519 7.8 4.66 12.44
10/22/2022 12:00:00 PM 5.67 42.206 0.519 7.8 4.6 12.43
10/22/2022 12:15:00 PM 5.74 42.332 0.519 7.81 4.65 12.43
10/22/2022 12:30:00 PM 5.83 42.494 0.519 7.81 4.61 12.43
10/22/2022 12:45:00 PM 5.93 42.674 0.519 7.81 4.63 12.39
10/22/2022 1:00:00 PM 6.05 42.89 0.519 7.82 4.66 12.38
10/22/2022 1:15:00 PM 6.17 43.106 0.519 7.82 4.67 12.36
10/22/2022 1:30:00 PM 6.31 43.358 0.519 7.83 4.6 12.33
10/22/2022 1:45:00 PM 6.49 43.682 0.519 7.82 4.82 12.31
10/22/2022 2:00:00 PM 6.68 44.024 0.519 7.83 4.63 12.29
10/22/2022 2:15:00 PM 6.92 44.456 0.518 7.83 4.92 12.26
10/22/2022 2:30:00 PM 7.2 44.96 0.518 7.84 4.63 12.22
10/22/2022 2:45:00 PM 7.32 45.176 0.518 7.84 4.62 12.25
10/22/2022 3:00:00 PM 7.58 45.644 0.518 7.84 4.62 12.19
10/22/2022 3:15:00 PM 7.65 45.77 0.518 7.84 4.6 12.13
10/22/2022 3:30:00 PM 7.79 46.022 0.518 7.84 4.65 12.09
10/22/2022 3:45:00 PM 7.9 46.22 0.518 7.85 4.68 12.07
10/22/2022 4:00:00 PM 8.1 46.58 0.518 7.85 4.64 12.04
10/22/2022 4:15:00 PM 8.15 46.67 0.518 7.85 4.99 11.98
10/22/2022 4:30:00 PM 8.26 46.868 0.518 7.85 4.59 11.94
10/22/2022 4:45:00 PM 8.28 46.904 0.518 7.86 4.61 11.88
10/22/2022 5:00:00 PM 8.3 46.94 0.518 7.85 4.69 11.82
10/22/2022 5:15:00 PM 8.32 46.976 0.518 7.86 4.57 11.72
10/22/2022 5:30:00 PM 8.33 46.994 0.518 7.85 4.58 11.64
10/22/2022 5:45:00 PM 8.36 47.048 0.518 7.84 4.6 11.57
10/22/2022 6:00:00 PM 8.39 47.102 0.518 7.84 4.55 11.49
10/22/2022 6:15:00 PM 8.42 47.156 0.518 7.83 4.6 11.43
10/22/2022 6:30:00 PM 8.43 47.174 0.519 7.82 4.64 11.37
10/22/2022 6:45:00 PM 8.43 47.174 0.519 7.82 4.55 11.31
10/22/2022 7:00:00 PM 8.4 47.12 0.519 7.81 4.6 11.27
10/22/2022 7:15:00 PM 8.35 47.03 0.519 7.8 4.61 11.24
10/22/2022 7:30:00 PM 8.31 46.958 0.519 7.8 4.66 11.22
10/22/2022 7:45:00 PM 8.23 46.814 0.519 7.79 4.72 11.21
10/22/2022 8:00:00 PM 8.18 46.724 0.519 7.78 4.63 11.19
10/22/2022 8:15:00 PM 8.14 46.652 0.52 7.78 4.63 11.18
10/22/2022 8:30:00 PM 8.08 46.544 0.519 7.77 4.62 11.18
10/22/2022 8:45:00 PM 8.04 46.472 0.52 7.77 4.78 11.18
10/22/2022 9:00:00 PM 8.01 46.418 0.52 7.77 4.69 11.17
10/22/2022 9:15:00 PM 7.96 46.328 0.52 7.76 4.64 11.14
10/22/2022 9:30:00 PM 7.93 46.274 0.52 7.76 4.72 11.12
10/22/2022 9:45:00 PM 7.9 46.22 0.52 7.76 4.66 11.13
10/22/2022 10:00:00 PM 7.86 46.148 0.52 7.76 4.63 11.18
10/22/2022 10:15:00 PM 7.83 46.094 0.52 7.76 4.7 11.17
10/22/2022 10:30:00 PM 7.8 46.04 0.52 7.76 4.57 11.18
10/22/2022 10:45:00 PM 7.76 45.968 0.52 7.76 4.67 11.15
10/22/2022 11:00:00 PM 7.73 45.914 0.52 7.76 4.71 11.15
10/22/2022 11:15:00 PM 7.69 45.842 0.52 7.75 4.71 11.16
10/22/2022 11:30:00 PM 7.66 45.788 0.52 7.75 4.77 11.15
10/22/2022 11:45:00 PM 7.61 45.698 0.52 7.75 4.67 11.22
10/23/2022 12:00:00 AM 7.58 45.644 0.52 7.75 4.68 11.18
10/23/2022 12:15:00 AM 7.52 45.536 0.52 7.75 4.69 11.2
10/23/2022 12:30:00 AM 7.47 45.446 0.52 7.76 4.74 11.25
10/23/2022 12:45:00 AM 7.41 45.338 0.52 7.75 4.67 11.22
10/23/2022 1:00:00 AM 7.37 45.266 0.52 7.75 4.71 11.21
10/23/2022 1:15:00 AM 7.31 45.158 0.52 7.75 4.76 11.27
10/23/2022 1:30:00 AM 7.26 45.068 0.52 7.73 5.35 11.2
10/23/2022 1:45:00 AM 7.19 44.942 0.52 7.75 4.82 11.25
10/23/2022 2:00:00 AM 7.12 44.816 0.52 7.74 4.7 11.3
10/23/2022 2:15:00 AM 7.05 44.69 0.52 7.73 4.78 11.31
10/23/2022 2:30:00 AM 6.98 44.564 0.521 7.73 4.77 11.36
10/23/2022 2:45:00 AM 6.92 44.456 0.521 7.74 4.81 11.36
10/23/2022 3:00:00 AM 6.84 44.312 0.521 7.74 4.8 11.4
10/23/2022 3:15:00 AM 6.78 44.204 0.521 7.73 4.94 11.39
10/23/2022 3:30:00 AM 6.72 44.096 0.521 7.73 4.85 11.46
10/23/2022 3:45:00 AM 6.63 43.934 0.521 7.73 4.9 11.47
10/23/2022 4:00:00 AM 6.58 43.844 0.521 7.72 4.9 11.46
10/23/2022 4:15:00 AM 6.49 43.682 0.521 7.73 4.83 11.52
10/23/2022 4:30:00 AM 6.41 43.538 0.522 7.73 4.85 11.56
10/23/2022 4:45:00 AM 6.36 43.448 0.522 7.73 4.87 11.55
10/23/2022 5:00:00 AM 6.32 43.376 0.522 7.73 4.88 11.57
10/23/2022 5:15:00 AM 6.24 43.232 0.522 7.72 5.26 11.58
10/23/2022 5:30:00 AM 6.17 43.106 0.522 7.73 4.91 11.63
10/23/2022 5:45:00 AM 6.1 42.98 0.522 7.73 4.91 11.65
10/23/2022 6:00:00 AM 6.04 42.872 0.522 7.73 4.92 11.62
10/23/2022 6:15:00 AM 6 42.8 0.522 7.73 4.92 11.67
10/23/2022 6:30:00 AM 5.91 42.638 0.522 7.73 4.88 11.72
10/23/2022 6:45:00 AM 5.85 42.53 0.522 7.73 4.92 11.73
10/23/2022 7:00:00 AM 5.8 42.44 0.523 7.73 5.03 11.75
10/23/2022 7:15:00 AM 5.74 42.332 0.523 7.73 4.97 11.77
10/23/2022 7:30:00 AM 5.7 42.26 0.523 7.73 4.88 11.79
10/23/2022 7:45:00 AM 5.65 42.17 0.523 7.73 4.94 11.81
10/23/2022 8:00:00 AM 5.58 42.044 0.523 7.73 5.13 11.84
10/23/2022 8:15:00 AM 5.53 41.954 0.523 7.73 4.93 11.87
10/23/2022 8:30:00 AM 5.49 41.882 0.523 7.73 4.95 11.91
10/23/2022 8:45:00 AM 5.45 41.81 0.523 7.73 5.01 11.94
10/23/2022 9:00:00 AM 5.42 41.756 0.523 7.74 4.92 12.01
10/23/2022 9:15:00 AM 5.39 41.702 0.523 7.74 4.97 12.06
10/23/2022 9:30:00 AM 5.37 41.666 0.523 7.74 4.97 12.1
10/23/2022 9:45:00 AM 5.4 41.72 0.523 7.74 5.05 12.11
10/23/2022 10:00:00 AM 5.43 41.774 0.523 7.75 4.96 12.19
10/23/2022 10:15:00 AM 5.48 41.864 0.523 7.75 4.96 12.23
10/23/2022 10:30:00 AM 5.59 42.062 0.523 7.76 5.11 12.27
10/23/2022 10:45:00 AM 5.73 42.314 0.523 7.77 5.11 12.29
10/23/2022 11:00:00 AM 5.8 42.44 0.523 7.78 5.04 12.35
10/23/2022 11:15:00 AM 5.85 42.53 0.523 7.8 5.03 12.38
10/23/2022 11:30:00 AM 6.01 42.818 0.522 7.79 5.07 12.38
10/23/2022 11:45:00 AM 6.06 42.908 0.522 7.8 5.15 12.38
10/23/2022 12:00:00 PM 6.15 43.07 0.522 7.8 5.11 12.37
10/23/2022 12:15:00 PM 6.25 43.25 0.522 7.81 5.03 12.37
10/23/2022 12:30:00 PM 6.33 43.394 0.522 7.81 5.04 12.35
10/23/2022 12:45:00 PM 6.47 43.646 0.523 7.83 5.16 12.34
10/23/2022 1:00:00 PM 6.58 43.844 0.522 7.83 5.07 12.32
10/23/2022 1:15:00 PM 6.67 44.006 0.522 7.83 5.11 12.31
10/23/2022 1:30:00 PM 6.8 44.24 0.522 7.84 5.09 12.3
10/23/2022 1:45:00 PM 6.97 44.546 0.522 7.84 5.13 12.28
10/23/2022 2:00:00 PM 7.15 44.87 0.522 7.84 5.08 12.27
10/23/2022 2:15:00 PM 7.38 45.284 0.522 7.84 5.13 12.26
10/23/2022 2:30:00 PM 7.62 45.716 0.522 7.84 5.06 12.23
10/23/2022 2:45:00 PM 7.81 46.058 0.522 7.85 5.11 12.2
10/23/2022 3:00:00 PM 7.94 46.292 0.522 7.86 5.05 12.19
10/23/2022 3:15:00 PM 8.08 46.544 0.522 7.85 5.11 12.19
10/23/2022 3:30:00 PM 8.11 46.598 0.522 7.86 5.08 12.11
10/23/2022 3:45:00 PM 8.24 46.832 0.522 7.87 5.03 12.08
10/23/2022 4:00:00 PM 8.44 47.192 0.522 7.87 5.01 12.04
10/23/2022 4:15:00 PM 8.58 47.444 0.522 7.87 5.06 12.05
10/23/2022 4:30:00 PM 8.67 47.606 0.522 7.87 5.07 12
10/23/2022 4:45:00 PM 8.71 47.678 0.521 7.87 5.05 11.97
10/23/2022 5:00:00 PM 8.79 47.822 0.521 7.87 5.07 11.85
10/23/2022 5:15:00 PM 8.71 47.678 0.521 7.87 5.05 11.8
10/23/2022 5:30:00 PM 8.72 47.696 0.522 7.87 5.03 11.71
10/23/2022 5:45:00 PM 8.75 47.75 0.522 7.86 4.98 11.65
10/23/2022 6:00:00 PM 8.78 47.804 0.522 7.86 5.05 11.54
10/23/2022 6:15:00 PM 8.79 47.822 0.522 7.85 5.02 11.44
10/23/2022 6:30:00 PM 8.8 47.84 0.522 7.84 5.1 11.38
10/23/2022 6:45:00 PM 8.8 47.84 0.522 7.83 5.03 11.31
10/23/2022 7:00:00 PM 8.79 47.822 0.522 7.83 4.99 11.24
10/23/2022 7:15:00 PM 8.79 47.822 0.523 7.81 5.06 11.21
10/23/2022 7:30:00 PM 8.78 47.804 0.523 7.8 4.99 11.17
10/23/2022 7:45:00 PM 8.76 47.768 0.523 7.79 5.01 11.12
10/23/2022 8:00:00 PM 8.72 47.696 0.523 7.79 5.07 11.09
10/23/2022 8:15:00 PM 8.65 47.57 0.523 7.78 5.12 11.11
10/23/2022 8:30:00 PM 8.6 47.48 0.523 7.78 5.07 11.1
10/23/2022 8:45:00 PM 8.56 47.408 0.523 7.77 4.97 11.09
10/23/2022 9:00:00 PM 8.52 47.336 0.523 7.77 5.01 11.08
10/23/2022 9:15:00 PM 8.5 47.3 0.523 7.76 4.98 11.06
10/23/2022 9:30:00 PM 8.49 47.282 0.523 7.76 4.92 11.02
10/23/2022 9:45:00 PM 8.48 47.264 0.523 7.75 4.97 11.01
10/23/2022 10:00:00 PM 8.48 47.264 0.523 7.75 4.96 11.04
10/23/2022 10:15:00 PM 8.49 47.282 0.523 7.74 5.07 11.02
10/23/2022 10:30:00 PM 8.51 47.318 0.524 7.74 4.87 11.02
10/23/2022 10:45:00 PM 8.53 47.354 0.524 7.74 4.93 11.02
10/23/2022 11:00:00 PM 8.56 47.408 0.524 7.74 4.92 10.99
10/23/2022 11:15:00 PM 8.59 47.462 0.525 7.74 4.92 11
10/23/2022 11:30:00 PM 8.59 47.462 0.525 7.74 5.02 10.99
10/23/2022 11:45:00 PM 8.58 47.444 0.525 7.74 5.02 10.99
10/24/2022 12:00:00 AM 8.55 47.39 0.525 7.73 4.98 10.96
10/24/2022 12:15:00 AM 8.52 47.336 0.524 7.74 4.96 10.98
10/24/2022 12:30:00 AM 8.5 47.3 0.524 7.73 5.01 10.99
10/24/2022 12:45:00 AM 8.46 47.228 0.524 7.72 5.22 10.95
10/24/2022 1:00:00 AM 8.44 47.192 0.524 7.73 4.97 10.97
10/24/2022 1:15:00 AM 8.41 47.138 0.524 7.72 5.09 10.98
10/24/2022 1:30:00 AM 8.4 47.12 0.523 7.7 15.46 10.94
10/24/2022 1:45:00 AM 8.4 47.12 0.523 7.72 5.74 10.97
10/24/2022 2:00:00 AM 8.39 47.102 0.523 7.71 6.27 10.96
10/24/2022 2:15:00 AM 8.38 47.084 0.523 7.71 5.61 10.98
10/24/2022 2:30:00 AM 8.36 47.048 0.523 7.72 5.34 11.02
10/24/2022 2:45:00 AM 8.34 47.012 0.523 7.71 5.2 11
10/24/2022 3:00:00 AM 8.31 46.958 0.523 7.71 5.11 11
10/24/2022 3:15:00 AM 8.28 46.904 0.523 7.72 5 11.04
10/24/2022 3:30:00 AM 8.24 46.832 0.523 7.72 5.11 11.03
10/24/2022 3:45:00 AM 8.19 46.742 0.523 7.71 5.1 11.02
10/24/2022 4:00:00 AM 8.13 46.634 0.523 7.72 5.03 11.06
10/24/2022 4:15:00 AM 8.08 46.544 0.523 7.71 4.98 11.04
10/24/2022 4:30:00 AM 8.03 46.454 0.523 7.71 5.02 11.1
10/24/2022 4:45:00 AM 7.99 46.382 0.523 7.72 5.11 11.05
10/24/2022 5:00:00 AM 7.95 46.31 0.523 7.71 5.09 11.09
10/24/2022 5:15:00 AM 7.91 46.238 0.523 7.71 5.21 11.08
10/24/2022 5:30:00 AM 7.86 46.148 0.523 7.71 5.07 11.1
10/24/2022 5:45:00 AM 7.82 46.076 0.523 7.71 5.12 11.11
10/24/2022 6:00:00 AM 7.77 45.986 0.523 7.71 5.11 11.14
10/24/2022 6:15:00 AM 7.74 45.932 0.523 7.71 5.11 11.14
10/24/2022 6:30:00 AM 7.7 45.86 0.523 7.71 5.36 11.17
10/24/2022 6:45:00 AM 7.67 45.806 0.523 7.71 5.43 11.19
10/24/2022 7:00:00 AM 7.64 45.752 0.523 7.71 5.07 11.21
10/24/2022 7:15:00 AM 7.61 45.698 0.523 7.71 5.27 11.22
10/24/2022 7:30:00 AM 7.57 45.626 0.523 7.71 5.05 11.23
10/24/2022 7:45:00 AM 7.55 45.59 0.523 7.71 5.04 11.29
10/24/2022 8:00:00 AM 7.53 45.554 0.523 7.72 5.39 11.31
10/24/2022 8:15:00 AM 7.54 45.572 0.523 7.71 5.4 11.32
10/24/2022 8:30:00 AM 7.55 45.59 0.523 7.72 5.13 11.35
10/24/2022 8:45:00 AM 7.55 45.59 0.523 7.73 5.07 11.4
10/24/2022 9:00:00 AM 7.54 45.572 0.523 7.73 5.05 11.42
10/24/2022 9:15:00 AM 7.55 45.59 0.523 7.73 4.99 11.46
10/24/2022 9:30:00 AM 7.57 45.626 0.523 7.73 5.04 11.48
10/24/2022 9:45:00 AM 7.6 45.68 0.523 7.74 5.14 11.5
10/24/2022 10:00:00 AM 7.64 45.752 0.523 7.74 5.06 11.56
10/24/2022 10:15:00 AM 7.72 45.896 0.523 7.75 5.36 11.58
10/24/2022 10:30:00 AM 7.83 46.094 0.523 7.76 5.06 11.6
10/24/2022 10:45:00 AM 7.91 46.238 0.523 7.76 5.11 11.63
10/24/2022 11:00:00 AM 8.04 46.472 0.522 7.76 5.09 11.67
10/24/2022 11:15:00 AM 8.17 46.706 0.522 7.77 5.15 11.63
10/24/2022 11:30:00 AM 8.25 46.85 0.522 7.77 5.16 11.63
10/24/2022 11:45:00 AM 8.33 46.994 0.522 7.78 5.08 11.61
10/24/2022 12:00:00 PM 8.4 47.12 0.522 7.79 5.16 11.6
10/24/2022 12:15:00 PM 8.51 47.318 0.522 7.79 5.15 11.59
10/24/2022 12:30:00 PM 8.6 47.48 0.522 7.79 5.12 11.59
10/24/2022 12:45:00 PM 8.73 47.714 0.522 7.8 5.11 11.59
10/24/2022 1:00:00 PM 8.77 47.786 0.522 7.8 5.95 11.56
10/24/2022 1:15:00 PM 8.92 48.056 0.522 7.81 7.46 11.54
10/24/2022 1:30:00 PM 8.99 48.182 0.522 7.81 5.71 11.52
10/24/2022 1:45:00 PM 9.16 48.488 0.522 7.81 5.17 11.51
10/24/2022 2:00:00 PM 9.3 48.74 0.522 7.81 5.1 11.49
10/24/2022 2:15:00 PM 9.48 49.064 0.522 7.82 5.14 11.5
10/24/2022 2:30:00 PM 9.6 49.28 0.522 7.83 5.29 11.48
10/24/2022 2:45:00 PM 9.71 49.478 0.522 7.83 5.05 11.5
10/24/2022 3:00:00 PM 9.97 49.946 0.521 7.84 5.15 11.54
10/24/2022 3:15:00 PM 10.13 50.234 0.521 7.84 5.09 11.5
10/24/2022 3:30:00 PM 10.57 51.026 0.521 7.82 5.09 11.49
10/24/2022 3:45:00 PM 10.61 51.098 0.521 7.84 5.09 11.49
10/24/2022 4:00:00 PM 10.73 51.314 0.521 7.84 5.12 11.39
10/24/2022 4:15:00 PM 10.81 51.458 0.521 7.84 5.06 11.35
10/24/2022 4:30:00 PM 10.89 51.602 0.521 7.84 5.08 11.24
10/24/2022 4:45:00 PM 10.82 51.476 0.521 7.85 5.2 11.18
10/24/2022 5:00:00 PM 10.78 51.404 0.521 7.85 5.02 11.13
10/24/2022 5:15:00 PM 10.71 51.278 0.521 7.85 5.03 11.01
10/24/2022 5:30:00 PM 10.67 51.206 0.521 7.84 5 10.94
10/24/2022 5:45:00 PM 10.67 51.206 0.521 7.83 5.08 10.84
10/24/2022 6:00:00 PM 10.67 51.206 0.521 7.82 5.02 10.76
10/24/2022 6:15:00 PM 10.69 51.242 0.521 7.82 4.99 10.72
10/24/2022 6:30:00 PM 10.7 51.26 0.521 7.8 4.97 10.65
10/24/2022 6:45:00 PM 10.7 51.26 0.521 7.79 4.95 10.58
10/24/2022 7:00:00 PM 10.69 51.242 0.521 7.79 5.07 10.54
10/24/2022 7:15:00 PM 10.67 51.206 0.522 7.78 4.95 10.5
10/24/2022 7:30:00 PM 10.64 51.152 0.522 7.77 5.08 10.46
10/24/2022 7:45:00 PM 10.61 51.098 0.522 7.76 5.03 10.46
10/24/2022 8:00:00 PM 10.57 51.026 0.522 7.76 5.06 10.43
10/24/2022 8:15:00 PM 10.51 50.918 0.522 7.76 4.95 10.45
10/24/2022 8:30:00 PM 10.48 50.864 0.522 7.75 5.02 10.41
10/24/2022 8:45:00 PM 10.45 50.81 0.522 7.74 5.03 10.39
10/24/2022 9:00:00 PM 10.41 50.738 0.522 7.73 5.31 10.34
10/24/2022 9:15:00 PM 10.39 50.702 0.522 7.72 5.01 10.37
10/24/2022 9:30:00 PM 10.37 50.666 0.522 7.72 5.09 10.39
10/24/2022 9:45:00 PM 10.35 50.63 0.522 7.73 4.94 10.41
10/24/2022 10:00:00 PM 10.33 50.594 0.523 7.72 4.97 10.42
10/24/2022 10:15:00 PM 10.31 50.558 0.522 7.72 4.99 10.39
10/24/2022 10:30:00 PM 10.29 50.522 0.522 7.72 4.95 10.42
10/24/2022 10:45:00 PM 10.28 50.504 0.522 7.72 4.93 10.39
10/24/2022 11:00:00 PM 10.26 50.468 0.522 7.72 4.89 10.36
10/24/2022 11:15:00 PM 10.24 50.432 0.522 7.71 4.92 10.35
10/24/2022 11:30:00 PM 10.21 50.378 0.522 7.71 4.98 10.35
10/24/2022 11:45:00 PM 10.19 50.342 0.523 7.71 4.94 10.37
10/25/2022 12:00:00 AM 10.17 50.306 0.523 7.71 4.92 10.39
10/25/2022 12:15:00 AM 10.15 50.27 0.523 7.71 4.9 10.4
10/25/2022 12:30:00 AM 10.12 50.216 0.522 7.71 4.89 10.36
10/25/2022 12:45:00 AM 10.08 50.144 0.522 7.7 4.96 10.36
10/25/2022 1:00:00 AM 10.07 50.126 0.522 7.7 4.9 10.42
10/25/2022 1:15:00 AM 10.06 50.108 0.523 7.71 5.14 10.44
10/25/2022 1:30:00 AM 10.05 50.09 0.522 7.71 5.26 10.48
10/25/2022 1:45:00 AM 10.05 50.09 0.523 7.71 5.36 10.47
10/25/2022 2:00:00 AM 10.05 50.09 0.523 7.71 5.26 10.48
10/25/2022 2:15:00 AM 10.04 50.072 0.523 7.71 5.32 10.5
10/25/2022 2:30:00 AM 10.03 50.054 0.523 7.71 5.17 10.5
10/25/2022 2:45:00 AM 10.02 50.036 0.523 7.71 5.36 10.44
10/25/2022 3:00:00 AM 10.01 50.018 0.523 7.72 5.04 10.5
10/25/2022 3:15:00 AM 10 50 0.523 7.71 5.03 10.5
10/25/2022 3:30:00 AM 9.98 49.964 0.523 7.71 4.96 10.51
10/25/2022 3:45:00 AM 9.97 49.946 0.523 7.71 5.09 10.5
10/25/2022 4:00:00 AM 9.96 49.928 0.523 7.71 5.02 10.49
10/25/2022 4:15:00 AM 9.96 49.928 0.523 7.71 4.94 10.5
10/25/2022 4:30:00 AM 9.96 49.928 0.523 7.71 4.94 10.49
10/25/2022 4:45:00 AM 9.95 49.91 0.523 7.7 5.07 10.5
10/25/2022 5:00:00 AM 9.95 49.91 0.523 7.71 4.99 10.52
10/25/2022 5:15:00 AM 9.95 49.91 0.524 7.71 5.01 10.53
10/25/2022 5:30:00 AM 9.94 49.892 0.524 7.7 5 10.52
10/25/2022 5:45:00 AM 9.94 49.892 0.524 7.71 4.98 10.53
10/25/2022 6:00:00 AM 9.94 49.892 0.524 7.7 4.94 10.52
10/25/2022 6:15:00 AM 9.94 49.892 0.524 7.7 4.97 10.52
10/25/2022 6:30:00 AM 9.93 49.874 0.524 7.7 4.93 10.53
10/25/2022 6:45:00 AM 9.94 49.892 0.524 7.7 5.04 10.49
10/25/2022 7:00:00 AM 9.93 49.874 0.524 7.69 4.95 10.51
10/25/2022 7:15:00 AM 9.93 49.874 0.524 7.68 4.98 10.49
10/25/2022 7:30:00 AM 9.93 49.874 0.524 7.7 4.86 10.54
10/25/2022 7:45:00 AM 9.92 49.856 0.524 7.69 5.01 10.55
10/25/2022 8:00:00 AM 9.91 49.838 0.524 7.69 4.99 10.56
10/25/2022 8:15:00 AM 9.91 49.838 0.524 7.7 4.95 10.56
10/25/2022 8:30:00 AM 9.92 49.856 0.524 7.69 4.96 10.58
10/25/2022 8:45:00 AM 9.93 49.874 0.524 7.7 5.09 10.61
10/25/2022 9:00:00 AM 9.95 49.91 0.524 7.71 5.33 10.66
10/25/2022 9:15:00 AM 9.98 49.964 0.524 7.71 4.98 10.74
10/25/2022 9:30:00 AM 10.01 50.018 0.524 7.72 4.94 10.78
10/25/2022 9:45:00 AM 10.06 50.108 0.524 7.72 4.95 10.83
10/25/2022 10:00:00 AM 10.12 50.216 0.524 7.73 4.98 10.9
10/25/2022 10:15:00 AM 10.19 50.342 0.524 7.74 4.9 10.92
10/25/2022 10:30:00 AM 10.28 50.504 0.524 7.75 4.98 11
10/25/2022 10:45:00 AM 10.35 50.63 0.524 7.76 4.98 11.01
10/25/2022 11:00:00 AM 10.51 50.918 0.524 7.76 4.98 11.07
10/25/2022 11:15:00 AM 10.58 51.044 0.523 7.76 4.99 11.08
10/25/2022 11:30:00 AM 10.61 51.098 0.523 7.79 4.99 11.07
10/25/2022 11:45:00 AM 10.66 51.188 0.523 7.79 5.04 11.04
10/25/2022 12:00:00 PM 10.73 51.314 0.523 7.8 5.03 11.01
10/25/2022 12:15:00 PM 10.82 51.476 0.523 7.79 5.03 10.98
10/25/2022 12:30:00 PM 10.91 51.638 0.523 7.8 4.93 10.93
10/25/2022 12:45:00 PM 10.96 51.728 0.523 7.8 5.49 10.89
10/25/2022 1:00:00 PM 11.01 51.818 0.523 7.8 5.05 10.87
10/25/2022 1:15:00 PM 11.07 51.926 0.523 7.81 5.04 10.86
10/25/2022 1:30:00 PM 11.18 52.124 0.523 7.8 5.11 10.87
10/25/2022 1:45:00 PM 11.3 52.34 0.523 7.8 4.98 10.84
10/25/2022 2:00:00 PM 11.43 52.574 0.523 7.81 4.93 10.84
10/25/2022 2:15:00 PM 11.69 53.042 0.523 7.82 5.05 10.84
10/25/2022 2:30:00 PM 11.85 53.33 0.523 7.81 4.96 10.85
10/25/2022 2:45:00 PM 12.02 53.636 0.523 7.82 5.06 10.84
10/25/2022 3:00:00 PM 12.15 53.87 0.523 7.81 4.94 10.82
10/25/2022 3:15:00 PM 12.22 53.996 0.523 7.82 5.51 10.81
10/25/2022 3:30:00 PM 12.26 54.068 0.523 7.82 6.34 10.75
10/25/2022 3:45:00 PM 12.32 54.176 0.523 7.83 4.95 10.75
10/25/2022 4:00:00 PM 12.32 54.176 0.523 7.83 4.9 10.68
10/25/2022 4:15:00 PM 12.4 54.32 0.523 7.83 5.05 10.66
10/25/2022 4:30:00 PM 12.4 54.32 0.523 7.85 4.85 10.64
10/25/2022 4:45:00 PM 12.39 54.302 0.523 7.84 4.98 10.58
10/25/2022 5:00:00 PM 12.36 54.248 0.523 7.84 4.88 10.5
10/25/2022 5:15:00 PM 12.35 54.23 0.523 7.84 4.85 10.42
10/25/2022 5:30:00 PM 12.37 54.266 0.523 7.83 4.76 10.33
10/25/2022 5:45:00 PM 12.41 54.338 0.523 7.83 4.91 10.25
10/25/2022 6:00:00 PM 12.44 54.392 0.523 7.82 4.82 10.17
10/25/2022 6:15:00 PM 12.46 54.428 0.523 7.8 4.78 10.11
10/25/2022 6:30:00 PM 12.47 54.446 0.523 7.8 4.84 10.06
10/25/2022 6:45:00 PM 12.43 54.374 0.523 7.79 4.79 9.98
10/25/2022 7:00:00 PM 12.39 54.302 0.523 7.77 4.87 9.95
10/25/2022 7:15:00 PM 12.33 54.194 0.523 7.77 4.93 9.9
10/25/2022 7:30:00 PM 12.27 54.086 0.523 7.76 4.9 9.88
10/25/2022 7:45:00 PM 12.19 53.942 0.523 7.76 4.86 9.89
10/25/2022 8:00:00 PM 12.12 53.816 0.523 7.75 4.82 9.86
10/25/2022 8:15:00 PM 12.06 53.708 0.523 7.74 4.79 9.86
10/25/2022 8:30:00 PM 12.01 53.618 0.522 7.74 4.87 9.85
10/25/2022 8:45:00 PM 11.98 53.564 0.523 7.75 4.75 9.89
10/25/2022 9:00:00 PM 11.96 53.528 0.523 7.74 4.82 9.86
10/25/2022 9:15:00 PM 11.94 53.492 0.523 7.74 4.76 9.87
10/25/2022 9:30:00 PM 11.93 53.474 0.523 7.73 4.7 9.9
10/25/2022 9:45:00 PM 11.95 53.51 0.523 7.74 4.83 9.91
10/25/2022 10:00:00 PM 11.97 53.546 0.523 7.72 4.71 9.87
10/25/2022 10:15:00 PM 11.98 53.564 0.523 7.73 4.91 9.86
10/25/2022 10:30:00 PM 12 53.6 0.523 7.71 4.96 9.81
10/25/2022 10:45:00 PM 12.01 53.618 0.523 7.73 4.78 9.87
10/25/2022 11:00:00 PM 12.01 53.618 0.523 7.72 4.82 9.84
10/25/2022 11:15:00 PM 12.01 53.618 0.523 7.73 4.73 9.88
10/25/2022 11:30:00 PM 11.99 53.582 0.523 7.73 4.64 9.84
10/25/2022 11:45:00 PM 11.97 53.546 0.523 7.73 4.79 9.83
10/26/2022 12:00:00 AM 11.95 53.51 0.523 7.72 4.68 9.87
10/26/2022 12:15:00 AM 11.92 53.456 0.523 7.72 4.71 9.86
10/26/2022 12:30:00 AM 11.87 53.366 0.523 7.72 4.73 9.84
10/26/2022 12:45:00 AM 11.83 53.294 0.523 7.72 4.74 9.85
10/26/2022 1:00:00 AM 11.78 53.204 0.523 7.72 4.86 9.86
10/26/2022 1:15:00 AM 11.71 53.078 0.523 7.72 4.66 9.87
10/26/2022 1:30:00 AM 11.64 52.952 0.523 7.72 4.69 9.89
10/26/2022 1:45:00 AM 11.56 52.808 0.523 7.72 4.78 9.9
10/26/2022 2:00:00 AM 11.49 52.682 0.523 7.72 4.67 9.93
10/26/2022 2:15:00 AM 11.42 52.556 0.523 7.73 4.69 9.97
10/26/2022 2:30:00 AM 11.33 52.394 0.523 7.72 4.64 9.98
10/26/2022 2:45:00 AM 11.26 52.268 0.523 7.71 4.68 9.98
10/26/2022 3:00:00 AM 11.18 52.124 0.523 7.72 4.94 10.01
10/26/2022 3:15:00 AM 11.1 51.98 0.523 7.72 4.78 10.01
10/26/2022 3:30:00 AM 11.02 51.836 0.523 7.72 5.25 10.03
10/26/2022 3:45:00 AM 10.95 51.71 0.523 7.73 4.6 10.07
10/26/2022 4:00:00 AM 10.88 51.584 0.523 7.72 4.83 10.08
10/26/2022 4:15:00 AM 10.79 51.422 0.523 7.72 4.7 10.1
10/26/2022 4:30:00 AM 10.73 51.314 0.523 7.72 4.72 10.12
10/26/2022 4:45:00 AM 10.64 51.152 0.523 7.73 4.75 10.13
10/26/2022 5:00:00 AM 10.58 51.044 0.524 7.71 4.72 10.15
10/26/2022 5:15:00 AM 10.53 50.954 0.524 7.72 4.88 10.2
10/26/2022 5:30:00 AM 10.49 50.882 0.524 7.72 4.72 10.21
10/26/2022 5:45:00 AM 10.44 50.792 0.524 7.72 4.69 10.21
10/26/2022 6:00:00 AM 10.4 50.72 0.524 7.73 5.06 10.23
10/26/2022 6:15:00 AM 10.37 50.666 0.524 7.72 4.74 10.26
10/26/2022 6:30:00 AM 10.33 50.594 0.524 7.72 4.76 10.26
10/26/2022 6:45:00 AM 10.28 50.504 0.524 7.73 4.72 10.27
10/26/2022 7:00:00 AM 10.23 50.414 0.524 7.72 4.77 10.29
10/26/2022 7:15:00 AM 10.17 50.306 0.524 7.71 4.76 10.29
10/26/2022 7:30:00 AM 10.1 50.18 0.524 7.72 4.75 10.32
10/26/2022 7:45:00 AM 10.05 50.09 0.524 7.72 5.52 10.31
10/26/2022 8:00:00 AM 10 50 0.524 7.72 4.77 10.35
10/26/2022 8:15:00 AM 9.97 49.946 0.525 7.72 4.75 10.39
10/26/2022 8:30:00 AM 9.93 49.874 0.525 7.73 4.77 10.43
10/26/2022 8:45:00 AM 9.91 49.838 0.525 7.73 4.71 10.47
10/26/2022 9:00:00 AM 9.91 49.838 0.525 7.74 4.76 10.55
10/26/2022 9:15:00 AM 9.94 49.892 0.525 7.75 4.72 10.63
10/26/2022 9:30:00 AM 9.98 49.964 0.525 7.75 4.81 10.66
10/26/2022 9:45:00 AM 9.99 49.982 0.525 7.77 4.77 10.75
10/26/2022 10:00:00 AM 10.01 50.018 0.525 7.78 4.78 10.76
10/26/2022 10:15:00 AM 10.04 50.072 0.525 7.77 4.81 10.78
10/26/2022 10:30:00 AM 10.09 50.162 0.525 7.78 4.84 10.81
10/26/2022 10:45:00 AM 10.18 50.324 0.525 7.79 4.88 10.85
10/26/2022 11:00:00 AM 10.27 50.486 0.524 7.79 4.76 10.87
10/26/2022 11:15:00 AM 10.38 50.684 0.524 7.8 4.85 10.94
10/26/2022 11:30:00 AM 10.55 50.99 0.524 7.82 4.9 10.99
10/26/2022 11:45:00 AM 10.65 51.17 0.524 7.82 4.85 11.03
10/26/2022 12:00:00 PM 10.68 51.224 0.524 7.83 4.84 11
10/26/2022 12:15:00 PM 10.77 51.386 0.524 7.84 4.85 10.96
10/26/2022 12:30:00 PM 10.82 51.476 0.524 7.84 4.86 10.92
10/26/2022 12:45:00 PM 10.88 51.584 0.524 7.84 4.86 10.89
10/26/2022 1:00:00 PM 10.97 51.746 0.524 7.85 4.95 10.91
10/26/2022 1:15:00 PM 11.02 51.836 0.524 7.86 4.81 10.88
10/26/2022 1:30:00 PM 11.03 51.854 0.524 7.85 4.87 10.81
10/26/2022 1:45:00 PM 11.02 51.836 0.524 7.85 4.83 10.74
10/26/2022 2:00:00 PM 11.02 51.836 0.524 7.84 4.79 10.64
10/26/2022 2:15:00 PM 10.99 51.782 0.524 7.83 4.92 10.59
10/26/2022 2:30:00 PM 10.97 51.746 0.675 7.83 4.78 10.55
10/26/2022 2:45:00 PM 10.97 51.746 0.668 7.82 4.9 10.53
10/26/2022 3:00:00 PM 10.98 51.764 0.871 7.81 4.85 10.52
10/26/2022 3:15:00 PM 10.98 51.764 3.098 7.8 4.85 10.42
10/26/2022 3:30:00 PM 11 51.8 2.261 7.8 4.93 10.44
10/26/2022 3:45:00 PM 11.04 51.872 3.472 7.8 4.92 10.42
10/26/2022 4:00:00 PM 11.06 51.908 4.372 7.79 4.81 10.39
10/26/2022 4:15:00 PM 11.03 51.854 4.397 7.79 4.77 10.38
10/26/2022 4:30:00 PM 11.02 51.836 4.787 7.78 4.9 10.35
10/26/2022 4:45:00 PM 11.02 51.836 4.953 7.78 4.85 10.34
10/26/2022 5:00:00 PM 11.06 51.908 5.313 7.77 4.78 10.38
10/26/2022 5:15:00 PM 11.07 51.926 5.436 7.77 4.83 10.37
10/26/2022 5:30:00 PM 11.04 51.872 5.69 7.78 4.75 10.3
10/26/2022 5:45:00 PM 11.01 51.818 5.785 7.76 4.79 10.27
10/26/2022 6:00:00 PM 11 51.8 5.487 7.75 4.77 10.21
10/26/2022 6:15:00 PM 10.97 51.746 4.199 7.76 4.73 10.24
10/26/2022 6:30:00 PM 10.94 51.692 4.982 7.76 4.78 10.19
10/26/2022 6:45:00 PM 10.91 51.638 4.515 7.74 4.81 10.14
10/26/2022 7:00:00 PM 10.88 51.584 1.397 7.75 4.85 10.25
10/26/2022 7:15:00 PM 10.87 51.566 1.081 7.77 4.74 10.25
10/26/2022 7:30:00 PM 10.85 51.53 1.634 7.76 4.82 10.18
10/26/2022 7:45:00 PM 10.84 51.512 1.673 7.75 4.79 10.16
10/26/2022 8:00:00 PM 10.83 51.494 1.544 7.76 4.79 10.24
10/26/2022 8:15:00 PM 10.82 51.476 1.471 7.76 4.8 10.2
10/26/2022 8:30:00 PM 10.81 51.458 1.967 7.74 4.69 10.17
10/26/2022 8:45:00 PM 10.8 51.44 1.853 7.75 4.71 10.19
10/26/2022 9:00:00 PM 10.78 51.404 1.945 7.74 4.8 10.21
10/26/2022 9:15:00 PM 10.77 51.386 1.593 7.75 4.74 10.22
10/26/2022 9:30:00 PM 10.76 51.368 1.492 7.74 5.02 10.17
10/26/2022 9:45:00 PM 10.75 51.35 1.299 7.75 4.78 10.23
10/26/2022 10:00:00 PM 10.74 51.332 1.332 7.74 4.76 10.19
10/26/2022 10:15:00 PM 10.72 51.296 1.292 7.74 4.7 10.23
10/26/2022 10:30:00 PM 10.71 51.278 1.226 7.75 4.8 10.22
10/26/2022 10:45:00 PM 10.69 51.242 1.553 7.73 4.74 10.18
10/26/2022 11:00:00 PM 10.68 51.224 1.215 7.73 4.78 10.18
10/26/2022 11:15:00 PM 10.67 51.206 3.931 7.73 4.74 10.12
10/26/2022 11:30:00 PM 10.66 51.188 4.888 7.72 4.81 10.08
10/26/2022 11:45:00 PM 10.63 51.134 5.246 7.7 4.82 10.05
10/27/2022 12:00:00 AM 10.62 51.116 5.159 7.7 4.94 10.1
10/27/2022 12:15:00 AM 10.59 51.062 5.157 7.72 4.73 10.12
10/27/2022 12:30:00 AM 10.57 51.026 5.1 7.71 4.88 10.11
10/27/2022 12:45:00 AM 10.55 50.99 5.215 7.71 4.85 10.12
10/27/2022 1:00:00 AM 10.53 50.954 5.15 7.71 4.84 10.12
10/27/2022 1:15:00 AM 10.5 50.9 4.299 7.71 4.8 10.15
10/27/2022 1:30:00 AM 10.49 50.882 4.991 7.72 4.71 10.12
10/27/2022 1:45:00 AM 10.47 50.846 5.156 7.72 4.74 10.13
10/27/2022 2:00:00 AM 10.44 50.792 5.132 7.72 4.72 10.15
10/27/2022 2:15:00 AM 10.42 50.756 5.612 7.72 4.71 10.15
10/27/2022 2:30:00 AM 10.38 50.684 5.309 7.72 4.76 10.15
10/27/2022 2:45:00 AM 10.35 50.63 5.168 7.71 4.72 10.2
10/27/2022 3:00:00 AM 10.31 50.558 4.862 7.73 4.72 10.22
10/27/2022 3:15:00 AM 10.26 50.468 4.674 7.71 4.76 10.21
10/27/2022 3:30:00 AM 10.2 50.36 4.774 7.72 4.78 10.2
10/27/2022 3:45:00 AM 10.14 50.252 4.985 7.71 4.71 10.2
10/27/2022 4:00:00 AM 10.1 50.18 4.997 7.72 4.79 10.19
10/27/2022 4:15:00 AM 10.06 50.108 4.905 7.71 4.73 10.24
10/27/2022 4:30:00 AM 10.03 50.054 4.861 7.72 4.76 10.28
10/27/2022 4:45:00 AM 10 50 4.81 7.71 4.82 10.29
10/27/2022 5:00:00 AM 9.98 49.964 4.774 7.71 4.83 10.28
10/27/2022 5:15:00 AM 9.95 49.91 4.759 7.71 4.84 10.3
10/27/2022 5:30:00 AM 9.92 49.856 4.706 7.72 5.05 10.31
10/27/2022 5:45:00 AM 9.88 49.784 4.651 7.72 4.87 10.31
10/27/2022 6:00:00 AM 9.86 49.748 4.458 7.72 4.84 10.34
10/27/2022 6:15:00 AM 9.84 49.712 4.46 7.72 4.77 10.33
10/27/2022 6:30:00 AM 9.81 49.658 4.434 7.72 4.84 10.38
10/27/2022 6:45:00 AM 9.78 49.604 4.326 7.72 4.81 10.38
10/27/2022 7:00:00 AM 9.76 49.568 4.096 7.72 4.8 10.4
10/27/2022 7:15:00 AM 9.73 49.514 4.145 7.73 4.8 10.41
10/27/2022 7:30:00 AM 9.7 49.46 4.005 7.73 4.87 10.43
10/27/2022 7:45:00 AM 9.63 49.334 3.906 7.72 4.88 10.44
10/27/2022 8:00:00 AM 9.58 49.244 3.975 7.73 4.86 10.48
10/27/2022 8:15:00 AM 9.54 49.172 4.039 7.73 5.04 10.51
10/27/2022 8:30:00 AM 9.49 49.082 3.982 7.73 4.79 10.55
10/27/2022 8:45:00 AM 9.46 49.028 3.922 7.73 4.77 10.62
10/27/2022 9:00:00 AM 9.43 48.974 3.895 7.73 4.8 10.64
10/27/2022 9:15:00 AM 9.42 48.956 3.883 7.76 4.74 10.73
10/27/2022 9:30:00 AM 9.44 48.992 3.878 7.75 4.79 10.8
10/27/2022 9:45:00 AM 9.49 49.082 3.571 7.77 4.82 10.89
10/27/2022 10:00:00 AM 9.53 49.154 3.643 7.78 4.97 10.98
10/27/2022 10:15:00 AM 9.56 49.208 3.728 7.78 4.84 11.01
10/27/2022 10:30:00 AM 9.62 49.316 3.704 7.8 4.82 11.06
10/27/2022 10:45:00 AM 9.66 49.388 3.667 7.8 4.91 11.1
10/27/2022 11:00:00 AM 9.77 49.586 3.739 7.81 4.88 11.14
10/27/2022 11:15:00 AM 9.75 49.55 3.762 7.82 4.93 11.15
10/27/2022 11:30:00 AM 9.73 49.514 3.575 7.81 4.88 11.12
10/27/2022 11:45:00 AM 9.78 49.604 3.225 7.82 4.9 11.09
10/27/2022 12:00:00 PM 9.76 49.568 3.266 7.81 4.84 11.05
10/27/2022 12:15:00 PM 9.84 49.712 3.073 7.83 4.84 11.07
10/27/2022 12:30:00 PM 9.86 49.748 3.012 7.83 4.84 11.07
10/27/2022 12:45:00 PM 9.93 49.874 2.564 7.84 4.85 11.11
10/27/2022 1:00:00 PM 9.9 49.82 0.552 7.85 4.88 11.17
10/27/2022 1:15:00 PM 9.93 49.874 0.551 7.86 5 11.17
10/27/2022 1:30:00 PM 9.97 49.946 0.548 7.85 4.84 11.17
10/27/2022 1:45:00 PM 10.02 50.036 0.548 7.86 4.86 11.19
10/27/2022 2:00:00 PM 10.15 50.27 0.549 7.85 4.9 11.19
10/27/2022 2:15:00 PM 10.27 50.486 0.548 7.86 4.89 11.2
10/27/2022 2:30:00 PM 10.53 50.954 0.549 7.86 4.9 11.2
10/27/2022 2:45:00 PM 10.58 51.044 0.551 7.86 4.9 11.17
10/27/2022 3:00:00 PM 10.66 51.188 0.549 7.86 4.88 11.19
10/27/2022 3:15:00 PM 10.62 51.116 0.549 7.87 4.81 11.19
10/27/2022 3:30:00 PM 10.67 51.206 0.552 7.87 4.89 11.17
10/27/2022 3:45:00 PM 10.7 51.26 0.551 7.87 4.8 11.14
10/27/2022 4:00:00 PM 10.75 51.35 0.551 7.87 4.77 11.13
10/27/2022 4:15:00 PM 10.83 51.494 0.563 7.88 4.91 11.11
10/27/2022 4:30:00 PM 10.82 51.476 0.552 7.89 4.8 11.09
10/27/2022 4:45:00 PM 10.83 51.494 0.566 7.88 4.82 11.08
10/27/2022 5:00:00 PM 10.77 51.386 0.575 7.88 4.71 10.99
10/27/2022 5:15:00 PM 10.74 51.332 0.57 7.88 6.14 10.92
10/27/2022 5:30:00 PM 10.71 51.278 0.603 7.87 4.8 10.86
10/27/2022 5:45:00 PM 10.7 51.26 0.625 7.86 4.75 10.76
10/27/2022 6:00:00 PM 10.71 51.278 0.658 7.86 9.12 10.68
10/27/2022 6:15:00 PM 10.74 51.332 0.651 7.85 4.71 10.64
10/27/2022 6:30:00 PM 10.72 51.296 0.648 7.84 4.76 10.58
10/27/2022 6:45:00 PM 10.7 51.26 0.647 7.83 4.71 10.54
10/27/2022 7:00:00 PM 10.65 51.17 0.648 7.82 4.75 10.52
10/27/2022 7:15:00 PM 10.58 51.044 0.65 7.82 4.64 10.48
10/27/2022 7:30:00 PM 10.47 50.846 0.655 7.81 4.71 10.5
10/27/2022 7:45:00 PM 10.37 50.666 0.658 7.81 4.7 10.49
10/27/2022 8:00:00 PM 10.26 50.468 0.663 7.81 4.74 10.49
10/27/2022 8:15:00 PM 10.18 50.324 0.667 7.8 4.67 10.52
10/27/2022 8:30:00 PM 10.07 50.126 0.67 7.79 4.85 10.51
10/27/2022 8:45:00 PM 9.97 49.946 0.671 7.79 4.67 10.55
10/27/2022 9:00:00 PM 9.87 49.766 0.672 7.79 4.81 10.56
10/27/2022 9:15:00 PM 9.8 49.64 0.674 7.78 4.73 10.56
10/27/2022 9:30:00 PM 9.72 49.496 0.673 7.79 4.69 10.6
10/27/2022 9:45:00 PM 9.62 49.316 0.673 7.78 4.63 10.6
10/27/2022 10:00:00 PM 9.54 49.172 0.674 7.78 4.7 10.63
10/27/2022 10:15:00 PM 9.46 49.028 0.672 7.77 4.9 10.64
10/27/2022 10:30:00 PM 9.38 48.884 2.596 7.76 4.7 10.58
10/27/2022 10:45:00 PM 9.29 48.722 2.567 7.76 4.76 10.63
10/27/2022 11:00:00 PM 9.22 48.596 2.691 7.77 4.82 10.64
10/27/2022 11:15:00 PM 9.12 48.416 2.761 7.76 4.77 10.65
10/27/2022 11:30:00 PM 9.05 48.29 2.677 7.75 4.69 10.71
10/27/2022 11:45:00 PM 8.95 48.11 2.869 7.75 4.72 10.72
10/28/2022 12:00:00 AM 8.88 47.984 2.867 7.75 4.76 10.73
10/28/2022 12:15:00 AM 8.8 47.84 2.347 7.75 4.75 10.77
10/28/2022 12:30:00 AM 8.71 47.678 1.456 7.76 4.69 10.83
10/28/2022 12:45:00 AM 8.6 47.48 1.815 7.76 4.72 10.86
10/28/2022 1:00:00 AM 8.54 47.372 2.132 7.76 4.67 10.86
10/28/2022 1:15:00 AM 8.43 47.174 2.132 7.75 4.65 10.9
10/28/2022 1:30:00 AM 8.34 47.012 1.981 7.76 4.77 10.93
10/28/2022 1:45:00 AM 8.24 46.832 1.953 7.75 4.7 10.94
10/28/2022 2:00:00 AM 8.15 46.67 2.024 7.76 4.85 10.99
10/28/2022 2:15:00 AM 8.07 46.526 2.085 7.76 4.73 11
10/28/2022 2:30:00 AM 7.95 46.31 2.082 7.76 4.65 11.06
10/28/2022 2:45:00 AM 7.89 46.202 2.036 7.75 4.75 11.05
10/28/2022 3:00:00 AM 7.78 46.004 2.068 7.75 4.93 11.1
10/28/2022 3:15:00 AM 7.7 45.86 2.015 7.75 5.04 11.12
10/28/2022 3:30:00 AM 7.6 45.68 2.017 7.75 4.86 11.13
10/28/2022 3:45:00 AM 7.5 45.5 1.97 7.76 4.79 11.23
10/28/2022 4:00:00 AM 7.43 45.374 2.004 7.75 4.81 11.22
10/28/2022 4:15:00 AM 7.35 45.23 1.954 7.75 4.97 11.24
10/28/2022 4:30:00 AM 7.26 45.068 1.994 7.75 4.83 11.29
10/28/2022 4:45:00 AM 7.18 44.924 2.075 7.76 4.77 11.3
10/28/2022 5:00:00 AM 7.1 44.78 2.105 7.75 4.82 11.32
10/28/2022 5:15:00 AM 7.06 44.708 2.09 7.75 4.75 11.37
10/28/2022 5:30:00 AM 6.98 44.564 1.918 7.76 4.81 11.4
10/28/2022 5:45:00 AM 6.89 44.402 1.915 7.76 4.79 11.42
10/28/2022 6:00:00 AM 6.83 44.294 1.966 7.76 4.9 11.45
10/28/2022 6:15:00 AM 6.77 44.186 1.98 7.76 4.82 11.45
10/28/2022 6:30:00 AM 6.7 44.06 2.025 7.76 4.77 11.49
10/28/2022 6:45:00 AM 6.64 43.952 2.039 7.76 4.8 11.49
10/28/2022 7:00:00 AM 6.58 43.844 1.825 7.76 4.9 11.55
10/28/2022 7:15:00 AM 6.48 43.664 1.72 7.76 4.82 11.54
10/28/2022 7:30:00 AM 6.43 43.574 1.663 7.76 5 11.59
10/28/2022 7:45:00 AM 6.39 43.502 1.625 7.76 4.87 11.62
10/28/2022 8:00:00 AM 6.34 43.412 1.614 7.76 4.87 11.67
10/28/2022 8:15:00 AM 6.28 43.304 1.552 7.76 4.95 11.69
10/28/2022 8:30:00 AM 6.25 43.25 1.576 7.77 4.96 11.77
10/28/2022 8:45:00 AM 6.22 43.196 1.56 7.78 5 11.82
10/28/2022 9:00:00 AM 6.19 43.142 1.588 7.78 4.93 11.9
10/28/2022 9:15:00 AM 6.18 43.124 1.575 7.79 4.82 11.96
10/28/2022 9:30:00 AM 6.19 43.142 1.519 7.8 4.88 12.02
10/28/2022 9:45:00 AM 6.22 43.196 1.547 7.8 4.89 12.04
10/28/2022 10:00:00 AM 6.25 43.25 1.561 7.82 4.98 12.12
10/28/2022 10:15:00 AM 6.31 43.358 1.55 7.82 4.91 12.15
10/28/2022 10:30:00 AM 6.37 43.466 1.504 7.83 4.94 12.21
10/28/2022 10:45:00 AM 6.47 43.646 1.355 7.84 5.05 12.26
10/28/2022 11:00:00 AM 6.51 43.718 1.307 7.86 5.03 12.29
10/28/2022 11:15:00 AM 6.56 43.808 1.435 7.86 5.04 12.28
10/28/2022 11:30:00 AM 6.63 43.934 1.337 7.87 4.97 12.33
10/28/2022 11:45:00 AM 6.7 44.06 1.134 7.87 5 12.32
10/28/2022 12:00:00 PM 6.78 44.204 1.266 7.88 5 12.33
10/28/2022 12:15:00 PM 6.85 44.33 1.136 7.88 5.02 12.33
10/28/2022 12:30:00 PM 6.95 44.51 0.966 7.89 5.06 12.32
10/28/2022 12:45:00 PM 7.06 44.708 1.254 7.89 5.08 12.33
10/28/2022 1:00:00 PM 7.15 44.87 1.149 7.9 5.13 12.32
10/28/2022 1:15:00 PM 7.25 45.05 0.556 7.91 5.15 12.34
10/28/2022 1:30:00 PM 7.36 45.248 1.213 7.91 5.29 12.3
10/28/2022 1:45:00 PM 7.48 45.464 1.197 7.91 5.16 12.31
10/28/2022 2:00:00 PM 7.59 45.662 1.23 7.91 5.11 12.3
10/28/2022 2:15:00 PM 7.74 45.932 1.106 7.92 5.07 12.27
10/28/2022 2:30:00 PM 7.87 46.166 1.026 7.92 5.04 12.29
10/28/2022 2:45:00 PM 8.01 46.418 0.621 7.93 5.05 12.27
10/28/2022 3:00:00 PM 8.07 46.526 0.638 7.93 5.03 12.29
10/28/2022 3:15:00 PM 8.09 46.562 0.7 7.93 5.14 12.23
10/28/2022 3:30:00 PM 8.31 46.958 0.548 7.93 5.18 12.23
10/28/2022 3:45:00 PM 8.46 47.228 0.549 7.93 5.11 12.2
10/28/2022 4:00:00 PM 8.39 47.102 0.551 7.94 5.1 12.15
10/28/2022 4:15:00 PM 8.45 47.21 0.552 7.94 5.04 12.11
10/28/2022 4:30:00 PM 8.4 47.12 0.561 7.94 5 12.07
10/28/2022 4:45:00 PM 8.4 47.12 0.558 7.94 9.99 12.02
10/28/2022 5:00:00 PM 8.43 47.174 0.571 7.92 26.05 11.96
10/28/2022 5:15:00 PM 8.39 47.102 0.582 7.93 5.59 11.94
10/28/2022 5:30:00 PM 8.35 47.03 0.618 7.93 5.53 11.87
10/28/2022 5:45:00 PM 8.35 47.03 0.62 7.93 5.08 11.8
10/28/2022 6:00:00 PM 8.33 46.994 0.63 7.92 7.08 11.73
10/28/2022 6:15:00 PM 8.3 46.94 0.63 7.91 5.12 11.66
10/28/2022 6:30:00 PM 8.25 46.85 0.637 7.9 4.97 11.59
10/28/2022 6:45:00 PM 8.19 46.742 0.64 7.89 5.09 11.53
10/28/2022 7:00:00 PM 8.14 46.652 0.646 7.88 5.01 11.48
10/28/2022 7:15:00 PM 8.03 46.454 0.655 7.87 4.93 11.45
10/28/2022 7:30:00 PM 7.96 46.328 0.658 7.86 4.96 11.44
10/28/2022 7:45:00 PM 7.85 46.13 0.66 7.85 4.97 11.41
10/28/2022 8:00:00 PM 7.77 45.986 0.663 7.85 5.21 11.43
10/28/2022 8:15:00 PM 7.66 45.788 0.666 7.84 13.27 11.4
10/28/2022 8:30:00 PM 7.59 45.662 0.669 7.84 5.12 11.45
10/28/2022 8:45:00 PM 7.49 45.482 0.668 7.84 4.96 11.46
10/28/2022 9:00:00 PM 7.44 45.392 0.669 7.83 5.03 11.47
10/28/2022 9:15:00 PM 7.36 45.248 0.67 7.83 5.12 11.48
10/28/2022 9:30:00 PM 7.27 45.086 0.673 7.82 4.97 11.49
10/28/2022 9:45:00 PM 7.21 44.978 0.671 7.82 5.27 11.49
10/28/2022 10:00:00 PM 7.15 44.87 0.67 7.82 5.01 11.51
10/28/2022 10:15:00 PM 7.09 44.762 0.671 7.82 5.04 11.51
10/28/2022 10:30:00 PM 7.03 44.654 0.67 7.81 4.97 11.54
10/28/2022 10:45:00 PM 6.96 44.528 0.669 7.81 4.94 11.55
10/28/2022 11:00:00 PM 6.89 44.402 0.664 7.81 4.93 11.55
10/28/2022 11:15:00 PM 6.81 44.258 0.664 7.8 4.89 11.59
10/28/2022 11:30:00 PM 6.77 44.186 0.664 7.8 4.99 11.6
10/28/2022 11:45:00 PM 6.7 44.06 0.662 7.8 4.98 11.57
10/29/2022 12:00:00 AM 6.63 43.934 0.661 7.79 5.07 11.58
10/29/2022 12:15:00 AM 6.61 43.898 0.66 7.8 5.09 11.61
10/29/2022 12:30:00 AM 6.5 43.7 0.661 7.8 4.92 11.63
10/29/2022 12:45:00 AM 6.47 43.646 0.661 7.8 4.93 11.66
10/29/2022 1:00:00 AM 6.41 43.538 0.659 7.8 4.99 11.66
10/29/2022 1:15:00 AM 6.34 43.412 0.659 7.8 4.93 11.7
10/29/2022 1:30:00 AM 6.3 43.34 0.659 7.79 5.04 11.71
10/29/2022 1:45:00 AM 6.24 43.232 0.657 7.79 4.99 11.74
10/29/2022 2:00:00 AM 6.19 43.142 0.657 7.79 4.99 11.75
10/29/2022 2:15:00 AM 6.13 43.034 0.657 7.79 4.95 11.76
10/29/2022 2:30:00 AM 6.07 42.926 0.656 7.79 4.98 11.78
10/29/2022 2:45:00 AM 6.02 42.836 0.654 7.79 5.02 11.8
10/29/2022 3:00:00 AM 5.95 42.71 0.652 7.79 5.1 11.79
10/29/2022 3:15:00 AM 5.9 42.62 0.652 7.79 5.04 11.79
10/29/2022 3:30:00 AM 5.85 42.53 0.649 7.79 5.07 11.84
10/29/2022 3:45:00 AM 5.79 42.422 0.646 7.79 5 11.87
10/29/2022 4:00:00 AM 5.77 42.386 0.636 7.78 5.09 11.85
10/29/2022 4:15:00 AM 5.67 42.206 0.623 7.78 5.04 11.89
10/29/2022 4:30:00 AM 5.62 42.116 0.613 7.78 5.11 11.89
10/29/2022 4:45:00 AM 5.55 41.99 0.608 7.79 5.04 11.96
10/29/2022 5:00:00 AM 5.5 41.9 0.594 7.78 5.04 11.97
10/29/2022 5:15:00 AM 5.42 41.756 0.586 7.78 5.11 11.98
10/29/2022 5:30:00 AM 5.37 41.666 0.584 7.78 5.12 12
10/29/2022 5:45:00 AM 5.3 41.54 0.582 7.78 5.12 12.04
10/29/2022 6:00:00 AM 5.25 41.45 0.577 7.78 5.14 12.03
10/29/2022 6:15:00 AM 5.18 41.324 0.574 7.78 5.1 12.07
10/29/2022 6:30:00 AM 5.12 41.216 0.568 7.78 5.09 12.09
10/29/2022 6:45:00 AM 5.05 41.09 0.567 7.78 5.16 12.13
10/29/2022 7:00:00 AM 4.99 40.982 0.566 7.78 5.16 12.14
10/29/2022 7:15:00 AM 4.94 40.892 0.565 7.78 5.09 12.17
10/29/2022 7:30:00 AM 4.88 40.784 0.566 7.78 5.12 12.19
10/29/2022 7:45:00 AM 4.81 40.658 0.56 7.78 5.19 12.23
10/29/2022 8:00:00 AM 4.7 40.46 0.563 7.77 5.18 12.23
10/29/2022 8:15:00 AM 4.69 40.442 0.562 7.78 5.1 12.29
10/29/2022 8:30:00 AM 4.63 40.334 0.562 7.77 5.67 12.29
10/29/2022 8:45:00 AM 4.61 40.298 0.563 7.78 5.22 12.33
10/29/2022 9:00:00 AM 4.56 40.208 0.561 7.79 5.19 12.42
10/29/2022 9:15:00 AM 4.54 40.172 0.565 7.8 5.12 12.47
10/29/2022 9:30:00 AM 4.53 40.154 0.565 7.8 5.17 12.51
10/29/2022 9:45:00 AM 4.55 40.19 0.572 7.8 5.59 12.54
10/29/2022 10:00:00 AM 4.57 40.226 0.585 7.81 5.12 12.6
10/29/2022 10:15:00 AM 4.64 40.352 0.604 7.81 5.1 12.61
10/29/2022 10:30:00 AM 4.77 40.586 0.621 7.82 5.11 12.65
10/29/2022 10:45:00 AM 4.88 40.784 0.629 7.83 5.2 12.66
10/29/2022 11:00:00 AM 4.96 40.928 0.643 7.83 5.38 12.66
10/29/2022 11:15:00 AM 5.01 41.018 0.641 7.84 9.75 12.68
10/29/2022 11:30:00 AM 5.11 41.198 0.644 7.84 5.47 12.65
10/29/2022 11:45:00 AM 5.18 41.324 0.668 7.83 5.33 12.66
10/29/2022 12:00:00 PM 5.21 41.378 0.673 7.85 5.15 12.68
10/29/2022 12:15:00 PM 5.31 41.558 0.693 7.85 5.33 12.67
10/29/2022 12:30:00 PM 5.39 41.702 0.678 7.86 6.72 12.67
10/29/2022 12:45:00 PM 5.46 41.828 0.679 7.87 5.2 12.66
10/29/2022 1:00:00 PM 5.54 41.972 0.659 7.87 5.19 12.64
10/29/2022 1:15:00 PM 5.6 42.08 0.619 7.87 5.13 12.63
10/29/2022 1:30:00 PM 5.7 42.26 0.573 7.88 5.15 12.62
10/29/2022 1:45:00 PM 5.82 42.476 0.572 7.88 5.36 12.59
10/29/2022 2:00:00 PM 5.96 42.728 0.565 7.88 5.32 12.59
10/29/2022 2:15:00 PM 6.16 43.088 0.563 7.88 5.41 12.57
10/29/2022 2:30:00 PM 6.33 43.394 0.56 7.89 5.18 12.55
10/29/2022 2:45:00 PM 6.5 43.7 0.561 7.89 5.18 12.52
10/29/2022 3:00:00 PM 6.61 43.898 0.567 7.89 5.21 12.51
10/29/2022 3:15:00 PM 6.77 44.186 0.561 7.89 5.23 12.48
10/29/2022 3:30:00 PM 6.92 44.456 0.563 7.89 5.21 12.44
10/29/2022 3:45:00 PM 6.91 44.438 0.561 7.89 5.23 12.37
10/29/2022 4:00:00 PM 7.04 44.672 0.568 7.89 5.31 12.35
10/29/2022 4:15:00 PM 7.15 44.87 0.576 7.9 5.17 12.29
10/29/2022 4:30:00 PM 7.26 45.068 0.582 7.9 5.21 12.3
10/29/2022 4:45:00 PM 7.18 44.924 0.623 7.9 5.23 12.22
10/29/2022 5:00:00 PM 7.16 44.888 0.63 7.9 5.26 12.15
10/29/2022 5:15:00 PM 7.15 44.87 0.646 7.9 5.28 12.08
10/29/2022 5:30:00 PM 7.16 44.888 0.674 7.89 5.23 12
10/29/2022 5:45:00 PM 7.17 44.906 0.686 7.89 5.13 11.91
10/29/2022 6:00:00 PM 7.19 44.942 0.687 7.88 5.2 11.84
10/29/2022 6:15:00 PM 7.24 45.032 0.686 7.87 5.16 11.77
10/29/2022 6:30:00 PM 7.26 45.068 0.684 7.87 5.14 11.74
10/29/2022 6:45:00 PM 7.25 45.05 0.681 7.86 5.23 11.67
10/29/2022 7:00:00 PM 7.21 44.978 0.677 7.86 5.19 11.64
10/29/2022 7:15:00 PM 7.16 44.888 0.675 7.85 5.24 11.62
10/29/2022 7:30:00 PM 7.09 44.762 0.673 7.84 5.19 11.61
10/29/2022 7:45:00 PM 7.02 44.636 0.67 7.84 5.19 11.62
10/29/2022 8:00:00 PM 6.94 44.492 0.669 7.83 5.23 11.63
10/29/2022 8:15:00 PM 6.83 44.294 0.667 7.83 5.19 11.63
10/29/2022 8:30:00 PM 6.77 44.186 0.665 7.83 5.13 11.65
10/29/2022 8:45:00 PM 6.71 44.078 0.664 7.82 5.23 11.62
10/29/2022 9:00:00 PM 6.62 43.916 0.661 7.83 5.15 11.68
10/29/2022 9:15:00 PM 6.56 43.808 0.659 7.82 5.33 11.65
10/29/2022 9:30:00 PM 6.49 43.682 0.659 7.82 5.2 11.69
10/29/2022 9:45:00 PM 6.43 43.574 0.656 7.82 5.17 11.69
10/29/2022 10:00:00 PM 6.37 43.466 0.656 7.82 5.22 11.69
10/29/2022 10:15:00 PM 6.31 43.358 0.654 7.81 5.78 11.7
10/29/2022 10:30:00 PM 6.22 43.196 0.651 7.79 22.77 11.57
10/29/2022 10:45:00 PM 6.21 43.178 0.649 7.79 7.1 11.66
10/29/2022 11:00:00 PM 6.15 43.07 0.649 7.79 6.01 11.68
10/29/2022 11:15:00 PM 6.09 42.962 0.648 7.79 5.37 11.69
10/29/2022 11:30:00 PM 6.02 42.836 0.647 7.79 5.35 11.74
10/29/2022 11:45:00 PM 6 42.8 0.644 7.79 5.39 11.75
10/30/2022 12:00:00 AM 5.92 42.656 0.644 7.79 5.27 11.77
10/30/2022 12:15:00 AM 5.87 42.566 0.644 7.78 5.4 11.74
10/30/2022 12:30:00 AM 5.81 42.458 0.642 7.79 5.29 11.79
10/30/2022 12:45:00 AM 5.71 42.278 0.641 7.78 5.32 11.81
10/30/2022 1:00:00 AM 5.7 42.26 0.639 7.79 5.27 11.86
10/30/2022 1:15:00 AM 5.64 42.152 0.637 7.79 5.27 11.85
10/30/2022 1:30:00 AM 5.58 42.044 0.629 7.79 5.25 11.88
10/30/2022 1:45:00 AM 5.52 41.936 0.613 7.79 5.32 11.89
10/30/2022 2:00:00 AM 5.45 41.81 0.595 7.79 5.46 11.9
10/30/2022 2:15:00 AM 5.39 41.702 0.588 7.77 5.32 11.9
10/30/2022 2:30:00 AM 5.32 41.576 0.583 7.77 5.34 11.9
10/30/2022 2:45:00 AM 5.24 41.432 0.572 7.78 5.44 11.94
10/30/2022 3:00:00 AM 5.2 41.36 0.569 7.77 5.33 11.97
10/30/2022 3:15:00 AM 5.13 41.234 0.564 7.78 5.35 11.99
10/30/2022 3:30:00 AM 5.05 41.09 0.563 7.78 5.36 12.03
10/30/2022 3:45:00 AM 4.97 40.946 0.561 7.78 5.48 12.08
10/30/2022 4:00:00 AM 4.92 40.856 0.558 7.78 5.42 12.09
10/30/2022 4:15:00 AM 4.8 40.64 0.558 7.78 5.34 12.16
10/30/2022 4:30:00 AM 4.77 40.586 0.558 7.77 5.39 12.14
10/30/2022 4:45:00 AM 4.69 40.442 0.556 7.78 5.36 12.17
10/30/2022 5:00:00 AM 4.6 40.28 0.558 7.78 5.4 12.21
10/30/2022 5:15:00 AM 4.56 40.208 0.558 7.78 5.39 12.21
10/30/2022 5:30:00 AM 4.45 40.01 0.557 7.78 5.38 12.25
10/30/2022 5:45:00 AM 4.4 39.92 0.558 7.78 5.4 12.3
10/30/2022 6:00:00 AM 4.33 39.794 0.557 7.77 5.47 12.28
10/30/2022 6:15:00 AM 4.27 39.686 0.559 7.77 5.37 12.33
10/30/2022 6:30:00 AM 4.22 39.596 0.557 7.77 5.39 12.35
10/30/2022 6:45:00 AM 4.14 39.452 0.557 7.77 5.34 12.37
10/30/2022 7:00:00 AM 4.05 39.29 0.557 7.78 5.33 12.42
10/30/2022 7:15:00 AM 4.04 39.272 0.557 7.77 5.43 12.4
10/30/2022 7:30:00 AM 3.93 39.074 0.555 7.78 5.44 12.45
10/30/2022 7:45:00 AM 3.87 38.966 0.547 7.78 5.49 12.48
10/30/2022 8:00:00 AM 3.8 38.84 0.548 7.77 5.4 12.49
10/30/2022 8:15:00 AM 3.78 38.804 0.548 7.78 5.4 12.51
10/30/2022 8:30:00 AM 3.73 38.714 0.548 7.78 5.38 12.57
10/30/2022 8:45:00 AM 3.68 38.624 0.548 7.78 5.82 12.63
10/30/2022 9:00:00 AM 3.63 38.534 0.548 7.79 5.99 12.67
10/30/2022 9:15:00 AM 3.62 38.516 0.549 7.8 7.19 12.73
10/30/2022 9:30:00 AM 3.6 38.48 0.548 7.8 5.43 12.77
10/30/2022 9:45:00 AM 3.59 38.462 0.548 7.8 5.57 12.81
10/30/2022 10:00:00 AM 3.62 38.516 0.548 7.81 5.42 12.82
10/30/2022 10:15:00 AM 3.7 38.66 0.547 7.81 6.2 12.84
10/30/2022 10:30:00 AM 3.79 38.822 0.547 7.82 5.5 12.9
10/30/2022 10:45:00 AM 3.96 39.128 0.584 7.82 5.56 12.89
10/30/2022 11:00:00 AM 4.04 39.272 0.602 7.83 5.6 12.96
10/30/2022 11:15:00 AM 4.13 39.434 0.594 7.83 5.67 12.94
10/30/2022 11:30:00 AM 4.22 39.596 0.585 7.84 6.12 12.96
10/30/2022 11:45:00 AM 4.3 39.74 0.593 7.84 5.67 12.93
10/30/2022 12:00:00 PM 4.38 39.884 0.596 7.85 5.66 12.93
10/30/2022 12:15:00 PM 4.49 40.082 0.6 7.85 5.96 12.95
10/30/2022 12:30:00 PM 4.59 40.262 0.598 7.86 5.58 12.94
10/30/2022 12:45:00 PM 4.7 40.46 0.594 7.86 5.76 12.92
10/30/2022 1:00:00 PM 4.79 40.622 0.59 7.86 5.69 12.91
10/30/2022 1:15:00 PM 4.9 40.82 0.565 7.87 5.63 12.89
10/30/2022 1:30:00 PM 4.98 40.964 0.559 7.87 5.65 12.89
10/30/2022 1:45:00 PM 5.2 41.36 0.559 7.87 5.67 12.85
10/30/2022 2:00:00 PM 5.44 41.792 0.557 7.88 5.68 12.87
10/30/2022 2:15:00 PM 5.62 42.116 0.558 7.88 5.62 12.85
10/30/2022 2:30:00 PM 5.7 42.26 0.558 7.89 5.67 12.84
10/30/2022 2:45:00 PM 5.72 42.296 0.558 7.9 5.68 12.81
10/30/2022 3:00:00 PM 6.03 42.854 0.558 7.9 5.72 12.75
10/30/2022 3:15:00 PM 6.13 43.034 0.558 7.9 5.87 12.74
10/30/2022 3:30:00 PM 6.17 43.106 0.558 7.91 5.69 12.7
10/30/2022 3:45:00 PM 6.21 43.178 0.56 7.91 5.95 12.63
10/30/2022 4:00:00 PM 6.27 43.286 0.558 7.91 5.65 12.6
10/30/2022 4:15:00 PM 6.35 43.43 0.563 7.91 5.65 12.52
10/30/2022 4:30:00 PM 6.28 43.304 0.562 7.91 5.69 12.49
10/30/2022 4:45:00 PM 6.31 43.358 0.565 7.91 5.77 12.45
10/30/2022 5:00:00 PM 6.37 43.466 0.567 7.91 5.65 12.4
10/30/2022 5:15:00 PM 6.44 43.592 0.567 7.91 5.68 12.33
10/30/2022 5:30:00 PM 6.51 43.718 0.58 7.9 5.67 12.26
10/30/2022 5:45:00 PM 6.57 43.826 0.598 7.9 5.73 12.18
10/30/2022 6:00:00 PM 6.6 43.88 0.61 7.89 5.66 12.11
10/30/2022 6:15:00 PM 6.62 43.916 0.621 7.88 5.63 12.02
10/30/2022 6:30:00 PM 6.61 43.898 0.631 7.87 5.59 11.97
10/30/2022 6:45:00 PM 6.6 43.88 0.633 7.86 5.68 11.9
10/30/2022 7:00:00 PM 6.56 43.808 0.625 7.85 5.63 11.86
10/30/2022 7:15:00 PM 6.52 43.736 0.623 7.84 5.73 11.82
10/30/2022 7:30:00 PM 6.48 43.664 0.629 7.84 5.69 11.83
10/30/2022 7:45:00 PM 6.45 43.61 0.624 7.83 5.65 11.79
10/30/2022 8:00:00 PM 6.41 43.538 0.63 7.83 5.69 11.81
10/30/2022 8:15:00 PM 6.38 43.484 0.629 7.82 5.72 11.79
10/30/2022 8:30:00 PM 6.36 43.448 0.625 7.82 5.7 11.79
10/30/2022 8:45:00 PM 6.35 43.43 0.627 7.81 5.69 11.74
10/30/2022 9:00:00 PM 6.32 43.376 0.627 7.81 5.6 11.78
10/30/2022 9:15:00 PM 6.28 43.304 0.628 7.81 5.59 11.77
10/30/2022 9:30:00 PM 6.24 43.232 0.628 7.81 5.54 11.74
10/30/2022 9:45:00 PM 6.21 43.178 0.619 7.81 5.66 11.76
10/30/2022 10:00:00 PM 6.18 43.124 0.616 7.81 5.6 11.75
10/30/2022 10:15:00 PM 6.18 43.124 0.615 7.8 5.63 11.75
10/30/2022 10:30:00 PM 6.17 43.106 0.615 7.8 5.51 11.75
10/30/2022 10:45:00 PM 6.14 43.052 0.616 7.8 5.54 11.74
10/30/2022 11:00:00 PM 6.1 42.98 0.615 7.8 5.59 11.75
10/30/2022 11:15:00 PM 6.07 42.926 0.614 7.8 5.5 11.76
10/30/2022 11:30:00 PM 6.05 42.89 0.612 7.8 5.54 11.75
10/30/2022 11:45:00 PM 6 42.8 0.612 7.8 5.66 11.73
10/31/2022 12:00:00 AM 5.96 42.728 0.615 7.8 5.54 11.79
10/31/2022 12:15:00 AM 5.92 42.656 0.615 7.8 5.61 11.79
10/31/2022 12:30:00 AM 5.91 42.638 0.613 7.79 5.93 11.76
10/31/2022 12:45:00 AM 5.88 42.584 0.613 7.8 5.52 11.76
10/31/2022 1:00:00 AM 5.84 42.512 0.611 7.79 5.61 11.74
10/31/2022 1:15:00 AM 5.8 42.44 0.611 7.79 5.55 11.79
10/31/2022 1:30:00 AM 5.76 42.368 0.61 7.79 5.56 11.82
10/31/2022 1:45:00 AM 5.71 42.278 0.61 7.8 5.65 11.85
10/31/2022 2:00:00 AM 5.69 42.242 0.602 7.79 5.55 11.85
10/31/2022 2:15:00 AM 5.65 42.17 0.606 7.79 5.6 11.83
10/31/2022 2:30:00 AM 5.6 42.08 0.606 7.78 5.64 11.84
10/31/2022 2:45:00 AM 5.59 42.062 0.602 7.78 5.68 11.87
10/31/2022 3:00:00 AM 5.55 41.99 0.604 7.79 5.64 11.87
10/31/2022 3:15:00 AM 5.53 41.954 0.6 7.78 5.58 11.89
10/31/2022 3:30:00 AM 5.48 41.864 0.606 7.79 5.62 11.93
10/31/2022 3:45:00 AM 5.44 41.792 0.593 7.78 5.64 11.9
10/31/2022 4:00:00 AM 5.4 41.72 0.575 7.78 5.76 11.95
10/31/2022 4:15:00 AM 5.35 41.63 0.595 7.79 5.59 11.98
10/31/2022 4:30:00 AM 5.31 41.558 0.597 7.79 5.63 11.96
10/31/2022 4:45:00 AM 5.27 41.486 0.576 7.78 5.74 11.97
10/31/2022 5:00:00 AM 5.25 41.45 0.59 7.78 5.88 11.97
10/31/2022 5:15:00 AM 5.23 41.414 0.596 7.77 5.72 11.96
10/31/2022 5:30:00 AM 5.25 41.45 0.591 7.78 5.71 11.97
10/31/2022 5:45:00 AM 5.22 41.396 0.59 7.78 5.61 12.02
10/31/2022 6:00:00 AM 5.21 41.378 0.586 7.78 5.58 12.03
10/31/2022 6:15:00 AM 5.21 41.378 0.586 7.78 5.73 12.02
10/31/2022 6:30:00 AM 5.21 41.378 0.585 7.78 5.7 12.02
10/31/2022 6:45:00 AM 5.21 41.378 0.577 7.78 5.74 12.03
10/31/2022 7:00:00 AM 5.2 41.36 0.589 7.78 5.71 12.04
10/31/2022 7:15:00 AM 5.2 41.36 0.581 7.79 5.7 12.05
10/31/2022 7:30:00 AM 5.21 41.378 0.581 7.79 5.71 12.05
10/31/2022 7:45:00 AM 5.22 41.396 0.593 7.79 5.69 12.05
10/31/2022 8:00:00 AM 5.23 41.414 0.577 7.79 5.66 12.06
10/31/2022 8:15:00 AM 5.26 41.468 0.583 7.78 5.69 12.04
10/31/2022 8:30:00 AM 5.27 41.486 0.582 7.79 5.74 12.05
10/31/2022 8:45:00 AM 5.3 41.54 0.585 7.78 5.77 12.05
10/31/2022 9:00:00 AM 5.32 41.576 0.595 7.79 5.94 12.07
10/31/2022 9:15:00 AM 5.35 41.63 0.58 7.79 5.79 12.11
10/31/2022 9:30:00 AM 5.4 41.72 0.601 7.8 5.88 12.15
10/31/2022 9:45:00 AM 5.46 41.828 0.595 7.8 5.73 12.18
10/31/2022 10:00:00 AM 5.52 41.936 0.595 7.81 5.77 12.23
10/31/2022 10:15:00 AM 5.6 42.08 0.593 7.81 5.86 12.24
10/31/2022 10:30:00 AM 5.65 42.17 0.592 7.82 5.78 12.28
10/31/2022 10:45:00 AM 5.71 42.278 0.577 7.83 6.14 12.28
10/31/2022 11:00:00 AM 5.81 42.458 0.582 7.83 5.8 12.28
10/31/2022 11:15:00 AM 5.91 42.638 0.587 7.84 6.5 12.32
10/31/2022 11:30:00 AM 5.99 42.782 0.589 7.84 5.82 12.35
10/31/2022 11:45:00 AM 6.07 42.926 0.597 7.85 5.84 12.36
10/31/2022 12:00:00 PM 6.15 43.07 0.6 7.86 5.91 12.35
10/31/2022 12:15:00 PM 6.24 43.232 0.549 7.86 5.85 12.32
10/31/2022 12:30:00 PM 6.31 43.358 0.589 7.86 5.89 12.35
10/31/2022 12:45:00 PM 6.38 43.484 0.613 7.87 5.8 12.32
10/31/2022 1:00:00 PM 6.45 43.61 0.603 7.87 5.86 12.3
10/31/2022 1:15:00 PM 6.51 43.718 0.581 7.87 5.89 12.29
10/31/2022 1:30:00 PM 6.55 43.79 0.573 7.87 5.9 12.27
10/31/2022 1:45:00 PM 6.61 43.898 0.586 7.88 5.88 12.26
10/31/2022 2:00:00 PM 6.67 44.006 0.584 7.88 5.9 12.26
10/31/2022 2:15:00 PM 6.76 44.168 0.586 7.88 5.93 12.24
10/31/2022 2:30:00 PM 6.8 44.24 0.584 7.89 5.89 12.22
10/31/2022 2:45:00 PM 6.84 44.312 0.574 7.89 5.92 12.23
10/31/2022 3:00:00 PM 6.88 44.384 0.596 7.89 5.83 12.19
10/31/2022 3:15:00 PM 6.92 44.456 0.59 7.89 5.83 12.17
10/31/2022 3:30:00 PM 6.94 44.492 0.576 7.89 5.89 12.14
10/31/2022 3:45:00 PM 6.95 44.51 0.603 7.89 5.88 12.11
10/31/2022 4:00:00 PM 6.97 44.546 0.592 7.88 5.87 12.07
10/31/2022 4:15:00 PM 7 44.6 0.588 7.88 5.79 12.05
10/31/2022 4:30:00 PM 7.03 44.654 0.585 7.88 5.69 12.02
10/31/2022 4:45:00 PM 7.05 44.69 0.581 7.87 5.9 11.98
10/31/2022 5:00:00 PM 7.05 44.69 0.581 7.87 5.83 11.93
10/31/2022 5:15:00 PM 7.05 44.69 0.583 7.86 5.79 11.88
10/31/2022 5:30:00 PM 7.04 44.672 0.585 7.86 5.84 11.83
10/31/2022 5:45:00 PM 7.03 44.654 0.587 7.85 5.74 11.78
10/31/2022 6:00:00 PM 7.03 44.654 0.577 7.84 5.85 11.74
10/31/2022 6:15:00 PM 7.02 44.636 0.586 7.83 5.78 11.69
10/31/2022 6:30:00 PM 7.02 44.636 0.583 7.82 6.24 11.65
10/31/2022 6:45:00 PM 7.02 44.636 0.6 7.82 5.93 11.63
10/31/2022 7:00:00 PM 7.02 44.636 0.594 7.81 5.75 11.59
10/31/2022 7:15:00 PM 7.02 44.636 0.587 7.8 5.79 11.58
10/31/2022 7:30:00 PM 7.04 44.672 0.584 7.79 5.78 11.54
10/31/2022 7:45:00 PM 7.04 44.672 0.58 7.79 5.76 11.52
10/31/2022 8:00:00 PM 7.04 44.672 0.561 7.79 5.78 11.54
10/31/2022 8:15:00 PM 7.06 44.708 0.565 7.78 5.78 11.52
10/31/2022 8:30:00 PM 7.07 44.726 0.585 7.78 5.69 11.52
10/31/2022 8:45:00 PM 7.1 44.78 0.581 7.77 5.7 11.45
10/31/2022 9:00:00 PM 7.1 44.78 0.578 7.77 5.77 11.47
10/31/2022 9:15:00 PM 7.12 44.816 0.799 7.76 5.79 11.46
10/31/2022 9:30:00 PM 7.14 44.852 0.679 7.76 5.75 11.45
10/31/2022 9:45:00 PM 7.15 44.87 0.587 7.75 5.76 11.43
10/31/2022 10:00:00 PM 7.17 44.906 0.641 7.75 5.73 11.42
10/31/2022 10:15:00 PM 7.18 44.924 0.678 7.75 5.81 11.4
10/31/2022 10:30:00 PM 7.19 44.942 0.644 7.75 5.76 11.4
10/31/2022 10:45:00 PM 7.19 44.942 0.68 7.74 5.8 11.38
10/31/2022 11:00:00 PM 7.19 44.942 0.631 7.74 5.73 11.4
10/31/2022 11:15:00 PM 7.21 44.978 0.685 7.74 5.79 11.38
10/31/2022 11:30:00 PM 7.22 44.996 0.675 7.73 5.83 11.38
10/31/2022 11:45:00 PM 7.23 45.014 0.673 7.73 5.73 11.34
11/1/2022 12:00:00 AM 7.24 45.032 0.67 7.73 5.76 11.36
11/1/2022 12:15:00 AM 7.27 45.086 0.654 7.73 5.64 11.35
11/1/2022 12:30:00 AM 7.28 45.104 0.964 7.72 5.67 11.34
11/1/2022 12:45:00 AM 7.3 45.14 0.71 7.72 5.69 11.36
11/1/2022 1:00:00 AM 7.32 45.176 0.724 7.72 5.67 11.34
11/1/2022 1:15:00 AM 7.34 45.212 0.668 7.72 5.65 11.34
11/1/2022 1:30:00 AM 7.35 45.23 0.63 7.71 5.61 11.32
11/1/2022 1:45:00 AM 7.37 45.266 0.609 7.72 5.62 11.33
11/1/2022 2:00:00 AM 7.38 45.284 0.688 7.71 5.66 11.31
11/1/2022 2:15:00 AM 7.4 45.32 0.709 7.72 5.89 11.31
11/1/2022 2:30:00 AM 7.42 45.356 0.784 7.72 5.63 11.31
11/1/2022 2:45:00 AM 7.43 45.374 0.692 7.72 5.63 11.31
11/1/2022 3:00:00 AM 7.45 45.41 0.99 7.71 5.62 11.29
11/1/2022 3:15:00 AM 7.47 45.446 0.693 7.71 5.55 11.29
11/1/2022 3:30:00 AM 7.48 45.464 0.711 7.71 5.57 11.26
11/1/2022 3:45:00 AM 7.5 45.5 0.744 7.71 5.56 11.26
11/1/2022 4:00:00 AM 7.52 45.536 0.674 7.7 5.59 11.24
11/1/2022 4:15:00 AM 7.54 45.572 0.783 7.7 5.69 11.27
11/1/2022 4:30:00 AM 7.56 45.608 0.705 7.7 5.58 11.25
11/1/2022 4:45:00 AM 7.57 45.626 0.727 7.7 5.57 11.22
11/1/2022 5:00:00 AM 7.59 45.662 0.678 7.69 5.5 11.22
11/1/2022 5:15:00 AM 7.6 45.68 0.834 7.7 5.59 11.22
11/1/2022 5:30:00 AM 7.6 45.68 0.808 7.69 6.27 11.21
11/1/2022 5:45:00 AM 7.61 45.698 0.744 7.69 5.57 11.2
11/1/2022 6:00:00 AM 7.62 45.716 0.712 7.69 5.74 11.19
11/1/2022 6:15:00 AM 7.62 45.716 0.709 7.68 5.56 11.19
11/1/2022 6:30:00 AM 7.63 45.734 0.731 7.68 5.59 11.18
11/1/2022 6:45:00 AM 7.65 45.77 0.737 7.68 5.47 11.18
11/1/2022 7:00:00 AM 7.66 45.788 0.719 7.68 5.44 11.17
11/1/2022 7:15:00 AM 7.67 45.806 0.722 7.68 5.55 11.19
11/1/2022 7:30:00 AM 7.69 45.842 0.706 7.68 5.48 11.18
11/1/2022 7:45:00 AM 7.7 45.86 0.687 7.68 5.62 11.19
11/1/2022 8:00:00 AM 7.71 45.878 0.862 7.67 5.44 11.14
11/1/2022 8:15:00 AM 7.73 45.914 0.752 7.67 5.48 11.17
11/1/2022 8:30:00 AM 7.74 45.932 0.669 7.67 5.53 11.2
11/1/2022 8:45:00 AM 7.76 45.968 0.654 7.67 5.46 11.22
11/1/2022 9:00:00 AM 7.78 46.004 0.671 7.68 5.37 11.23
11/1/2022 9:15:00 AM 7.8 46.04 0.755 7.67 5.54 11.23
11/1/2022 9:30:00 AM 7.83 46.094 0.72 7.68 5.37 11.27
11/1/2022 9:45:00 AM 7.88 46.184 0.726 7.68 5.49 11.31
11/1/2022 10:00:00 AM 7.92 46.256 0.69 7.69 5.39 11.35
11/1/2022 10:15:00 AM 7.99 46.382 0.675 7.69 5.46 11.39
11/1/2022 10:30:00 AM 8.04 46.472 0.791 7.7 5.35 11.41
11/1/2022 10:45:00 AM 8.1 46.58 0.683 7.71 5.43 11.46
11/1/2022 11:00:00 AM 8.15 46.67 0.753 7.71 5.4 11.49
11/1/2022 11:15:00 AM 8.2 46.76 0.729 7.72 5.33 11.49
11/1/2022 11:30:00 AM 8.25 46.85 0.676 7.73 5.47 11.51
11/1/2022 11:45:00 AM 8.33 46.994 0.696 7.73 5.44 11.49
11/1/2022 12:00:00 PM 8.4 47.12 0.684 7.73 5.42 11.52
11/1/2022 12:15:00 PM 8.49 47.282 0.706 7.74 5.42 11.53
11/1/2022 12:30:00 PM 8.61 47.498 0.718 7.75 5.52 11.57
11/1/2022 12:45:00 PM 8.76 47.768 0.747 7.77 5.54 11.61
11/1/2022 1:00:00 PM 8.87 47.966 0.741 7.78 5.44 11.63
11/1/2022 1:15:00 PM 9.03 48.254 0.821 7.79 5.5 11.64
11/1/2022 1:30:00 PM 9.12 48.416 0.784 7.8 5.5 11.62
11/1/2022 1:45:00 PM 9.2 48.56 0.755 7.8 5.49 11.58
11/1/2022 2:00:00 PM 9.28 48.704 0.729 7.81 5.45 11.6
11/1/2022 2:15:00 PM 9.4 48.92 0.717 7.82 5.43 11.58
11/1/2022 2:30:00 PM 9.5 49.1 0.767 7.83 5.42 11.54
11/1/2022 2:45:00 PM 9.6 49.28 0.803 7.83 5.4 11.55
11/1/2022 3:00:00 PM 9.7 49.46 0.666 7.84 5.41 11.55
11/1/2022 3:15:00 PM 9.71 49.478 0.783 7.84 5.44 11.47
11/1/2022 3:30:00 PM 9.74 49.532 0.721 7.84 5.44 11.39
11/1/2022 3:45:00 PM 9.75 49.55 0.686 7.84 5.48 11.36
11/1/2022 4:00:00 PM 9.78 49.604 0.592 7.84 5.33 11.32
11/1/2022 4:15:00 PM 9.82 49.676 0.626 7.84 5.49 11.28
11/1/2022 4:30:00 PM 9.83 49.694 0.724 7.84 5.33 11.24
11/1/2022 4:45:00 PM 9.92 49.856 0.595 7.83 5.35 11.21
11/1/2022 5:00:00 PM 9.93 49.874 0.641 7.84 5.32 11.22
11/1/2022 5:15:00 PM 9.91 49.838 0.69 7.83 5.33 11.15
11/1/2022 5:30:00 PM 9.89 49.802 0.663 7.83 5.34 11.08
11/1/2022 5:45:00 PM 9.86 49.748 0.659 7.82 5.29 11.03
11/1/2022 6:00:00 PM 9.83 49.694 0.655 7.81 5.27 10.97
11/1/2022 6:15:00 PM 9.81 49.658 0.659 7.8 5.32 10.91
11/1/2022 6:30:00 PM 9.79 49.622 0.647 7.79 5.35 10.84
11/1/2022 6:45:00 PM 9.77 49.586 0.667 7.78 5.38 10.79
11/1/2022 7:00:00 PM 9.74 49.532 0.678 7.78 5.31 10.78
11/1/2022 7:15:00 PM 9.7 49.46 0.702 7.77 5.33 10.74
11/1/2022 7:30:00 PM 9.66 49.388 0.759 7.76 5.3 10.73
11/1/2022 7:45:00 PM 9.64 49.352 0.711 7.76 5.38 10.7
11/1/2022 8:00:00 PM 9.59 49.262 0.687 7.75 5.44 10.72
11/1/2022 8:15:00 PM 9.55 49.19 0.654 7.74 5.47 10.7
11/1/2022 8:30:00 PM 9.5 49.1 0.668 7.74 5.29 10.72
11/1/2022 8:45:00 PM 9.46 49.028 0.692 7.73 5.26 10.72
11/1/2022 9:00:00 PM 9.43 48.974 0.739 7.73 5.25 10.74
11/1/2022 9:15:00 PM 9.39 48.902 0.667 7.72 5.34 10.72
11/1/2022 9:30:00 PM 9.37 48.866 0.682 7.73 5.15 10.74
11/1/2022 9:45:00 PM 9.35 48.83 0.704 7.72 5.28 10.72
11/1/2022 10:00:00 PM 9.31 48.758 0.798 7.72 5.16 10.74
11/1/2022 10:15:00 PM 9.29 48.722 0.878 7.72 5.27 10.74
11/1/2022 10:30:00 PM 9.27 48.686 0.601 7.71 5.29 10.74
11/1/2022 10:45:00 PM 9.27 48.686 0.779 7.72 5.22 10.76
11/1/2022 11:00:00 PM 9.27 48.686 0.777 7.71 5.18 10.72
11/1/2022 11:15:00 PM 9.27 48.686 0.771 7.72 5.44 10.76
11/1/2022 11:30:00 PM 9.28 48.704 0.809 7.72 5.37 10.75
11/1/2022 11:45:00 PM 9.28 48.704 1.209 7.72 5.25 10.71
11/2/2022 12:00:00 AM 9.27 48.686 0.851 7.72 5.25 10.74
11/2/2022 12:15:00 AM 9.28 48.704 1.035 7.72 5.22 10.77
11/2/2022 12:30:00 AM 9.28 48.704 1.011 7.72 5.25 10.73
11/2/2022 12:45:00 AM 9.28 48.704 1.018 7.72 5.3 10.75
11/2/2022 1:00:00 AM 9.29 48.722 0.775 7.72 5.25 10.76
11/2/2022 1:15:00 AM 9.3 48.74 0.898 7.72 5.24 10.75
11/2/2022 1:30:00 AM 9.3 48.74 0.769 7.72 5.17 10.75
11/2/2022 1:45:00 AM 9.31 48.758 0.753 7.72 5.22 10.75
11/2/2022 2:00:00 AM 9.3 48.74 0.766 7.72 5.23 10.76
11/2/2022 2:15:00 AM 9.3 48.74 0.772 7.72 5.19 10.74
11/2/2022 2:30:00 AM 9.28 48.704 0.829 7.71 5.33 10.72
11/2/2022 2:45:00 AM 9.23 48.614 0.814 7.71 5.3 10.77
11/2/2022 3:00:00 AM 9.2 48.56 0.805 7.72 5.16 10.75
11/2/2022 3:15:00 AM 9.17 48.506 0.817 7.72 5.29 10.75
11/2/2022 3:30:00 AM 9.14 48.452 0.785 7.71 5.32 10.79
11/2/2022 3:45:00 AM 9.12 48.416 0.82 7.72 5.19 10.81
11/2/2022 4:00:00 AM 9.11 48.398 0.821 7.72 5.19 10.8
11/2/2022 4:15:00 AM 9.11 48.398 0.824 7.71 5.24 10.81
11/2/2022 4:30:00 AM 9.1 48.38 0.826 7.72 5.2 10.81
11/2/2022 4:45:00 AM 9.09 48.362 0.817 7.72 5.13 10.82
11/2/2022 5:00:00 AM 9.07 48.326 0.805 7.71 5.2 10.83
11/2/2022 5:15:00 AM 9.05 48.29 0.809 7.71 5.23 10.84
11/2/2022 5:30:00 AM 8.99 48.182 0.804 7.72 5.3 10.87
11/2/2022 5:45:00 AM 8.94 48.092 0.792 7.72 5.19 10.87
11/2/2022 6:00:00 AM 8.89 48.002 0.809 7.71 5.22 10.82
11/2/2022 6:15:00 AM 8.85 47.93 0.795 7.71 5.21 10.89
11/2/2022 6:30:00 AM 8.83 47.894 0.794 7.72 5.2 10.91
11/2/2022 6:45:00 AM 8.82 47.876 0.801 7.72 5.17 10.92
11/2/2022 7:00:00 AM 8.82 47.876 0.815 7.72 5.14 10.9
11/2/2022 7:15:00 AM 8.8 47.84 0.8 7.72 5.32 10.95
11/2/2022 7:30:00 AM 8.79 47.822 0.789 7.72 5.24 10.94
11/2/2022 7:45:00 AM 8.78 47.804 0.767 7.72 5.19 10.95
11/2/2022 8:00:00 AM 8.76 47.768 0.764 7.72 5.19 10.97
11/2/2022 8:15:00 AM 8.75 47.75 0.761 7.72 5.2 10.98
11/2/2022 8:30:00 AM 8.74 47.732 0.763 7.73 5.22 11.01
11/2/2022 8:45:00 AM 8.73 47.714 0.762 7.74 5.26 11.06
11/2/2022 9:00:00 AM 8.74 47.732 0.753 7.73 5.16 11.1
11/2/2022 9:15:00 AM 8.75 47.75 0.761 7.74 5.2 11.15
11/2/2022 9:30:00 AM 8.77 47.786 0.777 7.75 5.22 11.2
11/2/2022 9:45:00 AM 8.81 47.858 0.777 7.75 5.14 11.27
11/2/2022 10:00:00 AM 8.85 47.93 0.732 7.76 5.21 11.29
11/2/2022 10:15:00 AM 8.91 48.038 0.723 7.77 5.21 11.35
11/2/2022 10:30:00 AM 8.96 48.128 0.722 7.78 5.2 11.42
11/2/2022 10:45:00 AM 9.01 48.218 0.724 7.79 5.25 11.44
11/2/2022 11:00:00 AM 9.09 48.362 0.726 7.8 5.18 11.5
11/2/2022 11:15:00 AM 9.12 48.416 0.722 7.81 5.23 11.53
11/2/2022 11:30:00 AM 9.21 48.578 0.623 7.82 5.22 11.53
11/2/2022 11:45:00 AM 9.3 48.74 0.615 7.82 5.3 11.55
11/2/2022 12:00:00 PM 9.35 48.83 0.613 7.83 5.22 11.55
11/2/2022 12:15:00 PM 9.42 48.956 0.61 7.83 5.23 11.54
11/2/2022 12:30:00 PM 9.48 49.064 0.614 7.83 5.22 11.52
11/2/2022 12:45:00 PM 9.53 49.154 0.613 7.84 5.16 11.49
11/2/2022 1:00:00 PM 9.55 49.19 0.608 7.85 5.2 11.47
11/2/2022 1:15:00 PM 9.62 49.316 0.606 7.85 5.15 11.46
11/2/2022 1:30:00 PM 9.68 49.424 0.602 7.85 5.17 11.43
11/2/2022 1:45:00 PM 9.75 49.55 0.602 7.85 5.16 11.43
11/2/2022 2:00:00 PM 9.87 49.766 0.6 7.85 5.25 11.44
11/2/2022 2:15:00 PM 9.97 49.946 0.596 7.86 5.16 11.44
11/2/2022 2:30:00 PM 10.03 50.054 0.593 7.86 5.11 11.41
11/2/2022 2:45:00 PM 10.13 50.234 0.597 7.86 5.19 11.42
11/2/2022 3:00:00 PM 10.21 50.378 0.599 7.86 5.12 11.37
11/2/2022 3:15:00 PM 10.19 50.342 0.6 7.87 5.09 11.34
11/2/2022 3:30:00 PM 10.21 50.378 0.602 7.86 5.12 11.33
11/2/2022 3:45:00 PM 10.26 50.468 0.603 7.87 5.07 11.3
11/2/2022 4:00:00 PM 10.3 50.54 0.603 7.87 5.13 11.27
11/2/2022 4:15:00 PM 10.34 50.612 0.601 7.87 5.1 11.25
11/2/2022 4:30:00 PM 10.32 50.576 0.6 7.88 5.1 11.21
11/2/2022 4:45:00 PM 10.32 50.576 0.597 7.87 5.06 11.16
11/2/2022 5:00:00 PM 10.35 50.63 0.596 7.87 5.05 11.11
11/2/2022 5:15:00 PM 10.39 50.702 0.597 7.87 5.06 11.05
11/2/2022 5:30:00 PM 10.42 50.756 0.596 7.86 5.09 10.99
11/2/2022 5:45:00 PM 10.45 50.81 0.598 7.85 5.03 10.93
11/2/2022 6:00:00 PM 10.47 50.846 0.621 7.85 5.06 10.86
11/2/2022 6:15:00 PM 10.45 50.81 0.624 7.84 5.22 10.79
11/2/2022 6:30:00 PM 10.42 50.756 0.643 7.83 5.37 10.73
11/2/2022 6:45:00 PM 10.36 50.648 0.654 7.82 5.08 10.67
11/2/2022 7:00:00 PM 10.3 50.54 0.616 7.81 5 10.65
11/2/2022 7:15:00 PM 10.24 50.432 0.777 7.8 5.04 10.63
11/2/2022 7:30:00 PM 10.17 50.306 0.757 7.8 5.03 10.64
11/2/2022 7:45:00 PM 10.11 50.198 0.774 7.8 5.12 10.64
11/2/2022 8:00:00 PM 10.04 50.072 0.724 7.79 5.03 10.63
11/2/2022 8:15:00 PM 9.99 49.982 0.708 7.78 5.06 10.62
11/2/2022 8:30:00 PM 9.95 49.91 0.699 7.78 5.01 10.63
11/2/2022 8:45:00 PM 9.9 49.82 0.714 7.78 4.98 10.6
11/2/2022 9:00:00 PM 9.84 49.712 0.715 7.77 4.92 10.59
11/2/2022 9:15:00 PM 9.81 49.658 0.709 7.77 4.96 10.6
11/2/2022 9:30:00 PM 9.77 49.586 0.708 7.76 4.89 10.61
11/2/2022 9:45:00 PM 9.72 49.496 0.693 7.76 5 10.62
11/2/2022 10:00:00 PM 9.68 49.424 0.697 7.77 4.88 10.63
11/2/2022 10:15:00 PM 9.65 49.37 0.67 7.77 4.93 10.64
11/2/2022 10:30:00 PM 9.59 49.262 0.67 7.75 4.96 10.63
11/2/2022 10:45:00 PM 9.55 49.19 0.666 7.77 4.89 10.66
11/2/2022 11:00:00 PM 9.5 49.1 0.635 7.76 4.95 10.67
11/2/2022 11:15:00 PM 9.44 48.992 0.616 7.76 4.93 10.68
11/2/2022 11:30:00 PM 9.39 48.902 0.64 7.76 4.93 10.7
11/2/2022 11:45:00 PM 9.34 48.812 0.701 7.75 4.94 10.67
11/3/2022 12:00:00 AM 9.28 48.704 0.655 7.74 4.98 10.69
11/3/2022 12:15:00 AM 9.22 48.596 0.67 7.75 4.87 10.73
11/3/2022 12:30:00 AM 9.17 48.506 0.653 7.75 4.95 10.73
11/3/2022 12:45:00 AM 9.09 48.362 0.639 7.75 5.24 10.77
11/3/2022 1:00:00 AM 9.04 48.272 0.626 7.75 4.9 10.78
11/3/2022 1:15:00 AM 8.96 48.128 0.621 7.75 4.86 10.8
11/3/2022 1:30:00 AM 8.9 48.02 0.595 7.74 4.95 10.79
11/3/2022 1:45:00 AM 8.82 47.876 0.56 7.74 4.93 10.85
11/3/2022 2:00:00 AM 8.75 47.75 0.594 7.74 4.92 10.87
11/3/2022 2:15:00 AM 8.65 47.57 0.614 7.74 4.87 10.89
11/3/2022 2:30:00 AM 8.58 47.444 0.623 7.74 4.88 10.91
11/3/2022 2:45:00 AM 8.49 47.282 0.62 7.75 4.84 10.97
11/3/2022 3:00:00 AM 8.42 47.156 0.615 7.75 5.07 10.99
11/3/2022 3:15:00 AM 8.34 47.012 0.597 7.74 5.22 11
11/3/2022 3:30:00 AM 8.27 46.886 0.602 7.74 4.92 10.93
11/3/2022 3:45:00 AM 8.18 46.724 0.601 7.75 4.82 11.06
11/3/2022 4:00:00 AM 8.09 46.562 0.602 7.74 4.88 11.08
11/3/2022 4:15:00 AM 8.05 46.49 0.597 7.75 4.83 11.13
11/3/2022 4:30:00 AM 7.98 46.364 0.571 7.74 4.88 11.14
11/3/2022 4:45:00 AM 7.93 46.274 0.599 7.75 4.81 11.19
11/3/2022 5:00:00 AM 7.91 46.238 0.578 7.75 4.8 11.12
11/3/2022 5:15:00 AM 7.84 46.112 0.592 7.74 5.1 11.19
11/3/2022 5:30:00 AM 7.8 46.04 0.579 7.75 4.81 11.2
11/3/2022 5:45:00 AM 7.74 45.932 0.58 7.75 4.81 11.23
11/3/2022 6:00:00 AM 7.69 45.842 0.575 7.75 4.79 11.23
11/3/2022 6:15:00 AM 7.65 45.77 0.576 7.74 4.82 11.25
11/3/2022 6:30:00 AM 7.6 45.68 0.6 7.74 4.8 11.27
11/3/2022 6:45:00 AM 7.54 45.572 0.602 7.74 4.8 11.26
11/3/2022 7:00:00 AM 7.51 45.518 0.597 7.74 4.89 11.3
11/3/2022 7:15:00 AM 7.46 45.428 0.596 7.75 4.78 11.33
11/3/2022 7:30:00 AM 7.42 45.356 0.595 7.75 4.78 11.34
11/3/2022 7:45:00 AM 7.36 45.248 0.587 7.75 4.73 11.39
11/3/2022 8:00:00 AM 7.3 45.14 0.584 7.75 4.81 11.39
11/3/2022 8:15:00 AM 7.25 45.05 0.585 7.75 4.73 11.45
11/3/2022 8:30:00 AM 7.21 44.978 0.571 7.76 4.76 11.47
11/3/2022 8:45:00 AM 7.19 44.942 0.583 7.76 4.76 11.5
11/3/2022 9:00:00 AM 7.17 44.906 0.577 7.77 4.67 11.57
11/3/2022 9:15:00 AM 7.16 44.888 0.571 7.77 4.74 11.58
11/3/2022 9:30:00 AM 7.16 44.888 0.574 7.78 4.75 11.64
11/3/2022 9:45:00 AM 7.16 44.888 0.574 7.78 4.81 11.7
11/3/2022 10:00:00 AM 7.13 44.834 0.562 7.79 4.93 11.74
11/3/2022 10:15:00 AM 7.21 44.978 0.561 7.8 4.71 11.83
11/3/2022 10:30:00 AM 7.23 45.014 0.561 7.81 4.83 11.85
11/3/2022 10:45:00 AM 7.29 45.122 0.56 7.81 4.81 11.86
11/3/2022 11:00:00 AM 7.37 45.266 0.559 7.81 4.82 11.89
11/3/2022 11:15:00 AM 7.45 45.41 0.554 7.81 4.85 11.89
11/3/2022 11:30:00 AM 7.48 45.464 0.557 7.82 5.49 11.87
11/3/2022 11:45:00 AM 7.51 45.518 0.553 7.83 5.38 11.91
11/3/2022 12:00:00 PM 7.57 45.626 0.543 7.83 4.74 11.92
11/3/2022 12:15:00 PM 7.66 45.788 0.553 7.84 4.77 11.92
11/3/2022 12:30:00 PM 7.76 45.968 0.55 7.84 4.82 11.9
11/3/2022 12:45:00 PM 7.82 46.076 0.56 7.85 4.77 11.91
11/3/2022 1:00:00 PM 7.93 46.274 0.567 7.85 4.83 11.87
11/3/2022 1:15:00 PM 8.02 46.436 0.547 7.85 4.88 11.88
11/3/2022 1:30:00 PM 8.08 46.544 0.556 7.86 4.83 11.88
11/3/2022 1:45:00 PM 8.22 46.796 0.538 7.86 4.94 11.85
11/3/2022 2:00:00 PM 8.39 47.102 0.538 7.87 4.85 11.85
11/3/2022 2:15:00 PM 8.5 47.3 0.538 7.87 4.91 11.85
11/3/2022 2:30:00 PM 8.74 47.732 0.549 7.87 4.77 11.84
11/3/2022 2:45:00 PM 8.83 47.894 0.564 7.87 4.99 11.79
11/3/2022 3:00:00 PM 8.98 48.164 0.568 7.87 4.86 11.76
11/3/2022 3:15:00 PM 9 48.2 0.565 7.88 4.74 11.72
11/3/2022 3:30:00 PM 9.17 48.506 0.562 7.88 4.86 11.7
11/3/2022 3:45:00 PM 9.24 48.632 0.564 7.88 4.86 11.67
11/3/2022 4:00:00 PM 9.28 48.704 0.548 7.89 4.87 11.65
11/3/2022 4:15:00 PM 9.34 48.812 0.573 7.89 4.88 11.6
11/3/2022 4:30:00 PM 9.34 48.812 0.55 7.88 4.75 11.55
11/3/2022 4:45:00 PM 9.4 48.92 0.556 7.89 4.77 11.52
11/3/2022 5:00:00 PM 9.42 48.956 0.565 7.89 4.75 11.46
11/3/2022 5:15:00 PM 9.39 48.902 0.572 7.88 4.75 11.36
11/3/2022 5:30:00 PM 9.38 48.884 0.571 7.87 4.73 11.27
11/3/2022 5:45:00 PM 9.4 48.92 0.566 7.87 4.77 11.19
11/3/2022 6:00:00 PM 9.44 48.992 0.574 7.87 4.69 11.13
11/3/2022 6:15:00 PM 9.45 49.01 0.58 7.84 4.74 11.04
11/3/2022 6:30:00 PM 9.48 49.064 0.583 7.84 4.76 11.01
11/3/2022 6:45:00 PM 9.46 49.028 0.582 7.83 4.75 10.95
11/3/2022 7:00:00 PM 9.43 48.974 0.575 7.82 4.76 10.94
11/3/2022 7:15:00 PM 9.39 48.902 0.582 7.82 4.83 10.91
11/3/2022 7:30:00 PM 9.33 48.794 0.572 7.82 4.94 10.88
11/3/2022 7:45:00 PM 9.26 48.668 0.58 7.8 4.82 10.87
11/3/2022 8:00:00 PM 9.2 48.56 0.613 7.8 4.83 10.86
11/3/2022 8:15:00 PM 9.14 48.452 0.621 7.8 4.84 10.85
11/3/2022 8:30:00 PM 9.08 48.344 0.63 7.8 4.76 10.88
11/3/2022 8:45:00 PM 9.02 48.236 0.602 7.8 4.74 10.88
11/3/2022 9:00:00 PM 8.98 48.164 0.612 7.8 4.77 10.9
11/3/2022 9:15:00 PM 8.93 48.074 0.604 7.79 4.76 10.9
11/3/2022 9:30:00 PM 8.89 48.002 0.607 7.79 4.73 10.89
11/3/2022 9:45:00 PM 8.84 47.912 0.604 7.79 4.84 10.91
11/3/2022 10:00:00 PM 8.82 47.876 0.597 7.79 4.68 10.94
11/3/2022 10:15:00 PM 8.78 47.804 0.59 7.79 4.81 10.92
11/3/2022 10:30:00 PM 8.73 47.714 0.592 7.77 4.73 10.93
11/3/2022 10:45:00 PM 8.69 47.642 0.595 7.78 4.75 10.91
11/3/2022 11:00:00 PM 8.63 47.534 0.605 7.78 4.79 10.94
11/3/2022 11:15:00 PM 8.6 47.48 0.603 7.78 5.09 10.94
11/3/2022 11:30:00 PM 8.56 47.408 0.593 7.78 4.71 10.95
11/3/2022 11:45:00 PM 8.51 47.318 0.594 7.78 4.74 10.98
11/4/2022 12:00:00 AM 8.47 47.246 0.593 7.78 4.77 10.99
11/4/2022 12:15:00 AM 8.43 47.174 0.592 7.78 4.78 11
11/4/2022 12:30:00 AM 8.37 47.066 0.589 7.78 4.79 11.02
11/4/2022 12:45:00 AM 8.32 46.976 0.585 7.77 4.78 11.02
11/4/2022 1:00:00 AM 8.28 46.904 0.585 7.77 4.78 11.04
11/4/2022 1:15:00 AM 8.22 46.796 0.584 7.77 4.88 11.04
11/4/2022 1:30:00 AM 8.18 46.724 0.583 7.77 4.82 11.01
11/4/2022 1:45:00 AM 8.11 46.598 0.583 7.77 4.82 11.11
11/4/2022 2:00:00 AM 8.06 46.508 0.576 7.77 4.83 11.11
11/4/2022 2:15:00 AM 8 46.4 0.575 7.76 4.88 11.09
11/4/2022 2:30:00 AM 7.92 46.256 0.578 7.75 4.78 11.11
11/4/2022 2:45:00 AM 7.86 46.148 0.568 7.77 4.88 11.16
11/4/2022 3:00:00 AM 7.8 46.04 0.567 7.76 4.82 11.18
11/4/2022 3:15:00 AM 7.74 45.932 0.76 7.76 4.87 11.2
11/4/2022 3:30:00 AM 7.66 45.788 0.975 7.76 4.83 11.23
11/4/2022 3:45:00 AM 7.6 45.68 0.805 7.76 4.9 11.23
11/4/2022 4:00:00 AM 7.53 45.554 0.709 7.76 4.96 11.26
11/4/2022 4:15:00 AM 7.47 45.446 0.768 7.77 6.3 11.28
11/4/2022 4:30:00 AM 7.39 45.302 0.686 7.76 4.87 11.29
11/4/2022 4:45:00 AM 7.35 45.23 0.62 7.76 4.92 11.32
11/4/2022 5:00:00 AM 7.28 45.104 0.646 7.76 4.92 11.33
11/4/2022 5:15:00 AM 7.22 44.996 0.62 7.76 4.9 11.34
11/4/2022 5:30:00 AM 7.16 44.888 0.619 7.76 4.99 11.38
11/4/2022 5:45:00 AM 7.1 44.78 0.634 7.76 4.93 11.42
11/4/2022 6:00:00 AM 7.06 44.708 0.627 7.76 4.82 11.41
11/4/2022 6:15:00 AM 7 44.6 0.616 7.76 4.92 11.43
11/4/2022 6:30:00 AM 6.95 44.51 0.575 7.76 4.9 11.46
11/4/2022 6:45:00 AM 6.89 44.402 0.59 7.76 4.87 11.47
11/4/2022 7:00:00 AM 6.84 44.312 0.579 7.76 4.86 11.47
11/4/2022 7:15:00 AM 6.8 44.24 0.569 7.76 4.82 11.51
11/4/2022 7:30:00 AM 6.72 44.096 0.571 7.76 4.85 11.53
11/4/2022 7:45:00 AM 6.67 44.006 0.572 7.76 20.32 11.55
11/4/2022 8:00:00 AM 6.61 43.898 0.577 7.76 5.59 11.55
11/4/2022 8:15:00 AM 6.58 43.844 0.56 7.76 4.93 11.59
11/4/2022 8:30:00 AM 6.54 43.772 0.56 7.77 4.9 11.66
11/4/2022 8:45:00 AM 6.5 43.7 0.56 7.78 4.89 11.72
11/4/2022 9:00:00 AM 6.49 43.682 0.561 7.78 4.92 11.77
11/4/2022 9:15:00 AM 6.47 43.646 0.562 7.79 4.9 11.82
11/4/2022 9:30:00 AM 6.46 43.628 0.562 7.79 4.88 11.86
11/4/2022 9:45:00 AM 6.46 43.628 0.577 7.79 4.94 11.91
11/4/2022 10:00:00 AM 6.48 43.664 0.58 7.8 4.9 11.95
11/4/2022 10:15:00 AM 6.54 43.772 0.581 7.81 5.19 11.99
11/4/2022 10:30:00 AM 6.62 43.916 0.556 7.81 5.02 11.99
11/4/2022 10:45:00 AM 6.72 44.096 0.576 7.82 4.99 12.05
11/4/2022 11:00:00 AM 6.77 44.186 0.58 7.82 5.01 12.07
11/4/2022 11:15:00 AM 6.95 44.51 0.575 7.82 5.07 12.06
11/4/2022 11:30:00 AM 7.04 44.672 0.557 7.83 5.09 12.06
11/4/2022 11:45:00 AM 7.07 44.726 0.57 7.84 5.08 12.07
11/4/2022 12:00:00 PM 7.18 44.924 0.564 7.84 5.04 12.07
11/4/2022 12:15:00 PM 7.28 45.104 0.581 7.84 5.1 12.06
11/4/2022 12:30:00 PM 7.37 45.266 0.578 7.85 5.07 12.05
11/4/2022 12:45:00 PM 7.49 45.482 0.561 7.86 5.04 12.05
11/4/2022 1:00:00 PM 7.58 45.644 0.595 7.86 5.06 12.02
11/4/2022 1:15:00 PM 7.73 45.914 0.582 7.86 5.06 12.01
11/4/2022 1:30:00 PM 7.81 46.058 0.629 7.86 5.08 11.99
11/4/2022 1:45:00 PM 7.91 46.238 0.582 7.87 5.06 11.98
11/4/2022 2:00:00 PM 8.07 46.526 0.574 7.88 5.04 11.99
11/4/2022 2:15:00 PM 8.26 46.868 0.567 7.88 5.14 11.96
11/4/2022 2:30:00 PM 8.5 47.3 0.566 7.88 5.04 11.96
11/4/2022 2:45:00 PM 8.65 47.57 0.571 7.89 4.92 11.95
11/4/2022 3:00:00 PM 8.77 47.786 0.575 7.89 5.01 11.92
11/4/2022 3:15:00 PM 8.9 48.02 0.577 7.89 5.01 11.87
11/4/2022 3:30:00 PM 9 48.2 0.579 7.9 5.06 11.85
11/4/2022 3:45:00 PM 9.12 48.416 0.597 7.9 5.09 11.85
11/4/2022 4:00:00 PM 9.26 48.668 0.568 7.91 5.01 11.84
11/4/2022 4:15:00 PM 9.37 48.866 0.599 7.91 5.03 11.77
11/4/2022 4:30:00 PM 9.39 48.902 0.593 7.92 5.11 11.7
11/4/2022 4:45:00 PM 9.46 49.028 0.568 7.91 5.07 11.64
11/4/2022 5:00:00 PM 9.5 49.1 0.612 7.91 5.01 11.6
11/4/2022 5:15:00 PM 9.45 49.01 0.606 7.91 5.03 11.5
11/4/2022 5:30:00 PM 9.47 49.046 0.609 7.9 5.01 11.4
11/4/2022 5:45:00 PM 9.5 49.1 0.587 7.89 5.03 11.31
11/4/2022 6:00:00 PM 9.53 49.154 0.626 7.89 5.08 11.22
11/4/2022 6:15:00 PM 9.57 49.226 0.585 7.88 5.07 11.14
11/4/2022 6:30:00 PM 9.6 49.28 0.635 7.87 4.98 11.06
11/4/2022 6:45:00 PM 9.6 49.28 0.556 7.86 5.09 10.98
11/4/2022 7:00:00 PM 9.58 49.244 0.558 7.84 5.02 10.93
11/4/2022 7:15:00 PM 9.55 49.19 0.58 7.85 5.05 10.9
11/4/2022 7:30:00 PM 9.51 49.118 0.584 7.84 5.29 10.89
11/4/2022 7:45:00 PM 9.46 49.028 0.598 7.82 5.07 10.86
11/4/2022 8:00:00 PM 9.41 48.938 0.61 7.82 5.02 10.85
11/4/2022 8:15:00 PM 9.37 48.866 0.579 7.81 5.05 10.87
11/4/2022 8:30:00 PM 9.34 48.812 0.606 7.8 5.02 10.84
11/4/2022 8:45:00 PM 9.31 48.758 0.616 7.8 5.05 10.83
11/4/2022 9:00:00 PM 9.28 48.704 0.61 7.79 5 10.83
11/4/2022 9:15:00 PM 9.27 48.686 0.611 7.79 4.92 10.83
11/4/2022 9:30:00 PM 9.25 48.65 0.599 7.79 4.95 10.83
11/4/2022 9:45:00 PM 9.24 48.632 0.604 7.79 5.07 10.8
11/4/2022 10:00:00 PM 9.23 48.614 0.61 7.78 4.93 10.82
11/4/2022 10:15:00 PM 9.21 48.578 0.609 7.78 4.94 10.81
11/4/2022 10:30:00 PM 9.2 48.56 0.619 7.78 4.89 10.78
11/4/2022 10:45:00 PM 9.2 48.56 0.636 7.78 4.94 10.81
11/4/2022 11:00:00 PM 9.19 48.542 0.654 7.78 4.87 10.8
11/4/2022 11:15:00 PM 9.2 48.56 0.648 7.78 4.87 10.8
11/4/2022 11:30:00 PM 9.2 48.56 0.596 7.78 4.85 10.8
11/4/2022 11:45:00 PM 9.2 48.56 0.611 7.78 4.89 10.79
11/5/2022 12:00:00 AM 9.21 48.578 0.615 7.78 4.9 10.79
11/5/2022 12:15:00 AM 9.2 48.56 0.645 7.78 4.92 10.79
11/5/2022 12:30:00 AM 9.19 48.542 0.624 7.78 4.99 10.79
11/5/2022 12:45:00 AM 9.18 48.524 0.628 7.78 4.88 10.79
11/5/2022 1:00:00 AM 9.16 48.488 0.634 7.78 5.41 10.79
11/5/2022 1:15:00 AM 9.14 48.452 0.639 7.77 4.83 10.79
11/5/2022 1:30:00 AM 9.12 48.416 0.625 7.77 4.98 10.8
11/5/2022 1:45:00 AM 9.11 48.398 0.663 7.77 4.86 10.79
11/5/2022 2:00:00 AM 9.12 48.416 0.661 7.77 4.92 10.78
11/5/2022 2:15:00 AM 9.14 48.452 0.644 7.77 4.91 10.79
11/5/2022 2:30:00 AM 9.14 48.452 0.651 7.76 5.04 10.79
11/5/2022 2:45:00 AM 9.15 48.47 0.629 7.76 5.17 10.78
11/5/2022 3:00:00 AM 9.1 48.38 0.652 7.77 5.2 10.83
11/5/2022 3:15:00 AM 9.08 48.344 0.632 7.77 5.23 10.84
11/5/2022 3:30:00 AM 9.07 48.326 0.645 7.77 5.06 10.84
11/5/2022 3:45:00 AM 9.05 48.29 0.631 7.76 5.04 10.82
11/5/2022 4:00:00 AM 9.03 48.254 0.643 7.77 4.94 10.83
11/5/2022 4:15:00 AM 9.02 48.236 0.646 7.78 4.98 10.86
11/5/2022 4:30:00 AM 9 48.2 0.74 7.76 4.91 10.83
11/5/2022 4:45:00 AM 8.98 48.164 0.694 7.77 4.92 10.85
11/5/2022 5:00:00 AM 8.96 48.128 0.673 7.76 4.95 10.82
11/5/2022 5:15:00 AM 8.92 48.056 0.692 7.76 5.06 10.87
11/5/2022 5:30:00 AM 8.89 48.002 0.595 7.76 5.08 10.88
11/5/2022 5:45:00 AM 8.86 47.948 0.606 7.76 4.92 10.89
11/5/2022 6:00:00 AM 8.82 47.876 0.624 7.76 5.01 10.88
11/5/2022 6:15:00 AM 8.78 47.804 0.706 7.76 4.92 10.89
11/5/2022 6:30:00 AM 8.76 47.768 0.691 7.75 4.98 10.87
11/5/2022 6:45:00 AM 8.72 47.696 0.674 7.76 4.92 10.91
11/5/2022 7:00:00 AM 8.7 47.66 0.871 7.75 4.95 10.9
11/5/2022 7:15:00 AM 8.66 47.588 0.943 7.75 4.93 10.92
11/5/2022 7:30:00 AM 8.63 47.534 0.654 7.76 4.97 10.94
11/5/2022 7:45:00 AM 8.6 47.48 0.623 7.75 4.94 10.93
11/5/2022 8:00:00 AM 8.58 47.444 0.612 7.76 4.95 10.96
11/5/2022 8:15:00 AM 8.57 47.426 0.643 7.76 5.01 10.99
11/5/2022 8:30:00 AM 8.58 47.444 0.632 7.76 4.95 11.03
11/5/2022 8:45:00 AM 8.59 47.462 0.634 7.77 4.94 11.08
11/5/2022 9:00:00 AM 8.59 47.462 0.627 7.77 4.97 11.13
11/5/2022 9:15:00 AM 8.61 47.498 0.641 7.78 4.98 11.18
11/5/2022 9:30:00 AM 8.65 47.57 0.627 7.79 4.99 11.23
11/5/2022 9:45:00 AM 8.71 47.678 0.615 7.79 4.95 11.29
11/5/2022 10:00:00 AM 8.81 47.858 0.602 7.8 5 11.32
11/5/2022 10:15:00 AM 8.89 48.002 0.619 7.81 4.94 11.37
11/5/2022 10:30:00 AM 9.04 48.272 0.607 7.81 5.08 11.39
11/5/2022 10:45:00 AM 9.16 48.488 0.589 7.82 5.01 11.4
11/5/2022 11:00:00 AM 9.41 48.938 0.609 7.83 5.06 11.4
11/5/2022 11:15:00 AM 9.59 49.262 0.615 7.84 5.04 11.41
11/5/2022 11:30:00 AM 9.75 49.55 0.602 7.85 5.06 11.41
11/5/2022 11:45:00 AM 9.95 49.91 0.59 7.84 5.06 11.38
11/5/2022 12:00:00 PM 10.06 50.108 0.596 7.86 4.94 11.36
11/5/2022 12:15:00 PM 10.18 50.324 0.584 7.86 5.07 11.33
11/5/2022 12:30:00 PM 10.36 50.648 0.599 7.87 4.97 11.35
11/5/2022 12:45:00 PM 10.57 51.026 0.579 7.87 5.01 11.34
11/5/2022 1:00:00 PM 10.79 51.422 0.603 7.88 5.02 11.33
11/5/2022 1:15:00 PM 10.96 51.728 0.59 7.89 5.03 11.32
11/5/2022 1:30:00 PM 11.19 52.142 0.576 7.9 5.01 11.35
11/5/2022 1:45:00 PM 11.4 52.52 0.592 7.9 5.01 11.33
11/5/2022 2:00:00 PM 11.6 52.88 0.577 7.91 5.04 11.32
11/5/2022 2:15:00 PM 11.83 53.294 0.579 7.92 5 11.33
11/5/2022 2:30:00 PM 11.92 53.456 0.58 7.92 5.03 11.31
11/5/2022 2:45:00 PM 12.22 53.996 0.562 7.92 5.07 11.22
11/5/2022 3:00:00 PM 12.29 54.122 0.559 7.93 5.05 11.2
11/5/2022 3:15:00 PM 12.32 54.176 0.588 7.94 5.03 11.16
11/5/2022 3:30:00 PM 12.37 54.266 0.587 7.94 5.05 11.11
11/5/2022 3:45:00 PM 12.5 54.5 0.582 7.94 5 11.06
11/5/2022 4:00:00 PM 12.74 54.932 0.577 7.93 5.01 10.99
11/5/2022 4:15:00 PM 12.74 54.932 0.578 7.93 4.96 10.89
11/5/2022 4:30:00 PM 12.79 55.022 0.578 7.93 4.95 10.83
11/5/2022 4:45:00 PM 12.74 54.932 0.576 7.91 4.9 10.68
11/5/2022 5:00:00 PM 12.74 54.932 0.58 7.9 4.95 10.57
11/5/2022 5:15:00 PM 12.76 54.968 0.584 7.9 4.89 10.48
11/5/2022 5:30:00 PM 12.78 55.004 0.575 7.89 4.81 10.42
11/5/2022 5:45:00 PM 12.83 55.094 0.584 7.88 5.06 10.35
11/5/2022 6:00:00 PM 12.86 55.148 0.607 7.87 4.85 10.27
11/5/2022 6:15:00 PM 12.9 55.22 0.619 7.86 4.85 10.17
11/5/2022 6:30:00 PM 12.91 55.238 0.613 7.85 4.84 10.06
11/5/2022 6:45:00 PM 12.94 55.292 0.608 7.84 5.12 10
11/5/2022 7:00:00 PM 12.96 55.328 0.623 7.83 4.87 9.94
11/5/2022 7:15:00 PM 12.92 55.256 0.611 7.82 4.84 9.89
11/5/2022 7:30:00 PM 12.9 55.22 0.611 7.81 4.81 9.86
11/5/2022 7:45:00 PM 12.89 55.202 0.605 7.8 4.99 9.83
11/5/2022 8:00:00 PM 12.85 55.13 0.652 7.79 4.88 9.77
11/5/2022 8:15:00 PM 12.81 55.058 0.631 7.79 4.86 9.79
11/5/2022 8:30:00 PM 12.8 55.04 0.644 7.79 4.93 9.77
11/5/2022 8:45:00 PM 12.77 54.986 0.627 7.78 4.76 9.79
11/5/2022 9:00:00 PM 12.75 54.95 0.635 7.78 4.79 9.76
11/5/2022 9:15:00 PM 12.76 54.968 0.63 7.77 4.78 9.74
11/5/2022 9:30:00 PM 12.79 55.022 0.647 7.76 4.93 9.7
11/5/2022 9:45:00 PM 12.77 54.986 0.627 7.76 4.82 9.74
11/5/2022 10:00:00 PM 12.79 55.022 0.655 7.76 4.82 9.73
11/5/2022 10:15:00 PM 12.84 55.112 0.631 7.76 4.7 9.72
11/5/2022 10:30:00 PM 12.86 55.148 0.624 7.76 4.7 9.74
11/5/2022 10:45:00 PM 12.9 55.22 0.638 7.76 4.84 9.73
11/5/2022 11:00:00 PM 12.95 55.31 0.623 7.75 4.8 9.7
11/5/2022 11:15:00 PM 12.99 55.382 0.63 7.75 4.76 9.69
11/5/2022 11:30:00 PM 13 55.4 0.606 7.75 4.73 9.65
11/5/2022 11:45:00 PM 13.06 55.508 0.611 7.74 4.79 9.61
11/6/2022 12:00:00 AM 13.07 55.526 0.614 7.75 4.7 9.66
11/6/2022 12:15:00 AM 13.11 55.598 0.61 7.74 4.71 9.62
11/6/2022 12:30:00 AM 13.15 55.67 0.571 7.74 4.72 9.59
11/6/2022 12:45:00 AM 13.18 55.724 0.598 7.74 4.67 9.61
11/6/2022 1:00:00 AM 13.21 55.778 0.593 7.74 4.67 9.6
11/6/2022 1:15:00 AM 13.27 55.886 0.608 7.74 4.72 9.58
11/6/2022 1:30:00 AM 13.26 55.868 0.605 7.74 4.69 9.58
11/6/2022 1:45:00 AM 13.26 55.868 0.603 7.74 4.82 9.56
11/6/2022 2:00:00 AM 13.26 55.868 0.605 7.73 5.32 9.54
11/6/2022 2:15:00 AM 13.25 55.85 0.611 7.74 4.65 9.56
11/6/2022 2:30:00 AM 13.26 55.868 0.632 7.74 4.72 9.56
11/6/2022 2:45:00 AM 13.26 55.868 0.636 7.74 4.65 9.57
11/6/2022 3:00:00 AM 13.25 55.85 0.646 7.74 4.64 9.57
11/6/2022 3:15:00 AM 13.24 55.832 0.657 7.73 4.73 9.56
11/6/2022 3:30:00 AM 13.24 55.832 0.661 7.74 4.6 9.58
11/6/2022 3:45:00 AM 13.22 55.796 0.69 7.73 4.62 9.56
11/6/2022 4:00:00 AM 13.21 55.778 0.7 7.73 4.63 9.56
11/6/2022 4:15:00 AM 13.21 55.778 0.703 7.73 4.62 9.53
11/6/2022 4:30:00 AM 13.19 55.742 0.703 7.73 4.73 9.56
11/6/2022 4:45:00 AM 13.18 55.724 0.706 7.73 4.58 9.57
11/6/2022 5:00:00 AM 13.17 55.706 0.706 7.73 4.61 9.58
11/6/2022 5:15:00 AM 13.15 55.67 0.708 7.74 4.68 9.55
11/6/2022 5:30:00 AM 13.13 55.634 0.716 7.72 4.64 9.58
11/6/2022 5:45:00 AM 13.12 55.616 0.738 7.73 4.67 9.59
11/6/2022 6:00:00 AM 13.11 55.598 0.732 7.73 4.59 9.57
11/6/2022 6:15:00 AM 13.09 55.562 0.728 7.73 4.62 9.62
11/6/2022 6:30:00 AM 13.09 55.562 0.722 7.73 4.73 9.6
11/6/2022 6:45:00 AM 13.09 55.562 0.718 7.73 4.56 9.62
11/6/2022 7:00:00 AM 13.07 55.526 0.714 7.72 4.66 9.61
11/6/2022 7:15:00 AM 13.05 55.49 0.711 7.72 4.67 9.59
11/6/2022 7:30:00 AM 13.02 55.436 0.711 7.72 4.49 9.62
11/6/2022 7:45:00 AM 13.01 55.418 0.708 7.72 4.54 9.64
11/6/2022 8:00:00 AM 12.98 55.364 0.704 7.72 5.3 9.62
11/6/2022 8:15:00 AM 12.95 55.31 0.703 7.72 4.5 9.67
11/6/2022 8:30:00 AM 12.94 55.292 0.7 7.73 4.85 9.69
11/6/2022 8:45:00 AM 12.94 55.292 0.696 7.73 4.79 9.74
11/6/2022 9:00:00 AM 12.94 55.292 0.692 7.73 4.59 9.79
11/6/2022 9:15:00 AM 12.95 55.31 0.687 7.74 4.6 9.86
11/6/2022 9:30:00 AM 12.97 55.346 0.687 7.75 4.54 9.92
11/6/2022 9:45:00 AM 12.99 55.382 0.686 7.76 4.54 10.02
11/6/2022 10:00:00 AM 12.99 55.382 0.68 7.77 4.67 10.02
11/6/2022 10:15:00 AM 12.98 55.364 0.682 7.76 4.61 10.03
11/6/2022 10:30:00 AM 13.06 55.508 0.682 7.77 4.6 10.08
11/6/2022 10:45:00 AM 13.25 55.85 0.678 7.77 4.52 10.15
11/6/2022 11:00:00 AM 13.25 55.85 0.668 7.78 4.47 10.19
11/6/2022 11:15:00 AM 13.33 55.994 0.631 7.79 4.48 10.21
11/6/2022 11:30:00 AM 13.46 56.228 0.583 7.8 4.52 10.27
11/6/2022 11:45:00 AM 13.62 56.516 0.582 7.81 4.51 10.31
11/6/2022 12:00:00 PM 13.72 56.696 0.582 7.82 4.39 10.36
11/6/2022 12:15:00 PM 13.86 56.948 0.578 7.83 4.46 10.38
11/6/2022 12:30:00 PM 13.95 57.11 0.579 7.84 4.5 10.37
11/6/2022 12:45:00 PM 14.09 57.362 0.581 7.85 4.41 10.36
11/6/2022 1:00:00 PM 14.22 57.596 0.587 7.86 4.42 10.39
11/6/2022 1:15:00 PM 14.29 57.722 0.58 7.87 4.34 10.4
11/6/2022 1:30:00 PM 14.47 58.046 0.577 7.88 4.4 10.47
11/6/2022 1:45:00 PM 14.59 58.262 0.576 7.89 4.38 10.48
11/6/2022 2:00:00 PM 14.63 58.334 0.578 7.89 4.37 10.44
11/6/2022 2:15:00 PM 14.79 58.622 0.577 7.9 4.39 10.42
11/6/2022 2:30:00 PM 14.85 58.73 0.578 7.91 4.41 10.39
11/6/2022 2:45:00 PM 14.99 58.982 0.576 7.91 4.41 10.41
11/6/2022 3:00:00 PM 15 59 0.578 7.91 4.41 10.35
11/6/2022 3:15:00 PM 14.96 58.928 0.579 7.91 4.46 10.22
11/6/2022 3:30:00 PM 15.02 59.036 0.58 7.9 4.41 10.18
11/6/2022 3:45:00 PM 15.21 59.378 0.577 7.9 4.33 10.19
11/6/2022 4:00:00 PM 15.3 59.54 0.577 7.91 4.35 10.19
11/6/2022 4:15:00 PM 15.3 59.54 0.58 7.91 4.44 10.12
11/6/2022 4:30:00 PM 15.3 59.54 0.581 7.9 4.33 10.06
11/6/2022 4:45:00 PM 15.4 59.72 0.581 7.9 4.32 10.04
11/6/2022 5:00:00 PM 15.38 59.684 0.584 7.9 4.27 9.96
11/6/2022 5:15:00 PM 15.34 59.612 0.597 7.89 4.36 9.85
11/6/2022 5:30:00 PM 15.32 59.576 0.656 7.88 4.33 9.76
11/6/2022 5:45:00 PM 15.32 59.576 0.68 7.87 4.23 9.68
11/6/2022 6:00:00 PM 15.29 59.522 0.694 7.85 4.27 9.6
11/6/2022 6:15:00 PM 15.26 59.468 0.702 7.84 4.38 9.5
11/6/2022 6:30:00 PM 15.23 59.414 0.71 7.82 4.28 9.42
11/6/2022 6:45:00 PM 15.21 59.378 0.706 7.81 4.33 9.33
11/6/2022 7:00:00 PM 15.18 59.324 0.711 7.79 4.39 9.28
11/6/2022 7:15:00 PM 15.15 59.27 0.704 7.78 4.3 9.28
11/6/2022 7:30:00 PM 15.1 59.18 0.707 7.78 4.27 9.24
11/6/2022 7:45:00 PM 15.07 59.126 0.703 7.77 4.44 9.19
11/6/2022 8:00:00 PM 15.04 59.072 0.7 7.76 4.24 9.2
11/6/2022 8:15:00 PM 15 59 0.7 7.76 4.27 9.17
11/6/2022 8:30:00 PM 14.96 58.928 0.697 7.75 4.38 9.15
11/6/2022 8:45:00 PM 14.93 58.874 0.696 7.74 4.18 9.18
11/6/2022 9:00:00 PM 14.91 58.838 0.69 7.74 4.28 9.17
11/6/2022 9:15:00 PM 14.88 58.784 0.687 7.74 4.28 9.16
11/6/2022 9:30:00 PM 14.85 58.73 0.683 7.73 4.29 9.17
11/6/2022 9:45:00 PM 14.83 58.694 0.681 7.73 4.27 9.2
11/6/2022 10:00:00 PM 14.81 58.658 0.679 7.73 4.29 9.18
11/6/2022 10:15:00 PM 14.79 58.622 0.677 7.72 4.4 9.2
11/6/2022 10:30:00 PM 14.77 58.586 0.671 7.72 4.2 9.13
11/6/2022 10:45:00 PM 14.74 58.532 0.668 7.71 4.19 9.19
11/6/2022 11:00:00 PM 14.71 58.478 0.665 7.71 4.31 9.2
11/6/2022 11:15:00 PM 14.69 58.442 0.665 7.71 4.08 9.18
11/6/2022 11:30:00 PM 14.68 58.424 0.666 7.7 4.14 9.2
11/6/2022 11:45:00 PM 14.66 58.388 0.664 7.7 4.21 9.22
11/7/2022 12:00:00 AM 14.64 58.352 0.662 7.7 4.22 9.19
11/7/2022 12:15:00 AM 14.6 58.28 0.659 7.7 4.22 9.21
11/7/2022 12:30:00 AM 14.56 58.208 0.655 7.69 4.18 9.19
11/7/2022 12:45:00 AM 14.51 58.118 0.653 7.69 4.55 9.23
11/7/2022 1:00:00 AM 14.46 58.028 0.654 7.69 4.15 9.24
11/7/2022 1:15:00 AM 14.42 57.956 0.659 7.69 4.3 9.23
11/7/2022 1:30:00 AM 14.4 57.92 1.441 7.69 4.21 9.23
11/7/2022 1:45:00 AM 14.37 57.866 1.707 7.69 4.26 9.22
11/7/2022 2:00:00 AM 14.36 57.848 1.186 7.69 4.27 9.25
11/7/2022 2:15:00 AM 14.34 57.812 0.882 7.69 4.27 9.2
11/7/2022 2:30:00 AM 14.29 57.722 0.692 7.69 4.22 9.27
11/7/2022 2:45:00 AM 14.22 57.596 1.846 7.68 4.23 9.24
11/7/2022 3:00:00 AM 14.15 57.47 2.137 7.69 4.27 9.28
11/7/2022 3:15:00 AM 14.08 57.344 5.418 7.68 4.32 9.16
11/7/2022 3:30:00 AM 14 57.2 5.934 7.67 4.24 9.16
11/7/2022 3:45:00 AM 13.92 57.056 0.66 7.68 4.42 9.36
11/7/2022 4:00:00 AM 13.85 56.93 0.654 7.68 4.21 9.36
11/7/2022 4:15:00 AM 13.78 56.804 1.99 7.68 4.17 9.28
11/7/2022 4:30:00 AM 13.72 56.696 1.754 7.68 4.18 9.35
11/7/2022 4:45:00 AM 13.65 56.57 1.787 7.68 4.1 9.36
11/7/2022 5:00:00 AM 13.57 56.426 2.895 7.68 4.18 9.37
11/7/2022 5:15:00 AM 13.48 56.264 2.131 7.68 4.17 9.35
11/7/2022 5:30:00 AM 13.4 56.12 2.879 7.68 4.27 9.41
11/7/2022 5:45:00 AM 13.3 55.94 3.304 7.68 4.21 9.4
11/7/2022 6:00:00 AM 13.23 55.814 2.948 7.68 4.18 9.44
11/7/2022 6:15:00 AM 13.15 55.67 2.29 7.69 4.11 9.48
11/7/2022 6:30:00 AM 13.02 55.436 3.264 7.68 4.35 9.4
11/7/2022 6:45:00 AM 12.96 55.328 2.75 7.69 4.56 9.5
11/7/2022 7:00:00 AM 12.89 55.202 3.297 7.69 4.49 9.54
11/7/2022 7:15:00 AM 12.81 55.058 3.749 7.68 4.21 9.52
11/7/2022 7:30:00 AM 12.72 54.896 0.642 7.69 4.29 9.66
11/7/2022 7:45:00 AM 12.62 54.716 0.642 7.7 4.24 9.7
11/7/2022 8:00:00 AM 12.54 54.572 2.178 7.69 4.13 9.64
11/7/2022 8:15:00 AM 12.47 54.446 4.211 7.7 4.22 9.64
11/7/2022 8:30:00 AM 12.4 54.32 4.736 7.69 4.2 9.67
11/7/2022 8:45:00 AM 12.31 54.158 2.469 7.71 4.41 9.8
11/7/2022 9:00:00 AM 12.27 54.086 2.274 7.72 4.12 9.87
11/7/2022 9:15:00 AM 12.21 53.978 4.199 7.71 4.2 9.84
11/7/2022 9:30:00 AM 12.2 53.96 4.337 7.72 4.12 9.88
11/7/2022 9:45:00 AM 12.19 53.942 4.499 7.73 4.28 9.96
11/7/2022 10:00:00 AM 12.21 53.978 4.353 7.74 4.18 10.01
11/7/2022 10:15:00 AM 12.3 54.14 4.143 7.73 4.2 10.05
11/7/2022 10:30:00 AM 12.33 54.194 3.93 7.71 4.35 10.12
11/7/2022 10:45:00 AM 12.35 54.23 2.577 7.75 4.16 10.23
11/7/2022 11:00:00 AM 12.41 54.338 2.246 7.78 4.23 10.3
11/7/2022 11:15:00 AM 12.43 54.374 2.143 7.78 4.32 10.34
11/7/2022 11:30:00 AM 12.42 54.356 2.067 7.78 4.22 10.36
11/7/2022 11:45:00 AM 12.41 54.338 1.99 7.79 4.26 10.37
11/7/2022 12:00:00 PM 12.42 54.356 1.978 7.8 4.27 10.4
11/7/2022 12:15:00 PM 12.45 54.41 1.669 7.81 4.66 10.41
11/7/2022 12:30:00 PM 12.45 54.41 1.401 7.81 4.28 10.44
11/7/2022 12:45:00 PM 12.44 54.392 1.042 7.82 4.32 10.46
11/7/2022 1:00:00 PM 12.41 54.338 0.565 7.83 4.89 10.48
11/7/2022 1:15:00 PM 12.42 54.356 0.564 7.84 4.33 10.52
11/7/2022 1:30:00 PM 12.4 54.32 0.563 7.85 4.29 10.51
11/7/2022 1:45:00 PM 12.43 54.374 0.564 7.85 4.47 10.52
11/7/2022 2:00:00 PM 12.73 54.914 0.567 7.88 4.25 10.62
11/7/2022 2:15:00 PM 12.73 54.914 0.567 7.89 4.25 10.59
11/7/2022 2:30:00 PM 12.74 54.932 0.568 7.89 4.28 10.57
11/7/2022 2:45:00 PM 12.82 55.076 0.569 7.9 4.27 10.61
11/7/2022 3:00:00 PM 12.78 55.004 0.57 7.9 4.35 10.56
11/7/2022 3:15:00 PM 12.79 55.022 0.57 7.91 4.31 10.6
11/7/2022 3:30:00 PM 12.76 54.968 0.57 7.9 4.26 10.58
11/7/2022 3:45:00 PM 12.73 54.914 0.577 7.9 4.22 10.51
11/7/2022 4:00:00 PM 12.64 54.752 0.569 7.89 4.47 10.44
11/7/2022 4:15:00 PM 12.53 54.554 0.57 7.89 4.33 10.35
11/7/2022 4:30:00 PM 12.5 54.5 0.571 7.88 4.26 10.27
11/7/2022 4:45:00 PM 12.5 54.5 0.571 7.87 4.29 10.21
11/7/2022 5:00:00 PM 12.5 54.5 0.57 7.86 4.3 10.15
11/7/2022 5:15:00 PM 12.53 54.554 0.571 7.86 4.24 10.1
11/7/2022 5:30:00 PM 12.52 54.536 0.571 7.85 4.25 10.05
11/7/2022 5:45:00 PM 12.47 54.446 0.572 7.84 4.41 9.99
11/7/2022 6:00:00 PM 12.4 54.32 0.573 7.83 4.55 9.95
11/7/2022 6:15:00 PM 12.36 54.248 0.576 7.83 4.5 9.93
11/7/2022 6:30:00 PM 12.28 54.104 0.58 7.82 4.33 9.94
11/7/2022 6:45:00 PM 12.13 53.834 0.583 7.82 4.26 9.97
11/7/2022 7:00:00 PM 12.03 53.654 0.593 7.81 4.66 9.95
11/7/2022 7:15:00 PM 11.9 53.42 0.604 7.81 4.29 9.99
11/7/2022 7:30:00 PM 11.78 53.204 0.613 7.81 4.27 9.98
11/7/2022 7:45:00 PM 11.7 53.06 0.62 7.8 4.26 10.01
11/7/2022 8:00:00 PM 11.51 52.718 0.628 7.8 4.19 10.02
11/7/2022 8:15:00 PM 11.45 52.61 0.632 7.79 4.27 10.07
11/7/2022 8:30:00 PM 11.28 52.304 0.612 7.78 4.29 10.04
11/7/2022 8:45:00 PM 11.28 52.304 0.602 7.79 4.37 10.12
11/7/2022 9:00:00 PM 11.2 52.16 0.595 7.79 4.32 10.13
11/7/2022 9:15:00 PM 11.05 51.89 0.577 7.78 4.19 10.11
11/7/2022 9:30:00 PM 11.04 51.872 0.574 7.79 4.24 10.17
11/7/2022 9:45:00 PM 10.97 51.746 0.578 7.79 4.27 10.17
11/7/2022 10:00:00 PM 10.96 51.728 0.581 7.79 4.41 10.17
11/7/2022 10:15:00 PM 10.91 51.638 0.582 7.79 4.31 10.25
11/7/2022 10:30:00 PM 10.84 51.512 0.583 7.79 4.29 10.24
11/7/2022 10:45:00 PM 10.79 51.422 0.585 7.8 4.35 10.29
11/7/2022 11:00:00 PM 10.71 51.278 0.588 7.8 4.34 10.32
11/7/2022 11:15:00 PM 10.57 51.026 0.595 7.79 4.32 10.3
11/7/2022 11:30:00 PM 10.54 50.972 0.613 7.8 4.28 10.34
11/7/2022 11:45:00 PM 10.43 50.774 0.626 7.79 4.34 10.32
11/8/2022 12:00:00 AM 10.4 50.72 0.633 7.79 4.32 10.38
11/8/2022 12:15:00 AM 10.33 50.594 0.635 7.79 4.28 10.38
11/8/2022 12:30:00 AM 10.27 50.486 0.638 7.8 4.55 10.43
11/8/2022 12:45:00 AM 10.19 50.342 0.639 7.8 4.38 10.47
11/8/2022 1:00:00 AM 10.11 50.198 0.639 7.8 4.3 10.48
11/8/2022 1:15:00 AM 9.99 49.982 0.639 7.79 4.33 10.49
11/8/2022 1:30:00 AM 9.93 49.874 0.64 7.8 4.35 10.52
11/8/2022 1:45:00 AM 9.84 49.712 0.639 7.79 4.33 10.53
11/8/2022 2:00:00 AM 9.75 49.55 0.638 7.8 4.38 10.57
11/8/2022 2:15:00 AM 9.68 49.424 0.638 7.79 4.43 10.63
11/8/2022 2:30:00 AM 9.59 49.262 0.637 7.79 4.34 10.62
11/8/2022 2:45:00 AM 9.44 48.992 0.637 7.79 4.45 10.67
11/8/2022 3:00:00 AM 9.37 48.866 0.636 7.8 4.37 10.71
11/8/2022 3:15:00 AM 9.3 48.74 0.636 7.79 4.62 10.74
11/8/2022 3:30:00 AM 9.2 48.56 0.636 7.79 4.31 10.75
11/8/2022 3:45:00 AM 9.15 48.47 0.635 7.8 4.45 10.79
11/8/2022 4:00:00 AM 9.07 48.326 0.626 7.79 4.38 10.81
11/8/2022 4:15:00 AM 8.96 48.128 0.624 7.79 4.34 10.84
11/8/2022 4:30:00 AM 8.88 47.984 0.623 7.79 4.44 10.89
11/8/2022 4:45:00 AM 8.78 47.804 0.623 7.79 4.39 10.91
11/8/2022 5:00:00 AM 8.72 47.696 0.621 7.79 4.59 10.91
11/8/2022 5:15:00 AM 8.61 47.498 0.621 7.79 4.44 10.96
11/8/2022 5:30:00 AM 8.51 47.318 0.618 7.79 4.44 10.99
11/8/2022 5:45:00 AM 8.44 47.192 0.62 7.8 4.64 11.02
11/8/2022 6:00:00 AM 8.34 47.012 0.619 7.79 4.52 11.06
11/8/2022 6:15:00 AM 8.28 46.904 0.618 7.8 4.51 11.1
11/8/2022 6:30:00 AM 8.17 46.706 0.618 7.79 4.43 11.12
11/8/2022 6:45:00 AM 8.1 46.58 0.618 7.8 4.44 11.17
11/8/2022 7:00:00 AM 8.01 46.418 0.62 7.8 4.42 11.2
11/8/2022 7:15:00 AM 7.94 46.292 0.618 7.8 4.56 11.21
11/8/2022 7:30:00 AM 7.87 46.166 0.615 7.81 4.57 11.25
11/8/2022 7:45:00 AM 7.79 46.022 0.617 7.8 4.47 11.29
11/8/2022 8:00:00 AM 7.75 45.95 0.619 7.81 4.53 11.39
11/8/2022 8:15:00 AM 7.71 45.878 0.617 7.82 4.5 11.45
11/8/2022 8:30:00 AM 7.71 45.878 0.617 7.82 4.76 11.5
11/8/2022 8:45:00 AM 7.76 45.968 0.613 7.83 4.75 11.6
11/8/2022 9:00:00 AM 7.8 46.04 0.613 7.84 4.65 11.67
11/8/2022 9:15:00 AM 7.85 46.13 0.601 7.84 4.55 11.69
11/8/2022 9:30:00 AM 7.91 46.238 0.586 7.86 4.71 11.75
11/8/2022 9:45:00 AM 7.97 46.346 0.591 7.86 6.22 11.74
11/8/2022 10:00:00 AM 8.02 46.436 0.574 7.87 4.75 11.84
11/8/2022 10:15:00 AM 8 46.4 0.566 7.88 4.56 11.8
11/8/2022 10:30:00 AM 8.01 46.418 0.566 7.88 4.62 11.82
11/8/2022 10:45:00 AM 8.06 46.508 0.566 7.88 4.6 11.85
11/8/2022 11:00:00 AM 8.08 46.544 0.567 7.86 4.76 11.77
11/8/2022 11:15:00 AM 8.1 46.58 0.565 7.87 4.68 11.76
11/8/2022 11:30:00 AM 8.15 46.67 0.565 7.88 4.67 11.79
11/8/2022 11:45:00 AM 8.19 46.742 0.565 7.9 4.92 11.81
11/8/2022 12:00:00 PM 8.22 46.796 0.564 7.89 4.7 11.78
11/8/2022 12:15:00 PM 8.27 46.886 0.566 7.89 4.77 11.78
11/8/2022 12:30:00 PM 8.31 46.958 0.566 7.9 4.68 11.82
11/8/2022 12:45:00 PM 8.36 47.048 0.565 7.91 4.79 11.82
11/8/2022 1:00:00 PM 8.42 47.156 0.565 7.9 4.71 11.79
11/8/2022 1:15:00 PM 8.67 47.606 0.565 7.91 4.78 11.87
11/8/2022 1:30:00 PM 8.78 47.804 0.564 7.91 4.73 11.86
11/8/2022 1:45:00 PM 8.9 48.02 0.563 7.91 4.68 11.87
11/8/2022 2:00:00 PM 8.95 48.11 0.563 7.91 4.93 11.86
11/8/2022 2:15:00 PM 8.93 48.074 0.562 7.92 4.78 11.87
11/8/2022 2:30:00 PM 8.91 48.038 0.563 7.93 5 11.86
11/8/2022 2:45:00 PM 8.98 48.164 0.563 7.94 4.76 11.86
11/8/2022 3:00:00 PM 8.94 48.092 0.563 7.94 4.78 11.83
11/8/2022 3:15:00 PM 9 48.2 0.564 7.94 4.78 11.8
11/8/2022 3:30:00 PM 8.97 48.146 0.563 7.94 4.75 11.78
11/8/2022 3:45:00 PM 8.94 48.092 0.563 7.94 4.78 11.74
11/8/2022 4:00:00 PM 8.91 48.038 0.565 7.94 4.79 11.67
11/8/2022 4:15:00 PM 8.79 47.822 0.566 7.92 4.87 11.58
11/8/2022 4:30:00 PM 8.77 47.786 0.567 7.92 4.73 11.5
11/8/2022 4:45:00 PM 8.78 47.804 0.568 7.91 4.85 11.43
11/8/2022 5:00:00 PM 8.8 47.84 0.57 7.91 4.72 11.37
11/8/2022 5:15:00 PM 8.83 47.894 0.57 7.9 4.85 11.31
11/8/2022 5:30:00 PM 8.83 47.894 0.571 7.89 4.88 11.24
11/8/2022 5:45:00 PM 8.83 47.894 0.571 7.88 4.81 11.19
11/8/2022 6:00:00 PM 8.82 47.876 0.571 7.88 4.9 11.15
11/8/2022 6:15:00 PM 8.76 47.768 0.571 7.87 4.92 11.14
11/8/2022 6:30:00 PM 8.7 47.66 0.571 7.87 5.02 11.13
11/8/2022 6:45:00 PM 8.64 47.552 0.571 7.86 4.76 11.13
11/8/2022 7:00:00 PM 8.54 47.372 0.572 7.85 4.8 11.11
11/8/2022 7:15:00 PM 8.43 47.174 0.572 7.85 4.73 11.16
11/8/2022 7:30:00 PM 8.34 47.012 0.573 7.85 4.71 11.18
11/8/2022 7:45:00 PM 8.25 46.85 0.575 7.84 4.73 11.17
11/8/2022 8:00:00 PM 8.14 46.652 0.577 7.84 4.77 11.22
11/8/2022 8:15:00 PM 8.04 46.472 0.578 7.83 4.8 11.23
11/8/2022 8:30:00 PM 7.96 46.328 0.579 7.83 4.8 11.26
11/8/2022 8:45:00 PM 7.87 46.166 0.582 7.83 4.74 11.28
11/8/2022 9:00:00 PM 7.79 46.022 0.585 7.83 4.78 11.31
11/8/2022 9:15:00 PM 7.74 45.932 0.589 7.83 4.79 11.29
11/8/2022 9:30:00 PM 7.61 45.698 0.595 7.82 4.84 11.31
11/8/2022 9:45:00 PM 7.52 45.536 0.598 7.82 4.81 11.34
11/8/2022 10:00:00 PM 7.48 45.464 0.601 7.82 4.75 11.37
11/8/2022 10:15:00 PM 7.44 45.392 0.604 7.82 4.74 11.38
11/8/2022 10:30:00 PM 7.35 45.23 0.606 7.81 4.78 11.4
11/8/2022 10:45:00 PM 7.29 45.122 0.601 7.82 4.86 11.42
11/8/2022 11:00:00 PM 7.24 45.032 0.603 7.82 4.78 11.44
11/8/2022 11:15:00 PM 7.15 44.87 0.601 7.81 4.75 11.43
11/8/2022 11:30:00 PM 7.07 44.726 0.604 7.81 5.19 11.48
11/8/2022 11:45:00 PM 7.02 44.636 0.612 7.81 4.78 11.51
11/9/2022 12:00:00 AM 6.95 44.51 0.613 7.81 4.85 11.54
11/9/2022 12:15:00 AM 6.9 44.42 0.613 7.81 4.75 11.53
11/9/2022 12:30:00 AM 6.82 44.276 0.615 7.81 4.9 11.57
11/9/2022 12:45:00 AM 6.77 44.186 0.619 7.8 4.83 11.56
11/9/2022 1:00:00 AM 6.69 44.042 0.609 7.81 4.86 11.61
11/9/2022 1:15:00 AM 6.63 43.934 0.601 7.81 4.78 11.6
11/9/2022 1:30:00 AM 6.53 43.754 0.602 7.81 4.75 11.66
11/9/2022 1:45:00 AM 6.47 43.646 0.596 7.81 4.83 11.68
11/9/2022 2:00:00 AM 6.41 43.538 0.595 7.8 4.75 11.69
11/9/2022 2:15:00 AM 6.33 43.394 0.591 7.81 4.88 11.73
11/9/2022 2:30:00 AM 6.25 43.25 0.582 7.8 4.95 11.75
11/9/2022 2:45:00 AM 6.18 43.124 0.586 7.8 4.78 11.78
11/9/2022 3:00:00 AM 6.09 42.962 0.58 7.8 4.87 11.8
11/9/2022 3:15:00 AM 6.03 42.854 0.58 7.8 4.78 11.83
11/9/2022 3:30:00 AM 5.97 42.746 0.577 7.8 4.87 11.85
11/9/2022 3:45:00 AM 5.9 42.62 0.576 7.8 4.86 11.87
11/9/2022 4:00:00 AM 5.79 42.422 0.556 7.8 4.93 11.9
11/9/2022 4:15:00 AM 5.75 42.35 0.556 7.8 4.85 11.9
11/9/2022 4:30:00 AM 5.67 42.206 0.556 7.8 4.9 11.96
11/9/2022 4:45:00 AM 5.58 42.044 0.556 7.8 4.88 11.99
11/9/2022 5:00:00 AM 5.54 41.972 0.573 7.8 4.92 11.98
11/9/2022 5:15:00 AM 5.45 41.81 0.569 7.8 4.93 12.03
11/9/2022 5:30:00 AM 5.39 41.702 0.571 7.8 4.84 12.05
11/9/2022 5:45:00 AM 5.32 41.576 0.571 7.8 4.88 12.09
11/9/2022 6:00:00 AM 5.24 41.432 0.571 7.79 4.91 12.07
11/9/2022 6:15:00 AM 5.14 41.252 0.556 7.79 4.96 12.11
11/9/2022 6:30:00 AM 5.13 41.234 0.556 7.8 4.89 12.15
11/9/2022 6:45:00 AM 5.05 41.09 0.556 7.8 5.04 12.19
11/9/2022 7:00:00 AM 4.98 40.964 0.556 7.8 4.9 12.22
11/9/2022 7:15:00 AM 4.92 40.856 0.556 7.8 4.93 12.25
11/9/2022 7:30:00 AM 4.87 40.766 0.556 7.81 4.97 12.29
11/9/2022 7:45:00 AM 4.8 40.64 0.556 7.81 5.02 12.36
11/9/2022 8:00:00 AM 4.75 40.55 0.556 7.82 4.98 12.41
11/9/2022 8:15:00 AM 4.7 40.46 0.556 7.82 4.87 12.44
11/9/2022 8:30:00 AM 4.69 40.442 0.556 7.82 4.9 12.46
11/9/2022 8:45:00 AM 4.68 40.424 0.556 7.82 4.97 12.49
11/9/2022 9:00:00 AM 4.7 40.46 0.556 7.83 5 12.58
11/9/2022 9:15:00 AM 4.73 40.514 0.556 7.84 5.02 12.63
11/9/2022 9:30:00 AM 4.81 40.658 0.556 7.84 5.06 12.66
11/9/2022 9:45:00 AM 4.9 40.82 0.572 7.85 5.03 12.67
11/9/2022 10:00:00 AM 5.08 41.144 0.569 7.85 5.06 12.69
11/9/2022 10:15:00 AM 5.09 41.162 0.566 7.86 5.06 12.7
11/9/2022 10:30:00 AM 5.15 41.27 0.556 7.86 5.18 12.72
11/9/2022 10:45:00 AM 5.15 41.27 0.556 7.87 5.17 12.73
11/9/2022 11:00:00 AM 5.22 41.396 0.556 7.86 5.18 12.68
11/9/2022 11:15:00 AM 5.33 41.594 0.564 7.87 5.2 12.71
11/9/2022 11:30:00 AM 5.39 41.702 0.562 7.88 5.12 12.7
11/9/2022 11:45:00 AM 5.51 41.918 0.559 7.87 5.49 12.68
11/9/2022 12:00:00 PM 5.58 42.044 0.556 7.88 5.27 12.67
11/9/2022 12:15:00 PM 5.66 42.188 0.555 7.89 5.14 12.71
11/9/2022 12:30:00 PM 5.73 42.314 0.555 7.9 5.25 12.68
11/9/2022 12:45:00 PM 5.82 42.476 0.555 7.9 5.26 12.67
11/9/2022 1:00:00 PM 6.02 42.836 0.556 7.9 5.31 12.71
11/9/2022 1:15:00 PM 6.2 43.16 0.556 7.9 5.27 12.73
11/9/2022 1:30:00 PM 6.48 43.664 0.556 7.91 5.24 12.73
11/9/2022 1:45:00 PM 6.61 43.898 0.556 7.91 5.27 12.73
11/9/2022 2:00:00 PM 6.89 44.402 0.559 7.9 5.38 12.64
11/9/2022 2:15:00 PM 6.8 44.24 0.56 7.92 5.27 12.65
11/9/2022 2:30:00 PM 6.66 43.988 0.561 7.93 5.32 12.64
11/9/2022 2:45:00 PM 6.65 43.97 0.562 7.93 5.24 12.57
11/9/2022 3:00:00 PM 6.75 44.15 0.56 7.94 5.34 12.54
11/9/2022 3:15:00 PM 6.73 44.114 0.565 7.94 5.28 12.52
11/9/2022 3:30:00 PM 6.78 44.204 0.555 7.94 5.24 12.51
11/9/2022 3:45:00 PM 6.8 44.24 0.557 7.94 5.27 12.45
11/9/2022 4:00:00 PM 6.79 44.222 0.562 7.94 5.33 12.42
11/9/2022 4:15:00 PM 6.7 44.06 0.563 7.93 5.28 12.34
11/9/2022 4:30:00 PM 6.71 44.078 0.565 7.92 5.35 12.24
11/9/2022 4:45:00 PM 6.7 44.06 0.565 7.92 5.31 12.17
11/9/2022 5:00:00 PM 6.74 44.132 0.555 7.92 5.22 12.09
11/9/2022 5:15:00 PM 6.76 44.168 0.56 7.91 5.26 12.01
11/9/2022 5:30:00 PM 6.77 44.186 0.564 7.9 5.28 11.95
11/9/2022 5:45:00 PM 6.77 44.186 0.567 7.89 5.2 11.89
11/9/2022 6:00:00 PM 6.75 44.15 0.566 7.88 5.33 11.84
11/9/2022 6:15:00 PM 6.71 44.078 0.565 7.88 5.27 11.81
11/9/2022 6:30:00 PM 6.65 43.97 0.568 7.87 5.27 11.8
11/9/2022 6:45:00 PM 6.58 43.844 0.574 7.87 5.23 11.8
11/9/2022 7:00:00 PM 6.51 43.718 0.575 7.86 5.27 11.79
11/9/2022 7:15:00 PM 6.43 43.574 0.573 7.86 5.36 11.8
11/9/2022 7:30:00 PM 6.35 43.43 0.577 7.86 5.23 11.81
11/9/2022 7:45:00 PM 6.29 43.322 0.581 7.86 5.24 11.83
11/9/2022 8:00:00 PM 6.21 43.178 0.584 7.85 5.2 11.85
11/9/2022 8:15:00 PM 6.13 43.034 0.586 7.85 5.23 11.89
11/9/2022 8:30:00 PM 6.05 42.89 0.586 7.85 5.58 11.92
11/9/2022 8:45:00 PM 5.99 42.782 0.581 7.85 5.26 11.9
11/9/2022 9:00:00 PM 5.91 42.638 0.579 7.85 5.27 11.92
11/9/2022 9:15:00 PM 5.87 42.566 0.577 7.85 5.32 11.94
11/9/2022 9:30:00 PM 5.82 42.476 0.579 7.84 5.25 11.93
11/9/2022 9:45:00 PM 5.75 42.35 0.584 7.84 5.18 11.95
11/9/2022 10:00:00 PM 5.71 42.278 0.592 7.84 5.28 11.97
11/9/2022 10:15:00 PM 5.65 42.17 0.591 7.83 5.31 11.98
11/9/2022 10:30:00 PM 5.6 42.08 0.587 7.83 5.21 11.98
11/9/2022 10:45:00 PM 5.56 42.008 0.587 7.83 5.19 12.02
11/9/2022 11:00:00 PM 5.53 41.954 0.588 7.83 5.33 12.01
11/9/2022 11:15:00 PM 5.49 41.882 0.584 7.82 5.5 12
11/9/2022 11:30:00 PM 5.44 41.792 0.581 7.83 5.3 12.01
11/9/2022 11:45:00 PM 5.4 41.72 0.583 7.82 5.25 12.01
11/10/2022 12:00:00 AM 5.34 41.612 0.583 7.82 5.26 12.04
11/10/2022 12:15:00 AM 5.3 41.54 0.592 7.82 5.3 12.05
11/10/2022 12:30:00 AM 5.27 41.486 0.588 7.82 5.3 12.03
11/10/2022 12:45:00 AM 5.23 41.414 0.589 7.81 5.19 12.05
11/10/2022 1:00:00 AM 5.2 41.36 0.587 7.82 5.26 12.08
11/10/2022 1:15:00 AM 5.17 41.306 0.579 7.82 5.19 12.11
11/10/2022 1:30:00 AM 5.11 41.198 0.561 7.82 5.25 12.12
11/10/2022 1:45:00 AM 5.05 41.09 0.572 7.82 5.29 12.13
11/10/2022 2:00:00 AM 5 41 0.561 7.82 5.3 12.18
11/10/2022 2:15:00 AM 4.97 40.946 0.561 7.82 5.37 12.16
11/10/2022 2:30:00 AM 4.9 40.82 0.561 7.81 5.29 12.19
11/10/2022 2:45:00 AM 4.87 40.766 0.561 7.81 5.3 12.17
11/10/2022 3:00:00 AM 4.8 40.64 0.561 7.81 5.42 12.2
11/10/2022 3:15:00 AM 4.75 40.55 0.562 7.81 5.36 12.24
11/10/2022 3:30:00 AM 4.7 40.46 0.562 7.81 5.31 12.24
11/10/2022 3:45:00 AM 4.65 40.37 0.562 7.81 5.41 12.28
11/10/2022 4:00:00 AM 4.59 40.262 0.562 7.81 5.33 12.29
11/10/2022 4:15:00 AM 4.51 40.118 0.562 7.81 5.31 12.34
11/10/2022 4:30:00 AM 4.47 40.046 0.562 7.81 5.33 12.35
11/10/2022 4:45:00 AM 4.43 39.974 0.562 7.81 5.3 12.36
11/10/2022 5:00:00 AM 4.36 39.848 0.562 7.81 5.24 12.4
11/10/2022 5:15:00 AM 4.29 39.722 0.562 7.81 5.29 12.42
11/10/2022 5:30:00 AM 4.25 39.65 0.562 7.81 5.34 12.44
11/10/2022 5:45:00 AM 4.2 39.56 0.563 7.81 5.36 12.43
11/10/2022 6:00:00 AM 4.14 39.452 0.563 7.8 5.36 12.44
11/10/2022 6:15:00 AM 4.08 39.344 0.563 7.8 5.32 12.47
11/10/2022 6:30:00 AM 4.03 39.254 0.563 7.8 5.32 12.5
11/10/2022 6:45:00 AM 3.97 39.146 0.563 7.8 5.29 12.51
11/10/2022 7:00:00 AM 3.9 39.02 0.562 7.79 5.36 12.53
11/10/2022 7:15:00 AM 3.87 38.966 0.562 7.8 5.3 12.56
11/10/2022 7:30:00 AM 3.83 38.894 0.562 7.8 5.3 12.62
11/10/2022 7:45:00 AM 3.8 38.84 0.563 7.81 5.39 12.66
11/10/2022 8:00:00 AM 3.78 38.804 0.562 7.81 6.18 12.69
11/10/2022 8:15:00 AM 3.75 38.75 0.562 7.82 5.3 12.75
11/10/2022 8:30:00 AM 3.75 38.75 0.562 7.82 5.4 12.69
11/10/2022 8:45:00 AM 3.76 38.768 0.562 7.82 5.42 12.81
11/10/2022 9:00:00 AM 3.78 38.804 0.562 7.82 5.38 12.83